Temp     Hi    Low   Out    Dew  Wind  Wind   Wind    Hi    Hi   Wind   Heat    THW   THSW                Rain  Solar   Solar Hi Solar   UV    UV    Hi     Heat    Cool    In     In    In     In           Wind  Wind    ISS   Arc.
  Date    Time     Out   Temp   Temp   Hum    Pt. Speed   Dir    Run Speed   Dir  Chill  Index  Index  Index   Bar    Rain  Rate   Rad.  Energy    Rad.  Index  Dose   UV     D-D     D-D    Temp   Hum    Dew   Heat     ET   Samp   Tx   Recept  Int.
---------------------------------------------------------------------------------------------------------------------------------------------------------------------------------------------------------------------------------------------------------
17/11/20   0.15   15.9   16.0   15.8    72   10.9  22.5     N   5.63  38.6   NNE   13.2   15.7   12.9   11.6  ------  0.00   0.0     0     0.00      0     0.0  0.00   0.0   0.025   0.000   17.3    73   12.4   17.2    0.00   350    1    100.0   15 
17/11/20   0.30   15.7   16.0   15.7    73   10.9  20.9     N   5.23  41.8     N   13.1   15.4   12.8   11.5  ------  0.00   0.0     0     0.00      0     0.0  0.00   0.0   0.027   0.000   17.3    72   12.2   17.2    0.00   350    1    100.0   15 
17/11/20   0.45   15.8   15.9   15.7    72   10.8  22.5   NNE   5.63  40.2   NNE   13.1   15.6   12.8   11.5  ------  0.00   0.0     0     0.00      0     0.0  0.00   0.0   0.026   0.000   17.3    71   12.0   17.2    0.00   351    1    100.0   15 
17/11/20   1.00   15.7   15.9   15.7    72   10.7  22.5   NNE   5.63  43.5     N   12.9   15.4   12.6   11.3  ------  0.00   0.0     0     0.00      0     0.0  0.00   0.0   0.027   0.000   17.3    70   11.8   17.1    0.08   350    1    100.0   15 
17/11/20   1.15   15.3   15.7   15.3    75   10.9  22.5     N   5.63  38.6   NNE   12.4   15.0   12.2   10.9  ------  0.00   0.0     0     0.00      0     0.0  0.00   0.0   0.032   0.000   17.3    70   11.8   17.1    0.00   351    1    100.0   15 
17/11/20   1.30   15.3   15.3   15.2    76   11.1  20.9   NNE   5.23  35.4   NNE   12.6   15.1   12.4   11.1  ------  0.00   0.0     0     0.00      0     0.0  0.00   0.0   0.032   0.000   17.2    70   11.7   17.1    0.00   351    1    100.0   15 
17/11/20   1.45   15.3   15.3   15.2    75   10.9  17.7   NNE   4.43  32.2   NNE   13.3   15.1   13.1   11.7  ------  0.00   0.0     0     0.00      0     0.0  0.00   0.0   0.031   0.000   17.2    70   11.7   17.1    0.00   351    1    100.0   15 
17/11/20   2.00   15.3   15.3   15.2    74   10.7  17.7   NNE   4.43  32.2    NE   13.2   15.0   12.9   11.6  ------  0.00   0.0     0     0.00      0     0.0  0.00   0.0   0.032   0.000   17.2    70   11.7   17.1    0.08   351    1    100.0   15 
17/11/20   2.15   15.1   15.3   15.1    75   10.7   9.7    NE   2.41  24.1   NNE   14.7   14.8   14.4   12.8  ------  0.00   0.0     0     0.00      0     0.0  0.00   0.0   0.034   0.000   17.2    70   11.7   17.1    0.00   351    1    100.0   15 
17/11/20   2.30   15.1   15.1   14.9    73   10.3  14.5   NNE   3.62  29.0    NE   13.7   14.7   13.3   11.8  ------  0.00   0.0     0     0.00      0     0.0  0.00   0.0   0.034   0.000   17.2    69   11.5   17.0    0.00   352    1    100.0   15 
17/11/20   2.45   15.1   15.2   15.0    72   10.0  17.7   NNE   4.43  35.4   NNE   12.9   14.7   12.6   11.2  ------  0.00   0.0     0     0.00      0     0.0  0.00   0.0   0.034   0.000   17.2    69   11.5   17.0    0.00   350    1    100.0   15 
17/11/20   3.00   15.2   15.2   15.1    72   10.2  17.7   NNE   4.43  32.2   NNE   13.1   14.8   12.7   11.3  ------  0.00   0.0     0     0.00      0     0.0  0.00   0.0   0.033   0.000   17.2    68   11.3   17.0    0.05   351    1    100.0   15 
17/11/20   3.15   15.4   15.4   15.2    71   10.2  19.3     N   4.83  38.6     N   13.1   15.1   12.8   11.4  ------  0.00   0.0     0     0.00      0     0.0  0.00   0.0   0.030   0.000   17.2    68   11.3   17.0    0.00   351    1    100.0   15 
17/11/20   3.30   15.5   15.6   15.4    71   10.3  19.3     N   4.83  40.2     N   13.2   15.2   12.8   11.4  ------  0.00   0.0     0     0.00      0     0.0  0.00   0.0   0.030   0.000   17.1    68   11.2   16.8    0.00   349    1    100.0   15 
17/11/20   3.45   15.4   15.5   15.4    71   10.2  19.3     N   4.83  37.0   NNE   13.0   15.1   12.7   11.3  ------  0.00   0.0     0     0.00      0     0.0  0.00   0.0   0.031   0.000   17.1    68   11.2   16.8    0.00   350    1    100.0   15 
17/11/20   4.00   15.3   15.4   15.3    70    9.9  20.9     N   5.23  37.0   NNE   12.7   15.0   12.3   10.9  ------  0.00   0.0     0     0.00      0     0.0  0.00   0.0   0.031   0.000   17.1    68   11.2   16.8    0.08   347    1    100.0   15 
17/11/20   4.15   15.4   15.4   15.3    69    9.7  22.5     N   5.63  40.2   NNE   12.6   15.0   12.2   10.8  ------  0.00   0.0     0     0.00      0     0.0  0.00   0.0   0.031   0.000   17.1    67   10.9   16.8    0.00   350    1    100.0   15 
17/11/20   4.30   15.3   15.4   15.3    70    9.8  24.1     N   6.04  37.0     N   12.2   14.9   11.9   10.6  ------  0.00   0.0     0     0.00      0     0.0  0.00   0.0   0.032   0.000   17.1    66   10.7   16.8    0.00   351    1    100.0   15 
17/11/20   4.45   15.2   15.3   15.2    71    9.9  19.3     N   4.83  38.6   NNE   12.8   14.8   12.4   11.1  ------  0.00   0.0     0     0.00      0     0.0  0.00   0.0   0.033   0.000   17.1    67   10.9   16.8    0.00   352    1    100.0   15 
17/11/20   5.00   15.1   15.2   15.1    71    9.9  17.7     N   4.43  35.4     N   13.0   14.8   12.7   11.2  ------  0.00   0.0     0     0.00      0     0.0  0.00   0.0   0.034   0.000   17.1    67   10.9   16.8    0.08   351    1    100.0   15 
17/11/20   5.15   15.1   15.2   15.1    71    9.8  14.5     N   3.62  35.4    NE   13.7   14.7   13.3   11.7  ------  0.00   0.0     0     0.00      0     0.0  0.00   0.0   0.034   0.000   17.1    67   10.9   16.8    0.00   351    1    100.0   15 
17/11/20   5.30   15.3   15.3   15.1    69    9.7  17.7     N   4.43  32.2     N   13.3   14.9   12.9   11.4  ------  0.00   0.0     0     0.00      0     0.0  0.00   0.0   0.031   0.000   17.1    66   10.7   16.8    0.00   350    1    100.0   15 
17/11/20   5.45   15.2   15.4   15.2    69    9.6  14.5   NNE   3.62  32.2     N   13.9   14.8   13.5   11.9  ------  0.00   0.0     0     0.00      0     0.0  0.00   0.0   0.032   0.000   17.1    66   10.7   16.8    0.00   352    1    100.0   15 
17/11/20   6.00   15.3   15.4   15.2    70    9.9  14.5     N   3.62  33.8     N   14.0   15.0   13.7   12.1  ------  0.00   0.0     0     0.00      0     0.0  0.00   0.0   0.031   0.000   17.1    66   10.7   16.8    0.08   350    1    100.0   15 
17/11/20   6.15   15.2   15.4   15.2    69    9.6  11.3     N   2.82  29.0     N   14.7   14.8   14.3   12.6  ------  0.00   0.0     0     0.00      0     0.0  0.00   0.0   0.032   0.000   17.1    66   10.7   16.8    0.00   350    1    100.0   15 
17/11/20   6.30   15.3   15.4   15.2    68    9.5  17.7     N   4.43  33.8   NNE   13.3   14.9   12.8   11.4  ------  0.00   0.0     0     0.00      0     0.0  0.00   0.0   0.031   0.000   17.1    66   10.7   16.8    0.00   351    1    100.0   15 
17/11/20   6.45   15.1   15.3   15.1    68    9.2  17.7     N   4.43  35.4     N   13.0   14.7   12.6   11.1  ------  0.00   0.0     0     0.00      0     0.0  0.00   0.0   0.034   0.000   17.1    66   10.7   16.8    0.00   352    1    100.0   15 
17/11/20   7.00   15.1   15.2   15.1    69    9.5  16.1   NNW   4.02  30.6     N   13.3   14.7   12.9   11.4  ------  0.00   0.0     0     0.00      0     0.0  0.00   0.0   0.034   0.000   17.1    66   10.7   16.8    0.08   351    1    100.0   15 
17/11/20   7.15   14.7   15.1   14.7    70    9.3  14.5     N   3.62  25.7     N   13.3   14.3   12.9   11.3  ------  0.00   0.0     1     0.02      5     0.0  0.00   0.0   0.038   0.000   17.1    66   10.7   16.8    0.00   351    1    100.0   15 
17/11/20   7.30   14.9   14.9   14.6    70    9.5  17.7   NNE   4.43  32.2   NNE   12.8   14.5   12.4   11.0  ------  0.00   0.0     9     0.19     12     0.0  0.00   0.0   0.036   0.000   17.0    66   10.6   16.7    0.00   351    1    100.0   15 
17/11/20   7.45   14.9   14.9   14.8    69    9.2  17.7     N   4.43  32.2    NE   12.8   14.4   12.3   11.1  ------  0.00   0.0    25     0.54     37     0.0  0.00   0.0   0.036   0.000   17.0    65   10.4   16.7    0.00   351    1    100.0   15 
17/11/20   8.00   14.9   14.9   14.9    69    9.3  14.5     N   3.62  30.6     N   13.6   14.5   13.1   12.1  ------  0.00   0.0    53     1.14     69     0.0  0.00   0.0   0.035   0.000   17.0    65   10.4   16.7    0.08   350    1    100.0   15 
17/11/20   8.15   15.0   15.0   14.9    68    9.1  17.7     N   4.43  29.0     N   12.9   14.6   12.4   11.9  ------  0.00   0.0    89     1.91    109     0.0  0.00   0.0   0.035   0.000   17.0    65   10.4   16.7    0.00   351    1    100.0   15 
17/11/20   8.30   15.1   15.1   14.9    68    9.2  19.3   NNE   4.83  37.0    NE   12.6   14.6   12.2   13.5  ------  0.00   0.0   132     2.84    153     0.0  0.00   0.0   0.034   0.000   17.0    65   10.4   16.7    0.00   348    1    100.0   15 
17/11/20   8.45   15.3   15.3   15.1    67    9.2  19.3     N   4.83  35.4   NNE   12.9   14.8   12.4   14.4  ------  0.00   0.0   176     3.78    195     0.0  0.00   0.0   0.032   0.000   17.0    64   10.1   16.6    0.00   350    1    100.0   15 
17/11/20   9.00   15.5   15.5   15.3    65    8.9  19.3   NNE   4.83  35.4     N   13.2   15.0   12.7   15.3  ------  0.00   0.0   221     4.75    244     0.0  0.00   0.0   0.030   0.000   17.0    64   10.1   16.6    0.15   351    1    100.0   15 
17/11/20   9.15   15.5   15.5   15.4    65    8.9  19.3     N   4.83  32.2     N   13.2   15.0   12.7   15.8  ------  0.00   0.0   263     5.66    278     0.0  0.00   0.0   0.030   0.000   17.0    64   10.1   16.6    0.00   350    1    100.0   15 
17/11/20   9.30   15.6   15.7   15.4    65    9.0  14.5     N   3.62  29.0   NNW   14.3   15.1   13.8   17.7  ------  0.00   0.0   293     6.30    306     0.0  0.00   0.0   0.029   0.000   17.1    64   10.2   16.7    0.00   350    1    100.0   15 
17/11/20   9.45   15.7   15.7   15.6    65    9.2  16.1     N   4.02  29.0     N   14.1   15.2   13.6   17.4  ------  0.00   0.0   319     6.86    330     0.0  0.00   0.0   0.027   0.000   17.2    64   10.3   16.8    0.00   351    1    100.0   15 
17/11/20  10.00   16.0   16.0   15.7    65    9.4  16.1     N   4.02  30.6   NNE   14.4   15.6   13.9   17.9  ------  0.00   0.0   344     7.40    355     0.0  0.00   0.0   0.024   0.000   17.2    64   10.3   16.8    0.23   351    1    100.0   15 
17/11/20  10.15   16.1   16.1   15.9    64    9.2  14.5     N   3.62  27.4     N   14.9   15.6   14.4   18.8  ------  0.00   0.0   366     7.87    376     0.0  0.00   0.0   0.024   0.000   17.3    64   10.4   16.9    0.00   351    1    100.0   15 
17/11/20  10.30   16.2   16.2   16.1    63    9.1  16.1     N   4.02  32.2   NNE   14.6   15.6   14.0   18.4  ------  0.00   0.0   386     8.30    394     0.0  0.00   0.0   0.023   0.000   17.4    64   10.5   17.0    0.00   350    1    100.0   15 
17/11/20  10.45   16.3   16.3   16.1    63    9.2  16.1     N   4.02  29.0   NNE   14.7   15.8   14.2   18.7  ------  0.00   0.0   404     8.69    411     0.0  0.00   0.0   0.021   0.000   17.4    64   10.6   17.1    0.00   348    1    100.0   15 
17/11/20  11.00   16.2   16.3   16.1    63    9.2  19.3     N   4.83  35.4   NNE   13.9   15.7   13.4   17.7  ------  0.00   0.0   419     9.01    425     0.0  0.00   0.0   0.022   0.000   17.4    63   10.3   17.1    0.28   350    1    100.0   15 
17/11/20  11.15   16.3   16.3   16.2    60    8.5  17.7     N   4.43  32.2     N   14.3   15.6   13.7   18.1  ------  0.00   0.0   430     9.25    436     0.0  0.00   0.0   0.021   0.000   17.6    63   10.4   17.2    0.00   351    1    100.0   15 
17/11/20  11.30   16.4   16.4   16.2    60    8.6  20.9   NNE   5.23  35.4     N   13.9   15.7   13.2   17.4  ------  0.00   0.0   440     9.46    443     0.0  0.00   0.0   0.020   0.000   17.7    62   10.3   17.3    0.00   351    1    100.0   15 
17/11/20  11.45   16.7   16.7   16.4    59    8.6  20.9     N   5.23  38.6   NNE   14.2   15.9   13.5   17.7  ------  0.00   0.0   446     9.59    448     0.0  0.00   0.0   0.017   0.000   17.8    62   10.4   17.4    0.00   350    1    100.0   15 
17/11/20  12.00   16.8   16.8   16.6    60    9.0  20.9     N   5.23  37.0     N   14.3   16.1   13.7   17.9  ------  0.00   0.0   450     9.68    450     0.0  0.00   0.0   0.016   0.000   17.9    61   10.3   17.4    0.33   349    1    100.0   15 
17/11/20  12.15   17.1   17.1   16.8    59    9.0  19.3     N   4.83  37.0     N   14.9   16.4   14.2   18.6  ------  0.00   0.0   450     9.68    452     0.0  0.00   0.0   0.013   0.000   18.1    61   10.5   17.7    0.00   348    1    100.0   15 
17/11/20  12.30   17.1   17.1   16.9    59    9.0  20.9     N   5.23  37.0     N   14.7   16.4   14.1   18.2  ------  0.00   0.0   448     9.63    450     0.0  0.00   0.0   0.013   0.000   18.3    61   10.6   17.9    0.00   349    1    100.0   15 
17/11/20  12.45   17.3   17.3   17.1    60    9.5  20.9   NNE   5.23  37.0   NNE   14.9   16.7   14.3   18.5  ------  0.00   0.0   443     9.53    445     0.0  0.00   0.0   0.010   0.000   18.3    60   10.4   17.9    0.00   349    1    100.0   15 
17/11/20  13.00   17.3   17.4   17.3    58    8.9  20.9     N   5.23  38.6   NNE   14.9   16.6   14.2   18.4  ------  0.00   0.0   433     9.31    439     0.0  0.00   0.0   0.011   0.000   18.6    60   10.6   18.1    0.36   349    1    100.0   15 
17/11/20  13.15   17.4   17.4   17.3    60    9.6  20.9   NNE   5.23  37.0   NNE   15.1   16.9   14.5   18.6  ------  0.00   0.0   421     9.05    429     0.0  0.00   0.0   0.009   0.000   18.7    60   10.8   18.3    0.00   347    1    100.0   15 
17/11/20  13.30   17.4   17.5   17.4    58    9.0  19.3     N   4.83  38.6     N   15.3   16.7   14.6   18.7  ------  0.00   0.0   405     8.71    411     0.0  0.00   0.0   0.010   0.000   18.8    59   10.6   18.4    0.00   350    1    100.0   15 
17/11/20  13.45   17.5   17.5   17.4    58    9.1  22.5     N   5.63  38.6   NNE   14.9   16.9   14.3   18.1  ------  0.00   0.0   388     8.34    396     0.0  0.00   0.0   0.009   0.000   18.9    59   10.7   18.4    0.00   349    1    100.0   15 
17/11/20  14.00   17.5   17.5   17.4    58    9.1  22.5     N   5.63  37.0   NNE   14.9   16.9   14.3   18.0  ------  0.00   0.0   369     7.93    380     0.0  0.00   0.0   0.009   0.000   19.0    58   10.5   18.6    0.33   347    1    100.0   15 
17/11/20  14.15   17.5   17.6   17.4    59    9.4  25.7   NNE   6.44  41.8   NNE   14.6   16.9   13.9   17.3  ------  0.00   0.0   347     7.46    359     0.0  0.00   0.0   0.009   0.000   19.0    58   10.5   18.6    0.00   347    1    100.0   15 
17/11/20  14.30   17.5   17.5   17.4    57    8.9  25.7     N   6.44  43.5    NE   14.6   16.8   13.9   17.1  ------  0.00   0.0   322     6.92    334     0.0  0.00   0.0   0.009   0.000   18.9    58   10.4   18.4    0.00   349    1    100.0   15 
17/11/20  14.45   17.4   17.6   17.4    58    9.1  24.1     N   6.04  43.5     N   14.7   16.8   14.0   17.1  ------  0.00   0.0   294     6.32    308     0.0  0.00   0.0   0.009   0.000   18.6    58   10.2   18.1    0.00   347    1    100.0   15 
17/11/20  15.00   17.5   17.6   17.4    59    9.4  24.1     N   6.04  40.2   NNE   14.8   16.9   14.2   17.1  ------  0.00   0.0   266     5.72    279     0.0  0.00   0.0   0.009   0.000   18.4    58   10.0   17.9    0.30   344    1    100.0   15 
17/11/20  15.15   17.4   17.6   17.4    59    9.3  20.9     N   5.23  33.8     N   15.0   16.8   14.4   17.2  ------  0.00   0.0   234     5.03    250     0.0  0.00   0.0   0.010   0.000   18.3    58    9.9   17.7    0.00   350    1    100.0   15 
17/11/20  15.30   17.3   17.4   17.3    59    9.2  22.5     N   5.63  37.0    NE   14.7   16.7   14.1   16.3  ------  0.00   0.0   191     4.11    211     0.0  0.00   0.0   0.010   0.000   18.2    58    9.8   17.6    0.00   349    1    100.0   15 
17/11/20  15.45   17.3   17.3   17.3    58    9.0  19.3   NNE   4.83  32.2     N   15.2   16.7   14.6   16.3  ------  0.00   0.0   146     3.14    167     0.0  0.00   0.0   0.010   0.000   18.1    58    9.7   17.6    0.00   345    1    100.0   15 
17/11/20  16.00   17.2   17.3   17.2    60    9.3  17.7   NNE   4.43  38.6   NNE   15.4   16.6   14.8   15.9  ------  0.00   0.0   103     2.21    121     0.0  0.00   0.0   0.012   0.000   18.0    59    9.9   17.5    0.20   349    1    100.0   15 
17/11/20  16.15   17.1   17.2   17.1    60    9.3  19.3     N   4.83  35.4     N   15.0   16.5   14.4   14.8  ------  0.00   0.0    64     1.38     84     0.0  0.00   0.0   0.013   0.000   18.0    59    9.9   17.5    0.00   348    1    100.0   15 
17/11/20  16.30   16.9   17.1   16.9    60    9.1  19.3   NNE   4.83  33.8   NNE   14.7   16.2   14.1   13.7  ------  0.00   0.0    28     0.60     46     0.0  0.00   0.0   0.015   0.000   17.9    59    9.8   17.3    0.00   348    1    100.0   15 
17/11/20  16.45   16.8   16.9   16.8    60    9.0  16.1   NNE   4.02  30.6   NNE   15.3   16.1   14.6   13.5  ------  0.00   0.0    12     0.26     14     0.0  0.00   0.0   0.016   0.000   17.9    59    9.8   17.3    0.00   350    1    100.0   15 
17/11/20  17.00   16.7   16.8   16.7    60    8.9  16.1   NNE   4.02  32.2     N   15.2   16.1   14.6   13.3  ------  0.00   0.0     4     0.09      9     0.0  0.00   0.0   0.017   0.000   17.8    59    9.7   17.3    0.10   351    1    100.0   15 
17/11/20  17.15   16.8   16.8   16.7    61    9.2  16.1   NNE   4.02  30.6   NNE   15.3   16.2   14.7   13.4  ------  0.00   0.0     0     0.00      0     0.0  0.00   0.0   0.016   0.000   17.8    58    9.5   17.2    0.00   348    1    100.0   15 
17/11/20  17.30   16.5   16.7   16.5    61    8.9  12.9   NNE   3.22  25.7    NE   15.8   15.9   15.2   13.8  ------  0.00   0.0     0     0.00      0     0.0  0.00   0.0   0.019   0.000   17.7    59    9.6   17.2    0.00   352    1    100.0   15 
17/11/20  17.45   16.4   16.5   16.3    62    9.1  12.9   NNE   3.22  25.7   NNE   15.8   15.9   15.2   13.8  ------  0.00   0.0     0     0.00      0     0.0  0.00   0.0   0.020   0.000   17.7    59    9.6   17.2    0.00   351    1    100.0   15 
17/11/20  18.00   16.4   16.5   16.3    62    9.1  14.5   NNE   3.62  27.4     N   15.3   15.9   14.8   13.4  ------  0.00   0.0     0     0.00      0     0.0  0.00   0.0   0.020   0.000   17.6    59    9.5   17.1    0.08   351    1    100.0   15 
17/11/20  18.15   16.3   16.5   16.2    62    9.0  12.9   NNE   3.22  25.7     N   15.6   15.7   15.1   13.7  ------  0.00   0.0     0     0.00      0     0.0  0.00   0.0   0.021   0.000   17.6    59    9.5   17.1    0.00   349    1    100.0   15 
17/11/20  18.30   16.3   16.4   16.2    61    8.8  17.7   NNE   4.43  29.0    NE   14.4   15.7   13.8   12.6  ------  0.00   0.0     0     0.00      0     0.0  0.00   0.0   0.021   0.000   17.6    59    9.5   17.1    0.00   348    1    100.0   15 
17/11/20  18.45   16.2   16.4   16.2    62    8.9  17.7   NNE   4.43  25.7   NNE   14.2   15.6   13.7   12.4  ------  0.00   0.0     0     0.00      0     0.0  0.00   0.0   0.023   0.000   17.6    59    9.5   17.1    0.00   350    1    100.0   15 
17/11/20  19.00   16.0   16.2   15.9    63    9.0  14.5   NNE   3.62  27.4    NE   14.8   15.4   14.3   12.9  ------  0.00   0.0     0     0.00      0     0.0  0.00   0.0   0.024   0.000   17.6    59    9.4   16.9    0.08   350    1    100.0   15 
17/11/20  19.15   16.2   16.3   15.9    61    8.6  19.3   NNE   4.83  29.0   NNE   13.9   15.6   13.3   12.1  ------  0.00   0.0     0     0.00      0     0.0  0.00   0.0   0.023   0.000   17.6    58    9.2   16.9    0.00   346    1    100.0   15 
17/11/20  19.30   15.9   16.2   15.9    62    8.7  16.1   NNE   4.02  32.2    NE   14.3   15.3   13.7   12.4  ------  0.00   0.0     0     0.00      0     0.0  0.00   0.0   0.025   0.000   17.6    58    9.2   16.9    0.00   350    1    100.0   15 
17/11/20  19.45   16.1   16.1   15.8    62    8.8  14.5   NNE   3.62  27.4   NNE   14.9   15.5   14.3   13.0  ------  0.00   0.0     0     0.00      0     0.0  0.00   0.0   0.024   0.000   17.6    58    9.2   16.9    0.00   350    1    100.0   15 
17/11/20  20.00   15.8   16.1   15.8    63    8.8  14.5   NNE   3.62  27.4     N   14.6   15.3   14.1   12.7  ------  0.00   0.0     0     0.00      0     0.0  0.00   0.0   0.026   0.000   17.4    58    9.1   16.8    0.08   347    1    100.0   15 
17/11/20  20.15   15.9   15.9   15.7    63    8.9  16.1   NNE   4.02  30.6   NNE   14.3   15.3   13.7   12.4  ------  0.00   0.0     0     0.00      0     0.0  0.00   0.0   0.025   0.000   17.4    59    9.3   16.8    0.00   348    1    100.0   15 
17/11/20  20.30   15.7   15.9   15.6    63    8.6  12.9   NNE   3.22  27.4    NE   14.8   15.1   14.3   12.9  ------  0.00   0.0     0     0.00      0     0.0  0.00   0.0   0.028   0.000   17.4    59    9.3   16.8    0.00   350    1    100.0   15 
17/11/20  20.45   15.5   15.7   15.5    64    8.7   4.8   NNE   1.21  16.1     N   15.5   14.9   14.9   13.5  ------  0.00   0.0     0     0.00      0     0.0  0.00   0.0   0.030   0.000   17.4    59    9.3   16.8    0.00   352    1    100.0   15 
17/11/20  21.00   15.3   15.5   15.3    65    8.8   6.4   NNE   1.61  22.5     N   15.3   14.8   14.8   13.4  ------  0.00   0.0     0     0.00      0     0.0  0.00   0.0   0.031   0.000   17.4    59    9.3   16.8    0.05   350    1    100.0   15 
17/11/20  21.15   15.3   15.4   15.3    65    8.7   3.2   NNE   0.80  16.1     N   15.3   14.7   14.7   13.3  ------  0.00   0.0     0     0.00      0     0.0  0.00   0.0   0.032   0.000   17.4    59    9.3   16.8    0.00   351    1    100.0   15 
17/11/20  21.30   15.2   15.3   15.1    65    8.7   3.2   NNW   0.80  16.1   NNW   15.2   14.7   14.7   13.2  ------  0.00   0.0     0     0.00      0     0.0  0.00   0.0   0.032   0.000   17.4    60    9.6   16.9    0.00   350    1    100.0   15 
17/11/20  21.45   15.3   15.4   15.2    65    8.8  12.9   NNW   3.22  22.5   NNW   14.4   14.8   13.9   12.6  ------  0.00   0.0     0     0.00      0     0.0  0.00   0.0   0.031   0.000   17.4    59    9.3   16.8    0.00   348    1    100.0   15 
17/11/20  22.00   15.2   15.4   15.2    67    9.1   9.7     N   2.41  20.9     N   14.9   14.8   14.5   13.1  ------  0.00   0.0     0     0.00      0     0.0  0.00   0.0   0.032   0.000   17.4    59    9.3   16.8    0.05   348    1    100.0   15 
17/11/20  22.15   15.2   15.3   15.2    67    9.1  11.3     N   2.82  22.5   NNE   14.7   14.8   14.3   12.8  ------  0.00   0.0     0     0.00      0     0.0  0.00   0.0   0.032   0.000   17.4    59    9.3   16.8    0.00   351    1    100.0   15 
17/11/20  22.30   15.2   15.3   15.1    66    8.9  16.1     N   4.02  29.0     N   13.5   14.7   13.0   11.7  ------  0.00   0.0     0     0.00      0     0.0  0.00   0.0   0.032   0.000   17.4    60    9.5   16.8    0.00   348    1    100.0   15 
17/11/20  22.45   14.9   15.3   14.9    67    8.9  12.9   NNE   3.22  27.4   NNE   14.0   14.4   13.5   12.1  ------  0.00   0.0     0     0.00      0     0.0  0.00   0.0   0.035   0.000   17.4    60    9.5   16.8    0.00   348    1    100.0   15 
17/11/20  23.00   14.9   14.9   14.8    69    9.2  11.3     N   2.82  20.9   NNW   14.3   14.4   13.9   12.4  ------  0.00   0.0     0     0.00      0     0.0  0.00   0.0   0.036   0.000   17.4    60    9.5   16.8    0.05   349    1    100.0   15 
17/11/20  23.15   15.2   15.2   14.9    68    9.3  12.9   NNE   3.22  25.7   NNE   14.3   14.7   13.8   12.4  ------  0.00   0.0     0     0.00      0     0.0  0.00   0.0   0.033   0.000   17.4    60    9.5   16.8    0.00   350    1    100.0   15 
17/11/20  23.30   14.9   15.2   14.9    69    9.2   8.0   NNE   2.01  24.1   NNE   14.8   14.4   14.3   12.9  ------  0.00   0.0     0     0.00      0     0.0  0.00   0.0   0.036   0.000   17.4    60    9.5   16.8    0.00   348    1    100.0   15 
17/11/20  23.45   14.9   14.9   14.8    70    9.5   8.0     N   2.01  19.3   NNW   14.8   14.5   14.4   13.0  ------  0.00   0.0     0     0.00      0     0.0  0.00   0.0   0.036   0.000   17.4    60    9.5   16.8    0.00   351    1    100.0   15 
18/11/20  00.00   14.8   15.0   14.8    70    9.4   8.0     N   2.01  22.5     N   14.7   14.4   14.3   12.8  ------  0.00   0.0     0     0.00      0     0.0  0.00   0.0   0.036   0.000   17.4    61    9.8   16.9    0.05   350    1    100.0   15 
18/11/20   0.15   14.7   14.8   14.6    70    9.3   4.8   NNE   1.21  11.3   NNE   14.7   14.3   14.3   12.9  ------  0.00   0.0     0     0.00      0     0.0  0.00   0.0   0.038   0.000   17.4    61    9.8   16.9    0.00   349    1    100.0   15 
18/11/20   0.30   15.1   15.1   14.7    69    9.5  11.3   NNW   2.82  27.4   NNW   14.6   14.7   14.2   12.8  ------  0.00   0.0     0     0.00      0     0.0  0.00   0.0   0.034   0.000   17.4    61    9.8   16.9    0.00   351    1    100.0   15 
18/11/20   0.45   14.7   15.2   14.7    70    9.3  11.3     N   2.82  24.1     N   14.1   14.3   13.7   12.3  ------  0.00   0.0     0     0.00      0     0.0  0.00   0.0   0.038   0.000   17.4    61    9.8   16.9    0.00   351    1    100.0   15 
18/11/20   1.00   14.8   14.8   14.7    70    9.4   4.8     N   1.21  19.3     N   14.8   14.4   14.4   12.9  ------  0.00   0.0     0     0.00      0     0.0  0.00   0.0   0.037   0.000   17.3    61    9.7   16.7    0.05   351    1    100.0   15 
18/11/20   1.15   14.4   14.8   14.4    71    9.2   3.2     N   0.80  14.5     N   14.4   14.1   14.1   12.6  ------  0.00   0.0     0     0.00      0     0.0  0.00   0.0   0.041   0.000   17.4    61    9.8   16.9    0.00   350    1    100.0   15 
18/11/20   1.30   14.3   14.5   14.3    71    9.1   8.0   NNE   2.01  17.7     N   14.1   13.9   13.7   12.3  ------  0.00   0.0     0     0.00      0     0.0  0.00   0.0   0.042   0.000   17.3    61    9.7   16.7    0.00   351    1    100.0   15 
18/11/20   1.45   14.6   14.6   14.2    71    9.4   6.4     N   1.61  17.7   NNW   14.6   14.2   14.2   12.7  ------  0.00   0.0     0     0.00      0     0.0  0.00   0.0   0.039   0.000   17.3    62    9.9   16.8    0.00   350    1    100.0   15 
18/11/20   2.00   14.3   14.7   14.3    71    9.1   6.4   NNW   1.61  14.5   NNW   14.3   13.9   13.9   12.5  ------  0.00   0.0     0     0.00      0     0.0  0.00   0.0   0.042   0.000   17.3    62    9.9   16.8    0.03   349    1    100.0   15 
18/11/20   2.15   14.2   14.3   14.2    71    9.0   3.2   NNW   0.80  14.5   NNW   14.2   13.8   13.8   12.4  ------  0.00   0.0     0     0.00      0     0.0  0.00   0.0   0.043   0.000   17.3    62    9.9   16.8    0.00   351    1    100.0   15 
18/11/20   2.30   14.2   14.3   14.2    71    9.0   1.6   NNW   0.40   9.7   NNW   14.2   13.8   13.8   12.4  ------  0.00   0.0     0     0.00      0     0.0  0.00   0.0   0.043   0.000   17.3    62    9.9   16.8    0.00   352    1    100.0   15 
18/11/20   2.45   14.0   14.3   14.0    71    8.8   0.0   NNW   0.00   6.4   NNW   14.0   13.6   13.6   12.2  ------  0.00   0.0     0     0.00      0     0.0  0.00   0.0   0.045   0.000   17.3    62    9.9   16.8    0.00   351    1    100.0   15 
18/11/20   3.00   13.8   14.1   13.8    72    8.9   0.0   ---   0.00   0.0   ---   13.8   13.4   13.4   12.0  ------  0.00   0.0     0     0.00      0     0.0  0.00   0.0   0.047   0.000   17.3    62    9.9   16.8    0.03   351    1    100.0   15 
18/11/20   3.15   13.4   13.9   13.4    73    8.7   0.0   ---   0.00   0.0   ---   13.4   13.1   13.1   11.6  ------  0.00   0.0     0     0.00      0     0.0  0.00   0.0   0.051   0.000   17.3    62    9.9   16.8    0.00   350    1    100.0   15 
18/11/20   3.30   13.6   13.6   13.4    73    8.8   0.0   ---   0.00   0.0   ---   13.6   13.2   13.2   11.7  ------  0.00   0.0     0     0.00      0     0.0  0.00   0.0   0.050   0.000   17.3    62    9.9   16.8    0.00   350    1    100.0   15 
18/11/20   3.45   13.2   13.6   13.2    74    8.7   0.0   ---   0.00   0.0   ---   13.2   12.9   12.9   11.4  ------  0.00   0.0     0     0.00      0     0.0  0.00   0.0   0.053   0.000   17.3    62    9.9   16.8    0.00   350    1    100.0   15 
18/11/20   4.00   13.3   13.3   13.0    74    8.7   1.6   NNW   0.40  11.3   NNW   13.3   12.9   12.9   11.5  ------  0.00   0.0     0     0.00      0     0.0  0.00   0.0   0.053   0.000   17.2    62    9.9   16.7    0.03   350    1    100.0   15 
18/11/20   4.15   13.2   13.4   13.2    74    8.6   1.6   NNW   0.40   8.0   NNW   13.2   12.8   12.8   11.4  ------  0.00   0.0     0     0.00      0     0.0  0.00   0.0   0.054   0.000   17.2    62    9.9   16.7    0.00   351    1    100.0   15 
18/11/20   4.30   13.3   13.3   13.0    74    8.8   1.6   NNW   0.40   9.7   NNW   13.3   13.0   13.0   11.6  ------  0.00   0.0     0     0.00      0     0.0  0.00   0.0   0.052   0.000   17.2    62    9.9   16.7    0.00   351    1    100.0   15 
18/11/20   4.45   12.9   13.3   12.9    74    8.4   1.6     N   0.40   9.7   NNW   12.9   12.6   12.6   11.1  ------  0.00   0.0     0     0.00      0     0.0  0.00   0.0   0.057   0.000   17.2    63   10.1   16.8    0.00   352    1    100.0   15 
18/11/20   5.00   13.2   13.4   12.9    74    8.7   1.6     N   0.40   6.4     N   13.2   12.9   12.9   11.4  ------  0.00   0.0     0     0.00      0     0.0  0.00   0.0   0.053   0.000   17.2    63   10.1   16.8    0.03   351    1    100.0   15 
18/11/20   5.15   12.8   13.2   12.6    77    8.8   0.0   ---   0.00   0.0   ---   12.8   12.6   12.6   11.1  ------  0.00   0.0     0     0.00      0     0.0  0.00   0.0   0.058   0.000   17.2    63   10.1   16.8    0.00   351    1    100.0   15 
18/11/20   5.30   12.3   12.9   12.3    78    8.6   0.0   ---   0.00   0.0   ---   12.3   12.1   12.1   10.6  ------  0.00   0.0     0     0.00      0     0.0  0.00   0.0   0.063   0.000   17.2    63   10.1   16.8    0.00   349    1    100.0   15 
18/11/20   5.45   12.7   12.7   12.3    77    8.7   0.0   ---   0.00   0.0   ---   12.7   12.4   12.4   11.0  ------  0.00   0.0     0     0.00      0     0.0  0.00   0.0   0.059   0.000   17.2    63   10.1   16.8    0.00   352    1    100.0   15 
18/11/20   6.00   12.5   12.7   12.5    77    8.6   0.0   ---   0.00   0.0   ---   12.5   12.3   12.3   10.8  ------  0.00   0.0     0     0.00      0     0.0  0.00   0.0   0.061   0.000   17.2    63   10.1   16.8    0.03   351    1    100.0   15 
18/11/20   6.15   12.2   12.5   11.9    79    8.7   0.0   ---   0.00   0.0   ---   12.2   12.1   12.1   10.6  ------  0.00   0.0     0     0.00      0     0.0  0.00   0.0   0.064   0.000   17.1    63   10.0   16.7    0.00   350    1    100.0   15 
18/11/20   6.30   12.2   12.4   12.2    78    8.5   0.0   ---   0.00   0.0   ---   12.2   12.0   12.0   10.6  ------  0.00   0.0     0     0.00      0     0.0  0.00   0.0   0.064   0.000   17.1    63   10.0   16.7    0.00   351    1    100.0   15 
18/11/20   6.45   12.7   12.7   12.2    77    8.8   0.0   ---   0.00   0.0   ---   12.7   12.5   12.5   11.1  ------  0.00   0.0     0     0.00      0     0.0  0.00   0.0   0.058   0.000   17.1    63   10.0   16.7    0.00   350    1    100.0   15 
18/11/20   7.00   12.6   12.8   12.4    77    8.6   0.0   ---   0.00   0.0   ---   12.6   12.3   12.3   10.9  ------  0.00   0.0     0     0.00      0     0.0  0.00   0.0   0.060   0.000   17.1    63   10.0   16.7    0.00   348    1    100.0   15 
18/11/20   7.15   12.4   12.7   12.4    76    8.3   0.0   ---   0.00   0.0   ---   12.4   12.1   12.1   10.7  ------  0.00   0.0     4     0.09      5     0.0  0.00   0.0   0.062   0.000   17.1    63   10.0   16.7    0.00   350    1    100.0   15 
18/11/20   7.30   11.9   12.3   11.9    78    8.2   0.0     N   0.00   4.8     N   11.9   11.7   11.7   10.4  ------  0.00   0.0    11     0.24     14     0.0  0.00   0.0   0.067   0.000   17.0    63    9.9   16.6    0.00   351    1    100.0   15 
18/11/20   7.45   13.3   13.3   11.8    74    8.8   0.0     N   0.00   8.0     N   13.3   13.0   13.0   11.9  ------  0.00   0.0    24     0.52     35     0.0  0.00   0.0   0.052   0.000   17.0    63    9.9   16.6    0.00   351    1    100.0   15 
18/11/20   8.00   13.6   13.7   13.3    74    9.1   0.0     N   0.00   3.2     N   13.6   13.3   13.3   12.6  ------  0.00   0.0    56     1.20     74     0.0  0.00   0.0   0.049   0.000   17.0    63    9.9   16.6    0.03   352    1    100.0   15 
18/11/20   8.15   14.0   14.0   13.6    74    9.4   0.0   ---   0.00   0.0   ---   14.0   13.7   13.7   13.5  ------  0.00   0.0    94     2.02    118     0.0  0.00   0.0   0.045   0.000   17.0    63    9.9   16.6    0.00   349    1    100.0   15 
18/11/20   8.30   14.2   14.2   13.8    74    9.7   0.0   ---   0.00   0.0   ---   14.2   13.9   13.9   15.6  ------  0.00   0.0   135     2.90    153     0.0  0.00   0.0   0.043   0.000   17.0    63    9.9   16.6    0.00   350    1    100.0   15 
18/11/20   8.45   15.0   15.1   14.2    73   10.2   0.0   ---   0.00   0.0   ---   15.0   14.7   14.7   17.3  ------  0.00   0.0   178     3.83    199     0.0  0.00   0.0   0.035   0.000   17.0    63    9.9   16.6    0.00   351    1    100.0   15 
18/11/20   9.00   15.8   15.8   15.0    71   10.5   0.0   ---   0.00   0.0   ---   15.8   15.4   15.4   18.9  ------  0.00   0.0   223     4.80    246     0.0  0.00   0.0   0.027   0.000   17.1    64   10.2   16.7    0.08   352    1    100.0   15 
18/11/20   9.15   16.1   16.1   15.8    68   10.1   1.6   NNW   0.40   6.4   NNW   16.1   15.7   15.7   19.8  ------  0.00   0.0   268     5.76    279     0.0  0.00   0.0   0.024   0.000   17.1    64   10.2   16.7    0.00   351    1    100.0   15 
18/11/20   9.30   16.4   16.5   16.1    66   10.1   1.6   NNW   0.40  11.3     N   16.4   16.1   16.1   20.5  ------  0.00   0.0   294     6.32    308     0.0  0.00   0.0   0.020   0.000   17.1    64   10.2   16.7    0.00   349    1    100.0   15 
18/11/20   9.45   16.7   16.7   16.4    63    9.6   3.2     N   0.80  11.3     N   16.7   16.2   16.2   20.7  ------  0.00   0.0   319     6.86    330     0.0  0.00   0.0   0.017   0.000   17.2    64   10.3   16.8    0.00   351    1    100.0   15 
18/11/20  10.00   16.8   16.8   16.7    62    9.5   3.2     N   0.80  12.9     N   16.8   16.3   16.3   20.8  ------  0.00   0.0   341     7.33    352     0.0  0.00   0.0   0.016   0.000   17.3    64   10.4   16.9    0.18   350    1    100.0   15 
18/11/20  10.15   17.0   17.0   16.8    62    9.7   3.2     N   0.80  11.3     N   17.0   16.5   16.5   21.4  ------  0.00   0.0   363     7.81    374     0.0  0.00   0.0   0.014   0.000   17.3    64   10.4   16.9    0.00   351    1    100.0   15 
18/11/20  10.30   17.2   17.2   17.0    61    9.6   3.2     N   0.80   9.7     N   17.2   16.6   16.6   21.7  ------  0.00   0.0   383     8.24    388     0.0  0.00   0.0   0.012   0.000   17.4    64   10.5   17.0    0.00   351    1    100.0   15 
18/11/20  10.45   17.3   17.3   17.2    60    9.5   3.2     N   0.80  11.3     N   17.3   16.7   16.7   21.9  ------  0.00   0.0   399     8.58    406     0.0  0.00   0.0   0.010   0.000   17.4    64   10.6   17.1    0.00   351    1    100.0   15 
18/11/20  11.00   17.3   17.4   17.3    59    9.2   3.2     N   0.80   8.0     N   17.3   16.7   16.7   21.9  ------  0.00   0.0   415     8.92    420     0.0  0.00   0.0   0.010   0.000   17.6    64   10.7   17.2    0.23   349    1    100.0   15 
18/11/20  11.15   17.7   17.7   17.3    59    9.6   1.6     N   0.40   8.0     N   17.7   17.2   17.2   22.5  ------  0.00   0.0   427     9.18    432     0.0  0.00   0.0   0.006   0.000   17.6    64   10.7   17.3    0.00   352    1    100.0   15 
18/11/20  11.30   17.8   17.9   17.7    59    9.7   3.2     N   0.80   9.7     N   17.8   17.2   17.2   22.6  ------  0.00   0.0   434     9.33    439     0.0  0.00   0.0   0.006   0.000   17.7    64   10.8   17.4    0.00   350    1    100.0   15 
18/11/20  11.45   17.7   17.8   17.7    58    9.3   3.2     N   0.80   9.7     N   17.7   17.1   17.1   22.4  ------  0.00   0.0   442     9.50    445     0.0  0.00   0.0   0.007   0.000   17.9    64   11.0   17.6    0.00   350    1    100.0   15 
18/11/20  12.00   17.7   17.9   17.7    58    9.3   4.8     N   1.21  11.3     N   17.7   17.1   17.1   22.4  ------  0.00   0.0   435     9.35    441     0.0  0.00   0.0   0.006   0.000   18.1    63   11.0   17.8    0.25   351    1    100.0   15 
18/11/20  12.15   17.9   18.0   17.7    58    9.6   1.6     N   0.40   8.0     N   17.9   17.4   17.4   22.7  ------  0.00   0.0   436     9.38    448     0.0  0.00   0.0   0.004   0.000   18.2    63   11.0   17.9    0.00   352    1    100.0   15 
18/11/20  12.30   18.2   18.2   17.9    58    9.8   0.0     N   0.00   6.4     N   18.2   17.7   17.7   23.0  ------  0.00   0.0   442     9.50    443     0.0  0.00   0.0   0.001   0.000   18.4    63   11.3   18.2    0.00   351    1    100.0   15 
18/11/20  12.45   18.6   18.7   18.2    57    9.9   0.0   NNE   0.00   4.8   NNE   18.6   18.1   18.1   23.4  ------  0.00   0.0   437     9.40    439     0.0  0.00   0.0   0.000   0.003   18.6    63   11.4   18.4    0.00   351    1    100.0   15 
18/11/20  13.00   18.5   18.7   18.5    58   10.1   0.0   NNE   0.00   4.8   NNE   18.5   18.0   18.0   23.3  ------  0.00   0.0   428     9.20    432     0.0  0.00   0.0   0.000   0.002   18.8    63   11.6   18.6    0.25   349    1    100.0   15 
18/11/20  13.15   18.3   18.5   18.2    57    9.6   0.0   NNE   0.00   6.4   NNE   18.3   17.7   17.7   22.9  ------  0.00   0.0   416     8.95    422     0.0  0.00   0.0   0.001   0.000   18.9    63   11.7   18.7    0.00   351    1    100.0   15 
18/11/20  13.30   18.8   18.8   18.3    58   10.3   0.0   NNE   0.00   4.8   NNE   18.8   18.3   18.3   23.4  ------  0.00   0.0   402     8.64    410     0.0  0.00   0.0   0.000   0.005   19.1    63   11.8   18.9    0.00   348    1    100.0   15 
18/11/20  13.45   18.9   18.9   18.7    58   10.4   0.0   NNE   0.00   6.4   NNE   18.9   18.4   18.4   23.4  ------  0.00   0.0   387     8.32    396     0.0  0.00   0.0   0.000   0.006   19.3    62   11.8   19.1    0.00   350    1    100.0   15 
18/11/20  14.00   18.3   18.9   18.3    60   10.4   1.6   NNE   0.40   6.4   NNE   18.3   17.9   17.9   22.8  ------  0.00   0.0   368     7.91    378     0.0  0.00   0.0   0.000   0.000   19.3    62   11.8   19.1    0.23   351    1    100.0   15 
18/11/20  14.15   18.6   18.8   18.4    60   10.6   0.0   NNE   0.00   6.4   NNE   18.6   18.1   18.1   22.8  ------  0.00   0.0   346     7.44    355     0.0  0.00   0.0   0.000   0.002   19.3    62   11.9   19.2    0.00   351    1    100.0   15 
18/11/20  14.30   18.7   18.7   18.5    60   10.8   0.0   NNE   0.00   6.4   NNE   18.7   18.3   18.3   22.9  ------  0.00   0.0   322     6.92    334     0.0  0.00   0.0   0.000   0.004   19.3    62   11.8   19.1    0.00   348    1    100.0   15 
18/11/20  14.45   18.3   18.7   18.3    61   10.6   0.0   NNE   0.00   6.4   NNE   18.3   17.9   17.9   22.2  ------  0.00   0.0   292     6.28    306     0.0  0.00   0.0   0.001   0.000   19.0    62   11.6   18.7    0.00   349    1    100.0   15 
18/11/20  15.00   18.2   18.3   18.2    62   10.8   0.0   NNE   0.00   4.8   NNE   18.2   17.8   17.8   21.8  ------  0.00   0.0   263     5.66    278     0.0  0.00   0.0   0.002   0.000   18.8    63   11.6   18.6    0.18   351    1    100.0   15 
18/11/20  15.15   17.9   18.2   17.9    58    9.6   0.0   NNE   0.00   4.8   NNE   17.9   17.4   17.4   20.9  ------  0.00   0.0   228     4.90    246     0.0  0.00   0.0   0.004   0.000   18.7    63   11.5   18.5    0.00   348    1    100.0   15 
18/11/20  15.30   17.8   18.0   17.8    58    9.4   1.6   NNE   0.40   8.0   NNE   17.8   17.2   17.2   19.9  ------  0.00   0.0   181     3.89    199     0.0  0.00   0.0   0.006   0.000   18.6    63   11.4   18.3    0.00   352    1    100.0   15 
18/11/20  15.45   17.7   17.8   17.7    59    9.6   0.0   NNE   0.00   3.2   NNE   17.7   17.2   17.2   19.3  ------  0.00   0.0   142     3.05    162     0.0  0.00   0.0   0.006   0.000   18.4    63   11.3   18.2    0.00   351    1    100.0   15 
18/11/20  16.00   17.5   17.7   17.5    61    9.9   0.0   NNE   0.00   1.6   NNE   17.5   17.0   17.0   18.3  ------  0.00   0.0   100     2.15    118     0.0  0.00   0.0   0.009   0.000   18.3    63   11.2   18.1    0.10   349    1    100.0   15 
18/11/20  16.15   17.1   17.5   17.1    66   10.7   0.0   ---   0.00   0.0   ---   17.1   16.7   16.7   17.3  ------  0.00   0.0    63     1.35     79     0.0  0.00   0.0   0.013   0.000   18.3    64   11.3   18.1    0.00   349    1    100.0   15 
18/11/20  16.30   15.5   17.1   15.5    70   10.0   0.0   NNE   0.00   1.6   NNE   15.5   15.2   15.2   14.7  ------  0.00   0.0    25     0.54     44     0.0  0.00   0.0   0.030   0.000   18.3    64   11.3   18.1    0.00   352    1    100.0   15 
18/11/20  16.45   14.8   15.5   14.8    73   10.0   0.0   ---   0.00   0.0   ---   14.8   14.4   14.4   13.2  ------  0.00   0.0    11     0.24     14     0.0  0.00   0.0   0.037   0.000   18.2    64   11.2   17.9    0.00   348    1    100.0   15 
18/11/20  17.00   14.3   14.8   14.3    75   10.0   0.0   ---   0.00   0.0   ---   14.3   14.1   14.1   12.7  ------  0.00   0.0     3     0.06      7     0.0  0.00   0.0   0.042   0.000   18.1    64   11.2   17.8    0.03   351    1    100.0   15 
18/11/20  17.15   13.8   14.3   13.8    76    9.7   0.0   ---   0.00   0.0   ---   13.8   13.6   13.6   12.2  ------  0.00   0.0     0     0.00      0     0.0  0.00   0.0   0.047   0.000   18.0    64   11.1   17.7    0.00   349    1    100.0   15 
18/11/20  17.30   13.1   13.8   13.1    77    9.1   0.0   ---   0.00   0.0   ---   13.1   12.8   12.8   11.4  ------  0.00   0.0     0     0.00      0     0.0  0.00   0.0   0.055   0.000   18.0    64   11.1   17.7    0.00   349    1    100.0   15 
18/11/20  17.45   12.6   13.1   12.6    79    9.1   0.0   ---   0.00   0.0   ---   12.6   12.4   12.4   11.0  ------  0.00   0.0     0     0.00      0     0.0  0.00   0.0   0.060   0.000   17.9    64   11.0   17.6    0.00   351    1    100.0   15 
18/11/20  18.00   12.0   12.6   12.0    80    8.7   0.0   ---   0.00   0.0   ---   12.0   11.8   11.8   10.4  ------  0.00   0.0     0     0.00      0     0.0  0.00   0.0   0.066   0.000   17.8    64   10.9   17.5    0.00   351    1    100.0   15 
18/11/20  18.15   11.6   12.0   11.6    81    8.4   0.0   ---   0.00   0.0   ---   11.6   11.4   11.4   10.0  ------  0.00   0.0     0     0.00      0     0.0  0.00   0.0   0.071   0.000   17.7    64   10.8   17.4    0.00   351    1    100.0   15 
18/11/20  18.30   11.3   11.6   11.2    83    8.5   0.0   ---   0.00   0.0   ---   11.3   11.3   11.3    9.8  ------  0.00   0.0     0     0.00      0     0.0  0.00   0.0   0.073   0.000   17.7    63   10.6   17.3    0.00   351    1    100.0   15 
18/11/20  18.45   11.2   11.5   11.1    83    8.4   0.0   ---   0.00   0.0   ---   11.2   11.1   11.1    9.7  ------  0.00   0.0     0     0.00      0     0.0  0.00   0.0   0.075   0.000   17.6    63   10.5   17.2    0.00   351    1    100.0   15 
18/11/20  19.00   11.0   11.3   11.0    83    8.2   0.0   ---   0.00   0.0   ---   11.0   10.9   10.9    9.5  ------  0.00   0.0     0     0.00      0     0.0  0.00   0.0   0.076   0.000   17.6    63   10.5   17.2    0.03   349    1    100.0   15 
18/11/20  19.15   10.7   11.0   10.7    83    7.9   0.0   ---   0.00   0.0   ---   10.7   10.7   10.7    9.2  ------  0.00   0.0     0     0.00      0     0.0  0.00   0.0   0.080   0.000   17.6    63   10.4   17.2    0.00   349    1    100.0   15 
18/11/20  19.30   10.4   10.7   10.4    84    7.8   0.0   ---   0.00   0.0   ---   10.4   10.4   10.4    8.9  ------  0.00   0.0     0     0.00      0     0.0  0.00   0.0   0.083   0.000   17.6    62   10.2   17.1    0.00   349    1    100.0   15 
18/11/20  19.45   10.2   10.4   10.2    84    7.6   0.0   ---   0.00   0.0   ---   10.2   10.2   10.2    8.7  ------  0.00   0.0     0     0.00      0     0.0  0.00   0.0   0.085   0.000   17.4    62   10.1   17.0    0.00   351    1    100.0   15 
18/11/20  20.00   10.0   10.2    9.9    85    7.6   0.0   ---   0.00   0.0   ---   10.0   10.1   10.1    8.6  ------  0.00   0.0     0     0.00      0     0.0  0.00   0.0   0.087   0.000   17.4    62   10.1   17.0    0.00   348    1    100.0   15 
18/11/20  20.15   10.0   10.1    9.9    85    7.6   0.0   ---   0.00   0.0   ---   10.0   10.1   10.1    8.6  ------  0.00   0.0     0     0.00      0     0.0  0.00   0.0   0.087   0.000   17.4    62   10.0   16.9    0.00   351    1    100.0   15 
18/11/20  20.30    9.8   10.0    9.8    85    7.4   0.0   ---   0.00   0.0   ---    9.8    9.8    9.8    8.3  ------  0.00   0.0     0     0.00      0     0.0  0.00   0.0   0.089   0.000   17.4    62   10.0   16.9    0.00   351    1    100.0   15 
18/11/20  20.45    9.7    9.9    9.7    85    7.3   0.0   ---   0.00   0.0   ---    9.7    9.8    9.8    8.3  ------  0.00   0.0     0     0.00      0     0.0  0.00   0.0   0.090   0.000   17.4    62   10.0   16.9    0.00   350    1    100.0   15 
18/11/20  21.00    9.8    9.9    9.6    86    7.6   0.0   ---   0.00   0.0   ---    9.8    9.9    9.9    8.4  ------  0.00   0.0     0     0.00      0     0.0  0.00   0.0   0.089   0.000   17.3    61    9.7   16.7    0.00   352    1    100.0   15 
18/11/20  21.15    9.9   10.2    9.8    85    7.5   0.0   ---   0.00   0.0   ---    9.9    9.9    9.9    8.4  ------  0.00   0.0     0     0.00      0     0.0  0.00   0.0   0.088   0.000   17.3    61    9.7   16.7    0.00   350    1    100.0   15 
18/11/20  21.30    9.8   10.1    9.7    85    7.4   0.0   ---   0.00   0.0   ---    9.8    9.8    9.8    8.3  ------  0.00   0.0     0     0.00      0     0.0  0.00   0.0   0.089   0.000   17.3    61    9.7   16.7    0.00   350    1    100.0   15 
18/11/20  21.45    9.9    9.9    9.8    85    7.5   0.0   ---   0.00   0.0   ---    9.9    9.9    9.9    8.4  ------  0.00   0.0     0     0.00      0     0.0  0.00   0.0   0.088   0.000   17.2    61    9.6   16.7    0.00   350    1    100.0   15 
18/11/20  22.00   10.4   10.4    9.8    85    8.0   0.0   ---   0.00   0.0   ---   10.4   10.4   10.4    9.0  ------  0.00   0.0     0     0.00      0     0.0  0.00   0.0   0.082   0.000   17.2    61    9.6   16.7    0.00   351    1    100.0   15 
18/11/20  22.15   10.8   10.8   10.4    83    8.1   0.0   ---   0.00   0.0   ---   10.8   10.8   10.8    9.3  ------  0.00   0.0     0     0.00      0     0.0  0.00   0.0   0.078   0.000   17.2    61    9.6   16.7    0.00   351    1    100.0   15 
18/11/20  22.30   11.2   11.2   10.8    82    8.2   0.0   ---   0.00   0.0   ---   11.2   11.1   11.1    9.7  ------  0.00   0.0     0     0.00      0     0.0  0.00   0.0   0.075   0.000   17.1    61    9.5   16.6    0.00   348    1    100.0   15 
18/11/20  22.45   11.1   11.2   11.0    81    7.9   0.0   ---   0.00   0.0   ---   11.1   10.9   10.9    9.5  ------  0.00   0.0     0     0.00      0     0.0  0.00   0.0   0.076   0.000   17.1    61    9.5   16.6    0.00   351    1    100.0   15 
18/11/20  23.00   10.6   11.1   10.6    81    7.5   0.0   ---   0.00   0.0   ---   10.6   10.6   10.6    9.1  ------  0.00   0.0     0     0.00      0     0.0  0.00   0.0   0.080   0.000   17.1    61    9.5   16.6    0.00   351    1    100.0   15 
18/11/20  23.15   10.4   10.6   10.4    83    7.7   0.0   ---   0.00   0.0   ---   10.4   10.4   10.4    8.9  ------  0.00   0.0     0     0.00      0     0.0  0.00   0.0   0.082   0.000   17.1    61    9.5   16.6    0.00   350    1    100.0   15 
18/11/20  23.30   10.8   10.9   10.4    84    8.2   0.0   ---   0.00   0.0   ---   10.8   10.8   10.8    9.4  ------  0.00   0.0     0     0.00      0     0.0  0.00   0.0   0.078   0.000   17.1    61    9.5   16.6    0.00   350    1    100.0   15 
18/11/20  23.45   10.5   10.8   10.4    84    7.9   0.0   ---   0.00   0.0   ---   10.5   10.5   10.5    9.1  ------  0.00   0.0     0     0.00      0     0.0  0.00   0.0   0.082   0.000   17.1    61    9.5   16.6    0.00   351    1    100.0   15 
19/11/20  00.00   10.6   10.6   10.4    85    8.1   0.0   ---   0.00   0.0   ---   10.6   10.6   10.6    9.1  ------  0.00   0.0     0     0.00      0     0.0  0.00   0.0   0.081   0.000   17.0    61    9.4   16.4    0.00   351    1    100.0   15 
19/11/20   0.15   10.4   10.6   10.3    86    8.1   0.0   ---   0.00   0.0   ---   10.4   10.4   10.4    9.0  ------  0.00   0.0     0     0.00      0     0.0  0.00   0.0   0.083   0.000   17.0    61    9.4   16.4    0.00   348    1    100.0   15 
19/11/20   0.30    9.9   10.4    9.9    85    7.5   0.0   ---   0.00   0.0   ---    9.9   10.0   10.0    8.5  ------  0.00   0.0     0     0.00      0     0.0  0.00   0.0   0.087   0.000   17.0    61    9.4   16.4    0.00   352    1    100.0   15 
19/11/20   0.45   10.0   10.1    9.8    86    7.8   0.0   ---   0.00   0.0   ---   10.0   10.1   10.1    8.6  ------  0.00   0.0     0     0.00      0     0.0  0.00   0.0   0.087   0.000   17.0    61    9.4   16.4    0.00   349    1    100.0   15 
19/11/20   1.00   10.3   10.4   10.0    87    8.3   0.0   ---   0.00   0.0   ---   10.3   10.4   10.4    8.9  ------  0.00   0.0     0     0.00      0     0.0  0.00   0.0   0.083   0.000   16.9    61    9.4   16.4    0.00   350    1    100.0   15 
19/11/20   1.15   10.1   10.4   10.1    86    7.9   0.0   ---   0.00   0.0   ---   10.1   10.2   10.2    8.7  ------  0.00   0.0     0     0.00      0     0.0  0.00   0.0   0.086   0.000   16.9    61    9.4   16.4    0.00   349    1    100.0   15 
19/11/20   1.30   10.2   10.2    9.8    87    8.2   0.0   ---   0.00   0.0   ---   10.2   10.3   10.3    8.8  ------  0.00   0.0     0     0.00      0     0.0  0.00   0.0   0.084   0.000   16.9    61    9.4   16.4    0.00   350    1    100.0   15 
19/11/20   1.45   10.1   10.4   10.1    86    7.9   0.0   ---   0.00   0.0   ---   10.1   10.2   10.2    8.7  ------  0.00   0.0     0     0.00      0     0.0  0.00   0.0   0.086   0.000   16.9    61    9.4   16.4    0.00   351    1    100.0   15 
19/11/20   2.00   10.5   10.5   10.0    85    8.1   0.0   ---   0.00   0.0   ---   10.5   10.5   10.5    9.1  ------  0.00   0.0     0     0.00      0     0.0  0.00   0.0   0.082   0.000   16.8    61    9.3   16.2    0.00   350    1    100.0   15 
19/11/20   2.15   10.1   10.4   10.1    84    7.5   0.0   ---   0.00   0.0   ---   10.1   10.1   10.1    8.6  ------  0.00   0.0     0     0.00      0     0.0  0.00   0.0   0.086   0.000   16.8    61    9.3   16.2    0.00   351    1    100.0   15 
19/11/20   2.30   10.3   10.3    9.8    86    8.0   0.0   ---   0.00   0.0   ---   10.3   10.3   10.3    8.9  ------  0.00   0.0     0     0.00      0     0.0  0.00   0.0   0.084   0.000   16.8    61    9.3   16.2    0.00   350    1    100.0   15 
19/11/20   2.45   10.3   10.3   10.1    85    7.9   0.0   ---   0.00   0.0   ---   10.3   10.3   10.3    8.8  ------  0.00   0.0     0     0.00      0     0.0  0.00   0.0   0.084   0.000   16.8    60    9.0   16.2    0.00   351    1    100.0   15 
19/11/20   3.00   10.0   10.4    9.9    85    7.6   0.0   ---   0.00   0.0   ---   10.0   10.1   10.1    8.6  ------  0.00   0.0     0     0.00      0     0.0  0.00   0.0   0.087   0.000   16.8    60    9.0   16.1    0.00   350    1    100.0   15 
19/11/20   3.15    9.9    9.9    9.7    86    7.7   0.0   ---   0.00   0.0   ---    9.9   10.0   10.0    8.5  ------  0.00   0.0     0     0.00      0     0.0  0.00   0.0   0.087   0.000   16.8    60    9.0   16.1    0.00   351    1    100.0   15 
19/11/20   3.30    9.7   10.1    9.7    86    7.4   0.0   ---   0.00   0.0   ---    9.7    9.7    9.7    8.2  ------  0.00   0.0     0     0.00      0     0.0  0.00   0.0   0.090   0.000   16.8    60    9.0   16.1    0.00   350    1    100.0   15 
19/11/20   3.45    9.5    9.9    9.4    87    7.4   0.0   ---   0.00   0.0   ---    9.5    9.6    9.6    8.1  ------  0.00   0.0     0     0.00      0     0.0  0.00   0.0   0.092   0.000   16.8    60    9.0   16.1    0.00   352    1    100.0   15 
19/11/20   4.00    9.7    9.7    9.3    87    7.6   0.0   ---   0.00   0.0   ---    9.7    9.8    9.8    8.3  ------  0.00   0.0     0     0.00      0     0.0  0.00   0.0   0.090   0.000   16.8    60    9.0   16.1    0.00   350    1    100.0   15 
19/11/20   4.15    9.3    9.7    9.2    87    7.2   0.0   ---   0.00   0.0   ---    9.3    9.4    9.4    7.9  ------  0.00   0.0     0     0.00      0     0.0  0.00   0.0   0.094   0.000   16.7    60    8.9   16.0    0.00   350    1    100.0   15 
19/11/20   4.30    8.7    9.3    8.7    87    6.7   0.0   ---   0.00   0.0   ---    8.7    8.8    8.8    7.3  ------  0.00   0.0     0     0.00      0     0.0  0.00   0.0   0.100   0.000   16.7    60    8.9   16.0    0.00   351    1    100.0   15 
19/11/20   4.45    9.2    9.2    8.7    89    7.5   0.0   ---   0.00   0.0   ---    9.2    9.3    9.3    7.8  ------  0.00   0.0     0     0.00      0     0.0  0.00   0.0   0.095   0.000   16.7    60    8.9   16.0    0.00   350    1    100.0   15 
19/11/20   5.00    8.7    9.2    8.6    88    6.8   0.0   ---   0.00   0.0   ---    8.7    8.7    8.7    7.2  ------  0.00   0.0     0     0.00      0     0.0  0.00   0.0   0.101   0.000   16.7    60    8.9   16.0    0.00   350    1    100.0   15 
19/11/20   5.15    9.0    9.0    8.6    89    7.3   0.0   ---   0.00   0.0   ---    9.0    9.1    9.1    7.6  ------  0.00   0.0     0     0.00      0     0.0  0.00   0.0   0.097   0.000   16.7    59    8.6   15.9    0.00   348    1    100.0   15 
19/11/20   5.30    8.4    9.1    8.4    88    6.5   0.0   ---   0.00   0.0   ---    8.4    8.4    8.4    6.9  ------  0.00   0.0     0     0.00      0     0.0  0.00   0.0   0.104   0.000   16.6    60    8.8   15.9    0.00   351    1    100.0   15 
19/11/20   5.45    8.7    8.8    8.3    89    7.0   0.0   ---   0.00   0.0   ---    8.7    8.8    8.8    7.3  ------  0.00   0.0     0     0.00      0     0.0  0.00   0.0   0.100   0.000   16.6    59    8.6   15.9    0.00   349    1    100.0   15 
19/11/20   6.00    9.0    9.0    8.6    89    7.3   0.0   ---   0.00   0.0   ---    9.0    9.1    9.1    7.6  ------  0.00   0.0     0     0.00      0     0.0  0.00   0.0   0.097   0.000   16.6    59    8.6   15.9    0.00   351    1    100.0   15 
19/11/20   6.15    9.9    9.9    9.0    89    8.2   0.0   ---   0.00   0.0   ---    9.9   10.1   10.1    8.7  ------  0.00   0.0     0     0.00      0     0.0  0.00   0.0   0.087   0.000   16.6    59    8.6   15.9    0.00   350    1    100.0   15 
19/11/20   6.30   11.7   11.7   10.0    89    9.9   0.0   ---   0.00   0.0   ---   11.7   11.7   11.7   10.3  ------  0.00   0.0     0     0.00      0     0.0  0.00   0.0   0.069   0.000   16.5    59    8.5   15.8    0.00   349    1    100.0   15 
19/11/20   6.45   10.8   12.4   10.8    86    8.6   0.0   ---   0.00   0.0   ---   10.8   10.8   10.8    9.4  ------  0.00   0.0     0     0.00      0     0.0  0.00   0.0   0.078   0.000   16.5    59    8.5   15.8    0.00   351    1    100.0   15 
19/11/20   7.00   11.7   11.7   10.6    87    9.6   0.0   ---   0.00   0.0   ---   11.7   11.7   11.7   10.3  ------  0.00   0.0     0     0.00      0     0.0  0.00   0.0   0.069   0.000   16.5    59    8.5   15.8    0.00   352    1    100.0   15 
19/11/20   7.15   12.4   12.4   11.7    86   10.2   1.6   NNE   0.40   8.0   NNE   12.4   12.4   12.4   11.0  ------  0.00   0.0     0     0.00      5     0.0  0.00   0.0   0.061   0.000   16.5    59    8.5   15.8    0.00   350    1    100.0   15 
19/11/20   7.30   12.6   12.6   12.4    86   10.3   0.0   ---   0.00   0.0   ---   12.6   12.6   12.6   11.3  ------  0.00   0.0     8     0.17     12     0.0  0.00   0.0   0.060   0.000   16.5    59    8.5   15.8    0.00   351    1    100.0   15 
19/11/20   7.45   12.3   12.7   12.3    85    9.9   0.0   ---   0.00   0.0   ---   12.3   12.3   12.3   11.2  ------  0.00   0.0    21     0.45     32     0.0  0.00   0.0   0.062   0.000   16.5    60    8.7   15.8    0.00   351    1    100.0   15 
19/11/20   8.00   12.3   12.3   12.2    84    9.7   0.0   ---   0.00   0.0   ---   12.3   12.3   12.3   11.5  ------  0.00   0.0    46     0.99     60     0.0  0.00   0.0   0.062   0.000   16.5    60    8.7   15.8    0.00   351    1    100.0   15 
19/11/20   8.15   13.1   13.1   12.3    85   10.6   0.0   ---   0.00   0.0   ---   13.1   13.1   13.1   12.7  ------  0.00   0.0    77     1.66     95     0.0  0.00   0.0   0.054   0.000   16.5    60    8.7   15.8    0.00   351    1    100.0   15 
19/11/20   8.30   14.3   14.3   13.1    85   11.8   0.0   NNE   0.00   8.0   NNE   14.3   14.3   14.3   15.7  ------  0.00   0.0   119     2.56    144     0.0  0.00   0.0   0.042   0.000   16.5    61    8.9   15.9    0.00   350    1    100.0   15 
19/11/20   8.45   16.5   16.5   14.4    80   13.0   8.0     N   2.01  16.1     N   16.5   16.6   16.6   19.2  ------  0.00   0.0   174     3.74    197     0.0  0.00   0.0   0.019   0.000   16.5    62    9.2   15.9    0.00   351    1    100.0   15 
19/11/20   9.00   17.1   17.1   16.5    78   13.2   8.0     N   2.01  17.7     N   17.1   17.1   17.1   20.7  ------  0.00   0.0   221     4.75    248     0.0  0.00   0.0   0.013   0.000   16.6    63    9.5   16.1    0.08   349    1    100.0   15 
19/11/20   9.15   17.3   17.3   17.1    76   13.0  11.3     N   2.82  20.9     N   17.2   17.3   17.2   21.4  ------  0.00   0.0   267     5.74    287     0.0  0.00   0.0   0.011   0.000   16.7    64    9.8   16.2    0.00   352    1    100.0   15 
19/11/20   9.30   17.5   17.5   17.3    76   13.2  12.9     N   3.22  20.9     N   17.1   17.6   17.1   21.7  ------  0.00   0.0   311     6.69    327     0.0  0.00   0.0   0.009   0.000   16.8    65   10.2   16.4    0.00   351    1    100.0   15 
19/11/20   9.45   17.7   17.7   17.5    75   13.2  12.9     N   3.22  22.5     N   17.2   17.7   17.3   22.8  ------  0.00   0.0   378     8.13    413     0.0  0.00   0.0   0.007   0.000   16.8    66   10.4   16.4    0.00   350    1    100.0   15 
19/11/20  10.00   17.7   17.8   17.7    75   13.2  11.3     N   2.82  24.1     N   17.7   17.8   17.8   23.6  ------  0.00   0.0   404     8.69    413     0.0  0.00   0.0   0.006   0.000   16.8    67   10.7   16.5    0.23   350    1    100.0   15 
19/11/20  10.15   17.6   17.7   17.6    73   12.7   9.7     N   2.41  24.1     N   17.6   17.6   17.6   22.9  ------  0.00   0.0   393     8.45    410     0.0  0.00   0.0   0.008   0.000   16.9    67   10.8   16.7    0.00   350    1    100.0   15 
19/11/20  10.30   17.8   17.9   17.6    70   12.3   6.4     N   1.61  22.5   NNE   17.8   17.7   17.7   22.9  ------  0.00   0.0   384     8.26    392     0.0  0.00   0.0   0.005   0.000   17.0    67   10.8   16.7    0.00   350    1    100.0   15 
19/11/20  10.45   17.8   17.8   17.8    70   12.2   9.7     N   2.41  25.7     N   17.8   17.7   17.7   22.9  ------  0.00   0.0   398     8.56    406     0.0  0.00   0.0   0.006   0.000   17.1    68   11.2   16.8    0.00   350    1    100.0   15 
19/11/20  11.00   18.0   18.1   17.8    67   11.8   6.4     N   1.61  22.5   NNE   18.0   17.8   17.8   23.2  ------  0.00   0.0   412     8.86    418     0.0  0.00   0.0   0.003   0.000   17.2    68   11.3   17.0    0.25   350    1    100.0   15 
19/11/20  11.15   18.0   18.1   17.9    66   11.6  11.3   NNE   2.82  25.7   NNE   18.0   17.8   17.8   23.1  ------  0.00   0.0   422     9.07    427     0.0  0.00   0.0   0.003   0.000   17.3    67   11.1   17.0    0.00   350    1    100.0   15 
19/11/20  11.30   17.9   18.1   17.9    67   11.7  17.7   NNE   4.43  25.7   NNE   16.2   17.7   16.0   20.6  ------  0.00   0.0   432     9.29    436     0.0  0.00   0.0   0.005   0.000   17.4    67   11.2   17.1    0.00   351    1    100.0   15 
19/11/20  11.45   18.1   18.1   17.9    69   12.3  11.3   NNE   2.82  24.1    NE   18.1   17.9   17.9   23.3  ------  0.00   0.0   442     9.50    452     0.0  0.00   0.0   0.003   0.000   17.4    67   11.2   17.2    0.00   349    1    100.0   15 
19/11/20  12.00   18.1   18.1   17.9    70   12.6  11.3   NNE   2.82  25.7   NNE   18.1   18.1   18.1   23.4  ------  0.00   0.0   443     9.53    446     0.0  0.00   0.0   0.002   0.000   17.6    67   11.4   17.4    0.30   350    1    100.0   15 
19/11/20  12.15   17.9   18.2   17.9    71   12.6  12.9   NNE   3.22  25.7   NNE   17.6   17.9   17.5   22.7  ------  0.00   0.0   441     9.48    443     0.0  0.00   0.0   0.004   0.000   17.8    67   11.6   17.6    0.00   350    1    100.0   15 
19/11/20  12.30   18.1   18.1   17.9    72   12.9  11.3   NNE   2.82  27.4    NE   18.1   18.1   18.1   23.4  ------  0.00   0.0   439     9.44    441     0.0  0.00   0.0   0.003   0.000   18.0    67   11.8   17.8    0.00   351    1    100.0   15 
19/11/20  12.45   18.1   18.2   18.0    71   12.7  11.3     N   2.82  24.1     N   18.1   18.1   18.1   23.4  ------  0.00   0.0   434     9.33    438     0.0  0.00   0.0   0.003   0.000   18.1    67   11.9   17.9    0.00   350    1    100.0   15 
19/11/20  13.00   18.3   18.3   18.1    71   12.9   9.7   NNE   2.41  22.5   NNE   18.3   18.3   18.3   23.7  ------  0.00   0.0   426     9.16    431     0.0  0.00   0.0   0.001   0.000   18.3    67   12.0   18.2    0.28   349    1    100.0   15 
19/11/20  13.15   18.3   18.3   18.2    71   12.9   8.0   NNE   2.01  22.5   NNE   18.3   18.3   18.3   23.7  ------  0.00   0.0   420     9.03    455     0.0  0.00   0.0   0.001   0.000   18.4    66   12.0   18.3    0.00   350    1    100.0   15 
19/11/20  13.30   18.5   18.5   18.2    71   13.1   8.0   NNE   2.01  25.7   NNE   18.5   18.6   18.6   23.9  ------  0.00   0.0   421     9.05    436     0.0  0.00   0.0   0.000   0.002   18.6    66   12.1   18.5    0.00   351    1    100.0   15 
19/11/20  13.45   18.2   18.5   18.2    71   12.9   9.7     N   2.41  22.5     N   18.2   18.2   18.2   23.5  ------  0.00   0.0   401     8.62    413     0.0  0.00   0.0   0.001   0.000   18.7    66   12.2   18.6    0.00   350    1    100.0   15 
19/11/20  14.00   18.4   18.4   18.2    72   13.2   4.8     N   1.21  17.7     N   18.4   18.4   18.4   23.4  ------  0.00   0.0   367     7.89    376     0.0  0.00   0.0   0.000   0.001   18.8    66   12.3   18.8    0.25   350    1    100.0   15 
19/11/20  14.15   18.2   18.4   18.2    71   12.8   6.4     N   1.61  17.7     N   18.2   18.2   18.2   23.0  ------  0.00   0.0   341     7.33    353     0.0  0.00   0.0   0.002   0.000   18.9    66   12.4   18.8    0.00   349    1    100.0   15 
19/11/20  14.30   18.1   18.2   18.1    73   13.2   6.4   NNE   1.61  14.5   NNE   18.1   18.2   18.2   22.8  ------  0.00   0.0   317     6.82    330     0.0  0.00   0.0   0.002   0.000   18.7    66   12.2   18.6    0.00   350    1    100.0   15 
19/11/20  14.45   18.1   18.2   18.1    72   12.9   4.8   NNE   1.21  17.7   NNE   18.1   18.1   18.1   22.4  ------  0.00   0.0   294     6.32    306     0.0  0.00   0.0   0.003   0.000   18.6    67   12.3   18.5    0.00   350    1    100.0   15 
19/11/20  15.00   18.1   18.1   18.0    72   12.9   4.8   NNE   1.21  16.1   NNE   18.1   18.1   18.1   21.8  ------  0.00   0.0   245     5.27    287     0.0  0.00   0.0   0.003   0.000   18.3    67   12.1   18.2    0.20   350    1    100.0   15 
19/11/20  15.15   17.6   18.0   17.6    74   12.9   6.4   NNE   1.61  16.1   NNE   17.6   17.6   17.6   19.1  ------  0.00   0.0   115     2.47    260     0.0  0.00   0.0   0.008   0.000   18.3    67   12.0   18.2    0.00   350    1    100.0   15 
19/11/20  15.30   17.7   17.7   17.6    74   13.0   3.2   NNE   0.80  14.5   NNE   17.7   17.7   17.7   20.6  ------  0.00   0.0   180     3.87    229     0.0  0.00   0.0   0.007   0.000   18.1    68   12.1   18.0    0.00   350    1    100.0   15 
19/11/20  15.45   17.5   17.7   17.5    75   13.0   3.2   NNE   0.80  11.3   NNE   17.5   17.5   17.5   20.1  ------  0.00   0.0   160     3.44    186     0.0  0.00   0.0   0.009   0.000   18.1    68   12.1   18.0    0.00   351    1    100.0   15 
19/11/20  16.00   17.2   17.5   17.2    77   13.2   1.6   NNE   0.40   8.0   NNE   17.2   17.3   17.3   19.1  ------  0.00   0.0   117     2.52    139     0.0  0.00   0.0   0.012   0.000   18.0    68   12.0   17.9    0.10   349    1    100.0   15 
19/11/20  16.15   17.0   17.2   17.0    77   12.9   0.0   NNE   0.00   6.4   NNE   17.0   17.0   17.0   17.7  ------  0.00   0.0    64     1.38     88     0.0  0.00   0.0   0.014   0.000   17.9    68   11.9   17.7    0.00   349    1    100.0   15 
19/11/20  16.30   16.7   17.0   16.7    78   12.8   0.0   ---   0.00   0.0   ---   16.7   16.7   16.7   16.3  ------  0.00   0.0    25     0.54     42     0.0  0.00   0.0   0.017   0.000   17.8    68   11.8   17.7    0.00   350    1    100.0   15 
19/11/20  16.45   16.2   16.7   16.2    78   12.3   0.0   ---   0.00   0.0   ---   16.2   16.1   16.1   14.9  ------  0.00   0.0    11     0.24     14     0.0  0.00   0.0   0.023   0.000   17.8    68   11.8   17.7    0.00   352    1    100.0   15 
19/11/20  17.00   15.7   16.2   15.7    79   12.0   0.0   ---   0.00   0.0   ---   15.7   15.6   15.6   14.3  ------  0.00   0.0     3     0.06      7     0.0  0.00   0.0   0.028   0.000   17.7    68   11.7   17.6    0.03   351    1    100.0   15 
19/11/20  17.15   15.2   15.7   15.2    80   11.8   0.0   ---   0.00   0.0   ---   15.2   15.1   15.1   13.8  ------  0.00   0.0     0     0.00      0     0.0  0.00   0.0   0.032   0.000   17.7    68   11.7   17.6    0.00   351    1    100.0   15 
19/11/20  17.30   14.6   15.2   14.6    81   11.3   0.0   ---   0.00   0.0   ---   14.6   14.4   14.4   13.1  ------  0.00   0.0     0     0.00      0     0.0  0.00   0.0   0.039   0.000   17.6    69   11.9   17.4    0.00   350    1    100.0   15 
19/11/20  17.45   13.7   14.6   13.7    83   10.9   0.0   ---   0.00   0.0   ---   13.7   13.6   13.6   12.3  ------  0.00   0.0     0     0.00      0     0.0  0.00   0.0   0.048   0.000   17.6    69   11.8   17.4    0.00   350    1    100.0   15 
19/11/20  18.00   13.3   13.7   13.3    84   10.6   0.0   ---   0.00   0.0   ---   13.3   13.2   13.2   11.9  ------  0.00   0.0     0     0.00      0     0.0  0.00   0.0   0.053   0.000   17.6    69   11.8   17.4    0.00   350    1    100.0   15 
19/11/20  18.15   13.2   13.3   13.2    85   10.7   0.0   ---   0.00   0.0   ---   13.2   13.1   13.1   11.8  ------  0.00   0.0     0     0.00      0     0.0  0.00   0.0   0.054   0.000   17.6    69   11.8   17.4    0.00   349    1    100.0   15 
19/11/20  18.30   12.4   13.2   12.4    85    9.9   0.0   ---   0.00   0.0   ---   12.4   12.3   12.3   10.9  ------  0.00   0.0     0     0.00      0     0.0  0.00   0.0   0.062   0.000   17.4    68   11.5   17.2    0.00   350    1    100.0   15 
19/11/20  18.45   12.0   12.4   12.0    86    9.7   0.0   ---   0.00   0.0   ---   12.0   11.9   11.9   10.6  ------  0.00   0.0     0     0.00      0     0.0  0.00   0.0   0.066   0.000   17.4    68   11.5   17.2    0.00   351    1    100.0   15 
19/11/20  19.00   12.2   12.3   11.8    87   10.1   0.0   ---   0.00   0.0   ---   12.2   12.2   12.2   10.8  ------  0.00   0.0     0     0.00      0     0.0  0.00   0.0   0.064   0.000   17.4    68   11.4   17.2    0.00   351    1    100.0   15 
19/11/20  19.15   11.6   12.1   11.6    87    9.5   0.0   ---   0.00   0.0   ---   11.6   11.6   11.6   10.2  ------  0.00   0.0     0     0.00      0     0.0  0.00   0.0   0.071   0.000   17.3    68   11.3   17.1    0.00   349    1    100.0   15 
19/11/20  19.30   11.4   11.6   11.4    88    9.5   0.0   ---   0.00   0.0   ---   11.4   11.4   11.4   10.1  ------  0.00   0.0     0     0.00      0     0.0  0.00   0.0   0.072   0.000   17.3    68   11.3   17.1    0.00   351    1    100.0   15 
19/11/20  19.45   10.9   11.4   10.9    88    9.0   0.0   ---   0.00   0.0   ---   10.9   11.0   11.0    9.6  ------  0.00   0.0     0     0.00      0     0.0  0.00   0.0   0.077   0.000   17.2    67   11.0   16.9    0.00   350    1    100.0   15 
19/11/20  20.00   11.3   11.3   10.9    89    9.6   0.0   ---   0.00   0.0   ---   11.3   11.4   11.4   10.0  ------  0.00   0.0     0     0.00      0     0.0  0.00   0.0   0.073   0.000   17.2    67   11.0   16.9    0.00   352    1    100.0   15 
19/11/20  20.15   10.6   11.3   10.6    88    8.7   0.0   ---   0.00   0.0   ---   10.6   10.6   10.6    9.2  ------  0.00   0.0     0     0.00      0     0.0  0.00   0.0   0.081   0.000   17.2    67   11.0   16.9    0.00   350    1    100.0   15 
19/11/20  20.30   10.3   10.6   10.3    89    8.5   0.0   ---   0.00   0.0   ---   10.3   10.4   10.4    8.9  ------  0.00   0.0     0     0.00      0     0.0  0.00   0.0   0.084   0.000   17.1    66   10.7   16.8    0.00   351    1    100.0   15 
19/11/20  20.45   10.8   10.8   10.3    90    9.3   0.0   ---   0.00   0.0   ---   10.8   10.9   10.9    9.5  ------  0.00   0.0     0     0.00      0     0.0  0.00   0.0   0.078   0.000   17.1    66   10.7   16.8    0.00   349    1    100.0   15 
19/11/20  21.00   10.1   10.9   10.1    89    8.4   0.0   ---   0.00   0.0   ---   10.1   10.2   10.2    8.8  ------  0.00   0.0     0     0.00      0     0.0  0.00   0.0   0.086   0.000   17.1    66   10.7   16.8    0.00   351    1    100.0   15 
19/11/20  21.15   10.6   10.7   10.1    90    9.0   0.0   ---   0.00   0.0   ---   10.6   10.7   10.7    9.3  ------  0.00   0.0     0     0.00      0     0.0  0.00   0.0   0.080   0.000   17.0    65   10.4   16.7    0.00   351    1    100.0   15 
19/11/20  21.30    9.7   10.7    9.6    90    8.2   0.0   ---   0.00   0.0   ---    9.7    9.9    9.9    8.4  ------  0.00   0.0     0     0.00      0     0.0  0.00   0.0   0.090   0.000   17.0    65   10.4   16.7    0.00   350    1    100.0   15 
19/11/20  21.45   10.6   10.7    9.7    90    9.0   0.0   ---   0.00   0.0   ---   10.6   10.7   10.7    9.3  ------  0.00   0.0     0     0.00      0     0.0  0.00   0.0   0.080   0.000   17.0    65   10.4   16.7    0.00   349    1    100.0   15 
19/11/20  22.00   10.6   10.9   10.6    90    9.0   0.0   ---   0.00   0.0   ---   10.6   10.7   10.7    9.2  ------  0.00   0.0     0     0.00      0     0.0  0.00   0.0   0.081   0.000   16.9    65   10.3   16.6    0.00   350    1    100.0   15 
19/11/20  22.15    9.8   10.6    9.8    90    8.3   0.0   ---   0.00   0.0   ---    9.8   10.0   10.0    8.6  ------  0.00   0.0     0     0.00      0     0.0  0.00   0.0   0.089   0.000   16.9    65   10.3   16.6    0.00   352    1    100.0   15 
19/11/20  22.30   10.4   10.5    9.8    91    9.0   0.0   ---   0.00   0.0   ---   10.4   10.6   10.6    9.2  ------  0.00   0.0     0     0.00      0     0.0  0.00   0.0   0.082   0.000   16.9    65   10.3   16.6    0.00   350    1    100.0   15 
19/11/20  22.45   11.7   11.8   10.2    91   10.3   0.0   ---   0.00   0.0   ---   11.7   11.8   11.8   10.4  ------  0.00   0.0     0     0.00      0     0.0  0.00   0.0   0.069   0.000   16.9    65   10.3   16.6    0.00   350    1    100.0   15 
19/11/20  23.00   11.0   11.8   10.9    91    9.6   0.0   ---   0.00   0.0   ---   11.0   11.1   11.1    9.7  ------  0.00   0.0     0     0.00      0     0.0  0.00   0.0   0.076   0.000   16.9    65   10.3   16.6    0.00   349    1    100.0   15 
19/11/20  23.15   10.8   11.1   10.7    91    9.4   0.0   ---   0.00   0.0   ---   10.8   10.9   10.9    9.5  ------  0.00   0.0     0     0.00      0     0.0  0.00   0.0   0.078   0.000   16.8    65   10.2   16.4    0.00   347    1    100.0   15 
19/11/20  23.30   11.1   11.5   10.8    91    9.6   0.0   ---   0.00   0.0   ---   11.1   11.2   11.2    9.8  ------  0.00   0.0     0     0.00      0     0.0  0.00   0.0   0.076   0.000   16.8    65   10.2   16.4    0.00   350    1    100.0   15 
19/11/20  23.45   11.2   11.2   10.9    91    9.8   0.0   ---   0.00   0.0   ---   11.2   11.3   11.3    9.9  ------  0.00   0.0     0     0.00      0     0.0  0.00   0.0   0.075   0.000   16.8    66   10.4   16.5    0.00   348    1    100.0   15 
20/11/20  00.00   11.9   11.9   11.2    91   10.5   0.0   ---   0.00   0.0   ---   11.9   12.0   12.0   10.6  ------  0.00   0.0     0     0.00      0     0.0  0.00   0.0   0.067   0.000   16.8    66   10.4   16.5    0.00   349    1    100.0   15 
20/11/20   0.15   12.3   12.4   11.9    91   10.9   0.0   ---   0.00   0.0   ---   12.3   12.4   12.4   11.1  ------  0.00   0.0     0     0.00      0     0.0  0.00   0.0   0.062   0.000   16.8    66   10.4   16.5    0.00   348    1    100.0   15 
20/11/20   0.30   12.1   12.4   12.1    91   10.7   0.0   ---   0.00   0.0   ---   12.1   12.2   12.2   10.8  ------  0.00   0.0     0     0.00      0     0.0  0.00   0.0   0.065   0.000   16.8    67   10.7   16.5    0.00   351    1    100.0   15 
20/11/20   0.45   12.4   12.4   12.1    91   11.0   0.0   ---   0.00   0.0   ---   12.4   12.5   12.5   11.2  ------  0.00   0.0     0     0.00      0     0.0  0.00   0.0   0.061   0.000   16.8    67   10.7   16.5    0.00   351    1    100.0   15 
20/11/20   1.00   12.6   12.6   12.4    91   11.2   0.0   ---   0.00   0.0   ---   12.6   12.7   12.7   11.3  ------  0.00   0.0     0     0.00      0     0.0  0.00   0.0   0.060   0.000   16.8    67   10.7   16.5    0.00   351    1    100.0   15 
20/11/20   1.15   13.0   13.2   12.6    91   11.6   0.0   ---   0.00   0.0   ---   13.0   13.1   13.1   11.7  ------  0.00   0.0     0     0.00      0     0.0  0.00   0.0   0.056   0.000   16.9    67   10.8   16.7    0.00   350    1    100.0   15 
20/11/20   1.30   12.8   12.9   12.6    91   11.4   0.0   ---   0.00   0.0   ---   12.8   12.9   12.9   11.6  ------  0.00   0.0     0     0.00      0     0.0  0.00   0.0   0.057   0.000   16.8    68   10.9   16.6    0.00   351    1    100.0   15 
20/11/20   1.45   12.9   12.9   12.8    91   11.5   0.0   ---   0.00   0.0   ---   12.9   13.0   13.0   11.7  ------  0.00   0.0     0     0.00      0     0.0  0.00   0.0   0.056   0.000   16.9    68   11.0   16.7    0.00   351    1    100.0   15 
20/11/20   2.00   13.3   13.3   12.9    91   11.8   0.0   ---   0.00   0.0   ---   13.3   13.3   13.3   12.0  ------  0.00   0.0     0     0.00      0     0.0  0.00   0.0   0.053   0.000   16.9    68   11.0   16.7    0.00   350    1    100.0   15 
20/11/20   2.15   13.2   13.3   13.2    91   11.8   0.0   ---   0.00   0.0   ---   13.2   13.3   13.3   11.9  ------  0.00   0.0     0     0.00      0     0.0  0.00   0.0   0.053   0.000   16.9    68   11.0   16.7    0.00   351    1    100.0   15 
20/11/20   2.30   13.2   13.4   13.2    90   11.6   0.0   ---   0.00   0.0   ---   13.2   13.3   13.3   11.9  ------  0.00   0.0     0     0.00      0     0.0  0.00   0.0   0.053   0.000   16.9    69   11.2   16.7    0.00   350    1    100.0   15 
20/11/20   2.45   13.3   13.3   13.1    90   11.7   0.0   ---   0.00   0.0   ---   13.3   13.4   13.4   12.1  ------  0.00   0.0     0     0.00      0     0.0  0.00   0.0   0.052   0.000   16.9    69   11.2   16.7    0.00   350    1    100.0   15 
20/11/20   3.00   13.4   13.4   13.2    89   11.6   0.0   ---   0.00   0.0   ---   13.4   13.4   13.4   12.1  ------  0.00   0.0     0     0.00      0     0.0  0.00   0.0   0.052   0.000   16.9    69   11.2   16.7    0.00   352    1    100.0   15 
20/11/20   3.15   13.4   13.4   13.2    89   11.6   0.0   ---   0.00   0.0   ---   13.4   13.4   13.4   12.1  ------  0.00   0.0     0     0.00      0     0.0  0.00   0.0   0.052   0.000   16.9    69   11.2   16.7    0.00   349    1    100.0   15 
20/11/20   3.30   13.6   13.8   13.4    88   11.7   0.0   ---   0.00   0.0   ---   13.6   13.6   13.6   12.3  ------  0.00   0.0     0     0.00      0     0.0  0.00   0.0   0.049   0.000   16.9    69   11.2   16.7    0.00   351    1    100.0   15 
20/11/20   3.45   13.6   13.7   13.6    88   11.6   0.0   ---   0.00   0.0   ---   13.6   13.6   13.6   12.2  ------  0.00   0.0     0     0.00      0     0.0  0.00   0.0   0.050   0.000   16.9    69   11.2   16.7    0.00   351    1    100.0   15 
20/11/20   4.00   13.6   13.6   13.5    88   11.7   0.0   ---   0.00   0.0   ---   13.6   13.6   13.6   12.3  ------  0.00   0.0     0     0.00      0     0.0  0.00   0.0   0.049   0.000   16.9    70   11.4   16.7    0.00   350    1    100.0   15 
20/11/20   4.15   13.7   13.7   13.6    88   11.7   0.0   ---   0.00   0.0   ---   13.7   13.7   13.7   12.3  ------  0.00   0.0     0     0.00      0     0.0  0.00   0.0   0.049   0.000   16.9    70   11.4   16.7    0.00   350    1    100.0   15 
20/11/20   4.30   13.7   13.8   13.7    88   11.7   0.0   ---   0.00   0.0   ---   13.7   13.7   13.7   12.3  ------  0.76  13.0     0     0.00      0     0.0  0.00   0.0   0.049   0.000   16.9    70   11.4   16.7    0.00   328    1     95.9   15 
20/11/20   4.45   13.4   13.7   13.4    89   11.7   0.0   ---   0.00   0.0   ---   13.4   13.5   13.5   12.2  ------  1.02   8.6     0     0.00      0     0.0  0.00   0.0   0.051   0.000   16.9    70   11.4   16.7    0.00   349    1    100.0   15 
20/11/20   5.00   13.4   13.5   13.4    89   11.6   0.0   ---   0.00   0.0   ---   13.4   13.4   13.4   12.1  ------  0.25   2.8     0     0.00      0     0.0  0.00   0.0   0.052   0.000   16.9    70   11.4   16.7    0.00   352    1    100.0   15 
20/11/20   5.15   13.2   13.4   13.2    89   11.4   0.0   NNE   0.00   3.2   NNE   13.2   13.3   13.3   11.9  ------  0.00   0.0     0     0.00      0     0.0  0.00   0.0   0.053   0.000   16.9    70   11.4   16.7    0.00   350    1    100.0   15 
20/11/20   5.30   13.3   13.3   13.2    90   11.7   0.0   NNE   0.00   4.8   NNE   13.3   13.3   13.3   12.0  ------  0.25   0.0     0     0.00      0     0.0  0.00   0.0   0.053   0.000   16.9    70   11.4   16.7    0.00   351    1    100.0   15 
20/11/20   5.45   13.1   13.2   13.1    90   11.5   0.0   NNE   0.00   4.8   NNE   13.1   13.1   13.1   11.8  ------  2.79  22.4     0     0.00      0     0.0  0.00   0.0   0.055   0.000   16.9    70   11.4   16.7    0.00   350    1    100.0   15 
20/11/20   6.00   12.8   13.1   12.8    90   11.2   1.6   NNE   0.40   9.7   NNE   12.8   12.8   12.8   11.5  ------  6.60  50.3     0     0.00      0     0.0  0.00   0.0   0.058   0.000   16.9    71   11.6   16.8    0.00   351    1    100.0   15 
20/11/20   6.15   12.3   12.8   12.3    90   10.7  14.5   NNE   3.62  45.1   NNE   10.4   12.3   10.4    9.2  ------  5.84  41.4     0     0.00      0     0.0  0.00   0.0   0.063   0.000   16.9    71   11.6   16.8    0.00   352    1    100.0   15 
20/11/20   6.30   11.8   12.2   11.8    89   10.1  22.5     N   5.63  43.5   NNE    8.5   11.9    8.6    7.5  ------  1.78  35.1     0     0.00      0     0.0  0.00   0.0   0.068   0.000   16.8    71   11.5   16.6    0.00   350    1    100.0   15 
20/11/20   6.45   11.7   11.8   11.7    89   10.0  20.9     N   5.23  41.8   NNE    8.6   11.8    8.6    7.5  ------  1.52   7.1     0     0.00      0     0.0  0.00   0.0   0.069   0.000   16.8    70   11.3   16.5    0.00   350    1    100.0   15 
20/11/20   7.00   11.7   11.7   11.6    88    9.7  24.1     N   6.04  46.7     N    8.1   11.7    8.1    7.1  ------  0.76   5.1     0     0.00      0     0.0  0.00   0.0   0.069   0.000   16.8    70   11.3   16.5    0.03   349    1    100.0   15 
20/11/20   7.15   11.6   11.7   11.5    89    9.8  24.1     N   6.04  49.9     N    8.0   11.6    8.1    7.0  ------  0.25   2.3     0     0.00      0     0.0  0.00   0.0   0.071   0.000   16.7    69   11.0   16.4    0.00   352    1    100.0   15 
20/11/20   7.30   11.5   11.6   11.4    89    9.7  22.5   NNE   5.63  38.6   NNE    8.1   11.6    8.2    7.1  ------  0.25   1.5     0     0.00      0     0.0  0.00   0.0   0.071   0.000   16.7    69   11.0   16.4    0.00   350    1    100.0   15 
20/11/20   7.45   11.6   11.6   11.4    88    9.6  20.9   NNE   5.23  37.0    NE    8.4   11.6    8.4    7.3  ------  0.00   0.0     3     0.06      7     0.0  0.00   0.0   0.071   0.000   16.7    69   11.0   16.4    0.00   351    1    100.0   15 
20/11/20   8.00   11.4   11.6   11.3    87    9.3  22.5     N   5.63  40.2   NNE    7.9   11.4    7.9    6.9  ------  0.00   0.0     9     0.19     11     0.0  0.00   0.0   0.072   0.000   16.6    69   10.9   16.3    0.03   351    1    100.0   15 
20/11/20   8.15   11.2   11.4   11.2    84    8.6  27.4     N   6.84  53.1   NNE    7.3   11.2    7.2    6.3  ------  0.00   0.0     8     0.17     11     0.0  0.00   0.0   0.074   0.000   16.6    68   10.7   16.3    0.00   352    1    100.0   15 
20/11/20   8.30   11.3   11.4   11.2    82    8.4  27.4     N   6.84  54.7   NNE    7.4   11.2    7.3    6.6  ------  0.00   0.0     7     0.15      9     0.0  0.00   0.0   0.073   0.000   16.5    67   10.3   16.2    0.00   349    1    100.0   15 
20/11/20   8.45   11.4   11.4   11.3    82    8.4  22.5   NNE   5.63  48.3   NNE    7.9   11.3    7.8    7.0  ------  0.00   0.0     5     0.11      7     0.0  0.00   0.0   0.072   0.000   16.5    66   10.1   16.1    0.00   343    1    100.0   15 
20/11/20   9.00   11.4   11.6   11.4    80    8.1  29.0     N   7.24  56.3   NNW    7.3   11.3    7.2    6.4  ------  0.00   0.0     5     0.11      7     0.0  0.00   0.0   0.072   0.000   16.5    66   10.1   16.1    0.05   343    1    100.0   15 
20/11/20   9.15   10.9   11.4   10.9    83    8.1  30.6     N   7.64  59.5     N    6.6   10.8    6.6    5.9  ------  0.25   0.0    11     0.24     19     0.0  0.00   0.0   0.078   0.000   16.4    66   10.0   16.0    0.00   351    1    100.0   15 
20/11/20   9.30   10.9   10.9   10.8    85    8.5  30.6     N   7.64  53.1   NNE    6.6   10.9    6.6    6.1  ------  0.51   2.8    17     0.37     19     0.0  0.00   0.0   0.078   0.000   16.4    66   10.0   16.0    0.00   352    1    100.0   15 
20/11/20   9.45   10.5   10.8   10.5    85    8.1  30.6     N   7.64  49.9     N    6.2   10.5    6.2    5.7  ------  0.51   4.1    21     0.45     32     0.0  0.00   0.0   0.082   0.000   16.4    66   10.0   16.0    0.00   350    1    100.0   15 
20/11/20  10.00   10.6   10.7   10.5    85    8.2  29.0     N   7.24  53.1   NNE    6.4   10.6    6.4    5.9  ------  0.76   3.6    19     0.41     23     0.0  0.00   0.0   0.080   0.000   16.4    66   10.0   16.0    0.05   351    1    100.0   15 
20/11/20  10.15   10.5   10.6   10.4    84    7.9  29.0     N   7.24  53.1    NE    6.3   10.5    6.3    5.8  ------  0.51   3.6    20     0.43     23     0.0  0.00   0.0   0.082   0.000   16.4    65    9.8   16.0    0.00   350    1    100.0   15 
20/11/20  10.30   10.4   10.5   10.4    85    8.0  27.4     N   6.84  48.3   NNE    6.4   10.4    6.4    5.9  ------  0.76   4.1    24     0.52     33     0.0  0.00   0.0   0.082   0.000   16.3    65    9.7   15.9    0.00   352    1    100.0   15 
20/11/20  10.45   10.6   10.6   10.4    85    8.1  29.0     N   7.24  53.1   NNE    6.4   10.6    6.4    5.9  ------  0.25   2.5    27     0.58     32     0.0  0.00   0.0   0.081   0.000   16.3    65    9.7   15.9    0.00   351    1    100.0   15 
20/11/20  11.00   10.7   10.7   10.6    85    8.3  25.7     N   6.44  45.1     N    6.9   10.7    6.9    6.7  ------  0.00   0.0    50     1.08     67     0.0  0.00   0.0   0.079   0.000   16.3    65    9.7   15.9    0.05   349    1    100.0   15 
20/11/20  11.15   11.0   11.0   10.7    85    8.6  25.7     N   6.44  45.1     N    7.2   11.0    7.2    7.6  ------  0.25   0.0    84     1.81    105     0.0  0.00   0.0   0.076   0.000   16.3    65    9.7   15.9    0.00   349    1    100.0   15 
20/11/20  11.30   11.4   11.4   11.0    83    8.6  24.1     N   6.04  43.5   NNE    7.8   11.3    7.8    8.3  ------  0.00   0.0   105     2.26    118     0.0  0.00   0.0   0.072   0.000   16.3    65    9.7   15.9    0.00   351    1    100.0   15 
20/11/20  11.45   11.6   11.6   11.4    82    8.6  22.5   NNE   5.63  40.2   NNE    8.2   11.4    8.1    8.7  ------  0.25   0.0   109     2.34    116     0.0  0.00   0.0   0.071   0.000   16.4    65    9.8   16.0    0.00   351    1    100.0   15 
20/11/20  12.00   11.6   11.7   11.6    81    8.5  20.9   NNE   5.23  40.2     N    8.4   11.5    8.3    8.8  ------  0.00   0.0    97     2.09    113     0.0  0.00   0.0   0.070   0.000   16.3    65    9.7   15.9    0.10   349    1    100.0   15 
20/11/20  12.15   11.9   11.9   11.6    79    8.4  22.5   NNE   5.63  37.0    NE    8.6   11.8    8.4    8.6  ------  0.00   0.0    71     1.53     81     0.0  0.00   0.0   0.067   0.000   16.3    65    9.7   15.9    0.00   350    1    100.0   15 
20/11/20  12.30   12.3   12.3   11.9    76    8.2  20.9   NNE   5.23  35.4   NNE    9.2   12.1    8.9    9.3  ------  0.00   0.0    88     1.89     97     0.0  0.00   0.0   0.062   0.000   16.3    64    9.5   15.9    0.00   348    1    100.0   15 
20/11/20  12.45   12.9   12.9   12.4    71    7.8  22.5   NNE   5.63  38.6    NE    9.7   12.6    9.3   10.3  ------  0.00   0.0   139     2.99    169     0.0  0.00   0.0   0.056   0.000   16.3    64    9.5   15.9    0.00   333    1     97.4   15 
20/11/20  13.00   13.2   13.2   12.9    71    8.0  20.9   NNE   5.23  35.4    NE   10.2   12.7    9.8   10.9  ------  0.00   0.0   148     3.18    178     0.0  0.00   0.0   0.054   0.000   16.3    63    9.3   15.8    0.10   321    1     93.9   15 
20/11/20  13.15   13.2   13.3   13.1    69    7.6  20.9   NNE   5.23  38.6   NNW   10.2   12.7    9.8   10.6  ------  0.00   0.0   122     2.62    132     0.0  0.00   0.0   0.054   0.000   16.3    63    9.3   15.8    0.00   304    1     88.9   15 
20/11/20  13.30   12.5   13.1   12.4    74    8.0  20.9   NNE   5.23  38.6   NNE    9.4   12.2    9.2    9.4  ------  0.25   0.0    80     1.72    109     0.0  0.00   0.0   0.061   0.000   16.3    63    9.3   15.8    0.00   317    1     92.7   15 
20/11/20  13.45   12.3   12.5   12.2    75    8.0  20.9   NNE   5.23  35.4   NNW    9.2   12.1    8.9    8.6  ------  0.51   2.3    37     0.80     51     0.0  0.00   0.0   0.062   0.000   16.2    63    9.2   15.7    0.00   343    1    100.0   15 
20/11/20  14.00   11.8   12.3   11.8    78    8.1  19.3   NNE   4.83  43.5   NNE    8.9   11.6    8.7    8.1  ------  1.02   6.3    23     0.49     32     0.0  0.00   0.0   0.068   0.000   16.2    64    9.4   15.7    0.10   348    1    100.0   15 
20/11/20  14.15   11.7   11.8   11.6    79    8.2  14.5    NE   3.62  27.4    NE    9.7   11.6    9.6    8.7  ------  1.52   9.1    13     0.28     16     0.0  0.00   0.0   0.069   0.000   16.2    64    9.4   15.7    0.00   347    1    100.0   15 
20/11/20  14.30   11.7   11.7   11.6    80    8.3  14.5    NE   3.62  27.4    NE    9.7   11.5    9.5    8.6  ------  1.27   7.4    12     0.26     14     0.0  0.00   0.0   0.069   0.000   16.2    64    9.4   15.7    0.00   350    1    100.0   15 
20/11/20  14.45   11.6   11.7   11.4    80    8.2  12.9    NE   3.22  22.5   NNE    9.9   11.4    9.8    8.9  ------  1.02   6.3    13     0.28     16     0.0  0.00   0.0   0.071   0.000   16.2    64    9.4   15.7    0.00   352    1    100.0   15 
20/11/20  15.00   11.9   11.9   11.6    78    8.2  14.5    NE   3.62  25.7     N    9.9   11.7    9.7    9.1  ------  0.25   2.5    25     0.54     33     0.0  0.00   0.0   0.067   0.000   16.2    64    9.4   15.7    0.05   351    1    100.0   15 
20/11/20  15.15   12.3   12.3   11.8    74    7.8  16.1   NNE   4.02  32.2    NE   10.1   12.1    9.8    9.5  ------  0.00   0.0    36     0.77     37     0.0  0.00   0.0   0.062   0.000   16.2    64    9.4   15.7    0.00   351    1    100.0   15 
20/11/20  15.30   12.8   12.8   12.3    71    7.6  17.7   NNE   4.43  32.2   NNE   10.3   12.4    9.9    9.7  ------  0.00   0.0    39     0.84     46     0.0  0.00   0.0   0.058   0.000   16.2    63    9.2   15.7    0.00   350    1    100.0   15 
20/11/20  15.45   13.2   13.2   12.8    68    7.4  19.3   NNE   4.83  30.6   NNE   10.6   12.7   10.1   10.0  ------  0.00   0.0    47     1.01     49     0.0  0.00   0.0   0.053   0.000   16.2    63    9.1   15.6    0.00   347    1    100.0   15 
20/11/20  16.00   13.4   13.5   13.2    66    7.2  19.3   NNE   4.83  37.0   NNE   10.8   12.9   10.2   10.1  ------  0.00   0.0    44     0.95     47     0.0  0.00   0.0   0.051   0.000   16.2    62    8.9   15.6    0.08   319    1     93.3   15 
20/11/20  16.15   13.7   13.7   13.4    63    6.7  20.9   NNE   5.23  38.6    NE   10.8   13.1   10.2    9.9  ------  0.00   0.0    34     0.73     35     0.0  0.00   0.0   0.049   0.000   16.2    62    8.9   15.6    0.00   303    1     88.6   15 
20/11/20  16.30   13.8   13.8   13.7    63    6.9  22.5   NNE   5.63  38.6     N   10.8   13.2   10.2    9.6  ------  0.00   0.0    16     0.34     28     0.0  0.00   0.0   0.047   0.000   16.2    61    8.6   15.6    0.00   306    1     89.5   15 
20/11/20  16.45   13.9   14.0   13.8    62    6.8  22.5   NNE   5.63  43.5     N   10.9   13.3   10.2    9.1  ------  0.00   0.0     4     0.09      7     0.0  0.00   0.0   0.046   0.000   16.2    61    8.6   15.6    0.00   316    1     92.4   15 
20/11/20  17.00   14.1   14.2   13.9    60    6.5  22.5   NNE   5.63  38.6     N   11.1   13.4   10.3    9.2  ------  0.00   0.0     0     0.00      0     0.0  0.00   0.0   0.044   0.000   16.2    60    8.4   15.5    0.10   313    1     91.5   15 
20/11/20  17.15   14.2   14.2   14.0    59    6.3  20.9   NNE   5.23  45.1   NNW   11.4   13.4   10.7    9.5  ------  0.00   0.0     0     0.00      0     0.0  0.00   0.0   0.043   0.000   16.2    60    8.4   15.5    0.00   317    1     92.7   15 
20/11/20  17.30   14.1   14.2   14.1    62    6.9  19.3   NNE   4.83  35.4   NNE   11.5   13.4   10.8    9.6  ------  0.00   0.0     0     0.00      0     0.0  0.00   0.0   0.045   0.000   16.2    59    8.1   15.4    0.00   312    1     91.2   15 
20/11/20  17.45   14.2   14.2   14.0    60    6.5  19.3   NNE   4.83  30.6   NNE   11.6   13.4   10.9    9.7  ------  0.00   0.0     0     0.00      0     0.0  0.00   0.0   0.043   0.000   16.2    59    8.1   15.4    0.00   312    1     91.2   15 
20/11/20  18.00   14.1   14.2   14.1    61    6.6  17.7   NNE   4.43  35.4   NNE   11.8   13.4   11.1    9.8  ------  0.00   0.0     0     0.00      0     0.0  0.00   0.0   0.045   0.000   16.2    59    8.1   15.4    0.10   318    1     93.0   15 
20/11/20  18.15   13.6   14.1   13.5    62    6.5  19.3   NNE   4.83  37.0    NE   11.0   12.9   10.3    9.1  ------  0.00   0.0     0     0.00      0     0.0  0.00   0.0   0.049   0.000   16.2    59    8.1   15.4    0.00   336    1     98.2   15 
20/11/20  18.30   13.6   13.7   13.2    62    6.5  20.9   NNE   5.23  38.6    NE   10.7   12.9   10.1    8.9  ------  0.00   0.0     0     0.00      0     0.0  0.00   0.0   0.049   0.000   16.2    59    8.1   15.4    0.00   318    1     93.0   15 
20/11/20  18.45   13.9   13.9   13.4    61    6.5  22.5   NNE   5.63  43.5   NNE   10.8   13.2   10.2    9.0  ------  0.00   0.0     0     0.00      0     0.0  0.00   0.0   0.046   0.000   16.1    58    7.8   15.3    0.00   314    1     91.8   15 
20/11/20  19.00   14.2   14.3   13.9    60    6.6  24.1   NNE   6.04  45.1     N   11.0   13.5   10.3    9.2  ------  0.00   0.0     0     0.00      0     0.0  0.00   0.0   0.043   0.000   16.1    57    7.5   15.3    0.10   333    1     97.4   15 
20/11/20  19.15   14.3   14.3   14.2    58    6.2  22.5   NNE   5.63  51.5    NE   11.3   13.6   10.6    9.4  ------  0.00   0.0     0     0.00      0     0.0  0.00   0.0   0.042   0.000   16.1    57    7.5   15.3    0.00   335    1     98.0   15 
20/11/20  19.30   14.2   14.3   14.2    59    6.3  20.9   NNE   5.23  38.6    NE   11.4   13.4   10.6    9.4  ------  0.00   0.0     0     0.00      0     0.0  0.00   0.0   0.043   0.000   16.1    57    7.5   15.3    0.00   323    1     94.4   15 
20/11/20  19.45   14.1   14.2   14.1    58    6.0  20.9   NNE   5.23  41.8   NNE   11.3   13.3   10.5    9.3  ------  0.00   0.0     0     0.00      0     0.0  0.00   0.0   0.044   0.000   16.1    56    7.3   15.2    0.00   319    1     93.3   15 
20/11/20  20.00   14.3   14.4   14.1    57    5.9  24.1   NNE   6.04  41.8   NNE   11.1   13.4   10.2    9.1  ------  0.00   0.0     0     0.00      0     0.0  0.00   0.0   0.042   0.000   16.1    56    7.3   15.2    0.10   331    1     96.8   15 
20/11/20  20.15   14.3   14.3   14.0    57    5.9  19.3   NNE   4.83  43.5   NNE   11.7   13.4   10.9    9.7  ------  0.25   0.0     0     0.00      0     0.0  0.00   0.0   0.042   0.000   16.1    56    7.3   15.2    0.00   340    1     99.4   15 
20/11/20  20.30   14.3   14.4   14.2    58    6.1  22.5   NNE   5.63  41.8   NNE   11.3   13.5   10.5    9.3  ------  0.00   0.0     0     0.00      0     0.0  0.00   0.0   0.042   0.000   16.1    56    7.3   15.2    0.00   344    1    100.0   15 
20/11/20  20.45   14.3   14.4   14.2    58    6.1  20.9   NNE   5.23  38.6    NE   11.5   13.5   10.7    9.6  ------  0.00   0.0     0     0.00      0     0.0  0.00   0.0   0.042   0.000   16.1    56    7.3   15.2    0.00   350    1    100.0   15 
20/11/20  21.00   14.3   14.3   14.3    57    5.9  19.3   NNE   4.83  35.4     N   11.8   13.5   11.0    9.8  ------  0.00   0.0     0     0.00      0     0.0  0.00   0.0   0.042   0.000   16.1    56    7.3   15.2    0.10   351    1    100.0   15 
20/11/20  21.15   14.2   14.4   14.2    56    5.6  19.3   NNE   4.83  35.4   NNE   11.7   13.4   10.8    9.6  ------  0.00   0.0     0     0.00      0     0.0  0.00   0.0   0.043   0.000   16.1    55    7.0   15.2    0.00   349    1    100.0   15 
20/11/20  21.30   14.2   14.4   14.2    55    5.3  20.9   NNE   5.23  38.6     N   11.4   13.3   10.6    9.3  ------  0.00   0.0     0     0.00      0     0.0  0.00   0.0   0.043   0.000   16.1    55    7.0   15.2    0.00   351    1    100.0   15 
20/11/20  21.45   14.2   14.3   14.1    56    5.5  20.9   NNE   5.23  33.8   NNE   11.4   13.3   10.6    9.3  ------  0.00   0.0     0     0.00      0     0.0  0.00   0.0   0.043   0.000   16.1    55    7.0   15.2    0.00   350    1    100.0   15 
20/11/20  22.00   14.0   14.2   13.9    56    5.4  19.3   NNE   4.83  38.6     N   11.4   13.2   10.6    9.3  ------  0.00   0.0     0     0.00      0     0.0  0.00   0.0   0.045   0.000   16.1    55    7.0   15.2    0.10   350    1    100.0   15 
20/11/20  22.15   14.1   14.2   13.9    55    5.2  20.9   NNE   5.23  40.2   NNE   11.3   13.2   10.4    9.2  ------  0.00   0.0     0     0.00      0     0.0  0.00   0.0   0.044   0.000   16.1    55    7.0   15.2    0.00   351    1    100.0   15 
20/11/20  22.30   13.9   14.1   13.9    55    5.0  19.3   NNE   4.83  38.6    NE   11.3   13.1   10.4    9.2  ------  0.00   0.0     0     0.00      0     0.0  0.00   0.0   0.046   0.000   16.1    54    6.7   15.1    0.00   351    1    100.0   15 
20/11/20  22.45   13.8   13.9   13.7    57    5.4  17.7   NNE   4.43  33.8     N   11.5   12.9   10.7    9.3  ------  0.00   0.0     0     0.00      0     0.0  0.00   0.0   0.047   0.000   16.1    54    6.7   15.1    0.00   350    1    100.0   15 
20/11/20  23.00   13.8   13.9   13.8    55    4.9  20.9   NNE   5.23  38.6   NNE   11.0   12.9   10.1    8.9  ------  0.00   0.0     0     0.00      0     0.0  0.00   0.0   0.047   0.000   16.1    54    6.7   15.1    0.10   351    1    100.0   15 
20/11/20  23.15   13.8   13.9   13.8    53    4.4  22.5   NNE   5.63  37.0   NNE   10.8   12.9    9.8    8.6  ------  0.00   0.0     0     0.00      0     0.0  0.00   0.0   0.047   0.000   16.0    53    6.4   15.0    0.00   351    1    100.0   15 
20/11/20  23.30   13.7   13.8   13.6    53    4.3  20.9   NNE   5.23  43.5   NNE   10.8   12.8    9.9    8.7  ------  0.00   0.0     0     0.00      0     0.0  0.00   0.0   0.048   0.000   16.0    53    6.4   15.0    0.00   352    1    100.0   15 
20/11/20  23.45   13.6   13.7   13.6    54    4.4  20.9   NNE   5.23  38.6     N   10.7   12.6    9.7    8.5  ------  0.00   0.0     0     0.00      0     0.0  0.00   0.0   0.050   0.000   16.0    52    6.1   15.0    0.00   351    1    100.0   15 
21/11/20  00.00   13.4   13.6   13.4    53    4.0  20.9   NNE   5.23  40.2   NNE   10.5   12.5    9.6    8.3  ------  0.00   0.0     0     0.00      0     0.0  0.00   0.0   0.051   0.000   16.0    52    6.1   15.0    0.13   349    1    100.0   15 
21/11/20   0.15   13.3   13.5   13.3    52    3.7  19.3   NNE   4.83  37.0   NNE   10.7   12.3    9.7    8.3  ------  0.00   0.0     0     0.00      0     0.0  0.00   0.0   0.052   0.000   16.0    52    6.1   15.0    0.00   350    1    100.0   15 
21/11/20   0.30   13.2   13.5   13.1    52    3.6  20.9   NNE   5.23  40.2   NNE   10.3   12.2    9.3    8.0  ------  0.00   0.0     0     0.00      0     0.0  0.00   0.0   0.053   0.000   16.0    51    5.9   14.9    0.00   351    1    100.0   15 
21/11/20   0.45   13.1   13.3   13.1    52    3.5  22.5   NNE   5.63  40.2     N    9.9   12.2    9.0    7.8  ------  0.00   0.0     0     0.00      0     0.0  0.00   0.0   0.054   0.000   15.9    51    5.8   14.8    0.00   351    1    100.0   15 
21/11/20   1.00   12.9   13.2   12.9    53    3.5  20.9   NNE   5.23  35.4   NNE    9.9   12.0    9.0    7.7  ------  0.00   0.0     0     0.00      0     0.0  0.00   0.0   0.057   0.000   15.9    50    5.5   14.8    0.13   351    1    100.0   15 
21/11/20   1.15   12.8   12.8   12.7    53    3.4  17.7   NNE   4.43  37.0    NE   10.3   11.9    9.4    8.1  ------  0.00   0.0     0     0.00      0     0.0  0.00   0.0   0.058   0.000   15.9    51    5.8   14.8    0.00   351    1    100.0   15 
21/11/20   1.30   12.7   12.8   12.7    52    3.1  20.9   NNE   5.23  37.0    NE    9.7   11.8    8.8    7.5  ------  0.00   0.0     0     0.00      0     0.0  0.00   0.0   0.058   0.000   15.9    50    5.5   14.8    0.00   351    1    100.0   15 
21/11/20   1.45   12.7   12.9   12.7    52    3.1  24.1   NNE   6.04  43.5   NNE    9.3   11.7    8.3    7.1  ------  0.00   0.0     0     0.00      0     0.0  0.00   0.0   0.059   0.000   15.9    50    5.5   14.8    0.00   351    1    100.0   15 
21/11/20   2.00   12.6   12.8   12.6    52    3.0  25.7   NNE   6.44  48.3   NNE    9.0   11.7    8.1    6.9  ------  0.00   0.0     0     0.00      0     0.0  0.00   0.0   0.060   0.000   15.8    50    5.4   14.7    0.13   349    1    100.0   15 
21/11/20   2.15   12.6   12.7   12.4    54    3.5  25.7   NNE   6.44  48.3   NNE    8.9   11.7    8.1    6.9  ------  0.00   0.0     0     0.00      0     0.0  0.00   0.0   0.060   0.000   15.8    50    5.4   14.7    0.00   350    1    100.0   15 
21/11/20   2.30   12.2   12.6   12.1    55    3.4  19.3   NNE   4.83  37.0   NNE    9.3   11.4    8.6    7.2  ------  0.00   0.0     0     0.00      0     0.0  0.00   0.0   0.064   0.000   15.8    50    5.4   14.7    0.00   351    1    100.0   15 
21/11/20   2.45   12.1   12.2   12.1    54    3.0  22.5   NNE   5.63  45.1   ENE    8.7   11.2    7.9    6.7  ------  0.00   0.0     0     0.00      0     0.0  0.00   0.0   0.065   0.000   15.8    50    5.4   14.7    0.00   351    1    100.0   15 
21/11/20   3.00   11.8   12.1   11.7    54    2.8  16.1   NNE   4.02  37.0   NNE    9.6   11.1    8.8    7.3  ------  0.00   0.0     0     0.00      0     0.0  0.00   0.0   0.068   0.000   15.8    50    5.4   14.7    0.10   352    1    100.0   15 
21/11/20   3.15   11.7   11.8   11.7    53    2.4  20.9   NNE   5.23  41.8     N    8.6   10.9    7.7    6.4  ------  0.00   0.0     0     0.00      0     0.0  0.00   0.0   0.069   0.000   15.7    49    5.0   14.6    0.00   351    1    100.0   15 
21/11/20   3.30   11.6   11.7   11.4    52    2.1  22.5   NNE   5.63  43.5   NNE    8.2   10.8    7.4    6.1  ------  0.00   0.0     0     0.00      0     0.0  0.00   0.0   0.070   0.000   15.7    49    5.0   14.6    0.00   351    1    100.0   15 
21/11/20   3.45   11.3   11.6   11.3    54    2.3  22.5   NNE   5.63  38.6   NNE    7.9   10.6    7.2    5.9  ------  0.00   0.0     0     0.00      0     0.0  0.00   0.0   0.073   0.000   15.7    48    4.7   14.6    0.00   351    1    100.0   15 
21/11/20   4.00   11.3   11.4   11.2    53    2.0  24.1   NNE   6.04  43.5   NNE    7.7   10.5    6.9    5.7  ------  0.00   0.0     0     0.00      0     0.0  0.00   0.0   0.073   0.000   15.6    48    4.6   14.4    0.13   349    1    100.0   15 
21/11/20   4.15   11.1   11.3   11.1    53    1.9  22.5   NNE   5.63  40.2   NNE    7.7   10.4    6.9    5.7  ------  0.00   0.0     0     0.00      0     0.0  0.00   0.0   0.075   0.000   15.6    48    4.6   14.4    0.00   351    1    100.0   15 
21/11/20   4.30   11.1   11.2   11.1    52    1.6  22.5   NNE   5.63  46.7     N    7.7   10.3    6.9    5.6  ------  0.00   0.0     0     0.00      0     0.0  0.00   0.0   0.075   0.000   15.6    47    4.3   14.4    0.00   350    1    100.0   15 
21/11/20   4.45   10.9   11.2   10.9    54    2.0  22.5   NNE   5.63  41.8   NNE    7.5   10.3    6.8    5.6  ------  0.00   0.0     0     0.00      0     0.0  0.00   0.0   0.077   0.000   15.6    47    4.3   14.3    0.00   351    1    100.0   15 
21/11/20   5.00   11.1   11.1   10.9    53    1.8  25.7   NNE   6.44  43.5    NE    7.3   10.3    6.6    5.3  ------  0.00   0.0     0     0.00      0     0.0  0.00   0.0   0.076   0.000   15.6    47    4.3   14.3    0.13   351    1    100.0   15 
21/11/20   5.15   11.1   11.2   11.1    52    1.6  27.4     N   6.84  51.5    NE    7.1   10.3    6.3    5.2  ------  0.00   0.0     0     0.00      0     0.0  0.00   0.0   0.076   0.000   15.6    47    4.3   14.3    0.00   350    1    100.0   15 
21/11/20   5.30   11.0   11.1   10.9    53    1.8  25.7   NNE   6.44  46.7     N    7.2   10.3    6.5    5.3  ------  0.00   0.0     0     0.00      0     0.0  0.00   0.0   0.076   0.000   15.6    47    4.3   14.3    0.00   351    1    100.0   15 
21/11/20   5.45   11.1   11.2   11.0    51    1.3  30.6   NNE   7.64  51.5    NE    6.8   10.3    6.1    4.9  ------  0.00   0.0     0     0.00      0     0.0  0.00   0.0   0.075   0.000   15.4    46    3.9   14.2    0.00   350    1    100.0   15 
21/11/20   6.00   10.9   11.1   10.9    52    1.5  27.4   NNE   6.84  51.5    NE    6.9   10.2    6.2    5.1  ------  0.00   0.0     0     0.00      0     0.0  0.00   0.0   0.077   0.000   15.4    46    3.9   14.2    0.13   351    1    100.0   15 
21/11/20   6.15   10.9   10.9   10.8    51    1.1  29.0   NNE   7.24  49.9   NNE    6.8   10.1    6.0    4.9  ------  0.00   0.0     0     0.00      0     0.0  0.00   0.0   0.078   0.000   15.4    46    3.8   14.2    0.00   351    1    100.0   15 
21/11/20   6.30   10.8   10.9   10.7    51    1.0  27.4   NNE   6.84  53.1   NNE    6.8   10.1    6.1    4.9  ------  0.00   0.0     0     0.00      0     0.0  0.00   0.0   0.079   0.000   15.4    46    3.8   14.2    0.00   351    1    100.0   15 
21/11/20   6.45   10.7   10.8   10.7    53    1.5  27.4   NNE   6.84  53.1   NNE    6.6   10.0    5.9    4.8  ------  0.00   0.0     0     0.00      0     0.0  0.00   0.0   0.080   0.000   15.4    46    3.8   14.2    0.00   351    1    100.0   15 
21/11/20   7.00   10.7   10.8   10.7    52    1.2  27.4   NNE   6.84  49.9   NNE    6.6    9.9    5.9    4.7  ------  0.00   0.0     0     0.00      0     0.0  0.00   0.0   0.080   0.000   15.3    46    3.7   14.1    0.13   350    1    100.0   15 
21/11/20   7.15   10.5   10.7   10.5    52    1.0  24.1   NNE   6.04  45.1    NE    6.8    9.8    6.1    4.9  ------  0.00   0.0     0     0.00      0     0.0  0.00   0.0   0.082   0.000   15.3    45    3.4   14.0    0.00   351    1    100.0   15 
21/11/20   7.30   10.7   10.7   10.5    51    1.0  27.4     N   6.84  56.3   NNE    6.7   10.0    6.0    4.9  ------  0.00   0.0     7     0.15     12     0.0  0.00   0.0   0.079   0.000   15.3    45    3.4   14.0    0.00   352    1    100.0   15 
21/11/20   7.45   10.8   10.9   10.7    50    0.8  27.4     N   6.84  48.3     N    6.8   10.0    6.0    5.0  ------  0.00   0.0    19     0.41     28     0.0  0.00   0.0   0.079   0.000   15.3    45    3.4   14.0    0.00   351    1    100.0   15 
21/11/20   8.00   10.8   10.9   10.7    51    1.1  25.7     N   6.44  49.9     N    7.0   10.1    6.3    5.5  ------  0.00   0.0    44     0.95     60     0.0  0.00   0.0   0.078   0.000   15.3    45    3.4   14.0    0.15   351    1    100.0   15 
21/11/20   8.15   10.9   10.9   10.8    51    1.1  24.1     N   6.04  45.1   NNE    7.2   10.1    6.4    5.9  ------  0.00   0.0    78     1.68     97     0.0  0.00   0.0   0.078   0.000   15.3    45    3.4   14.0    0.00   350    1    100.0   15 
21/11/20   8.30   11.1   11.1   10.9    50    1.0  25.7     N   6.44  51.5   NNE    7.3   10.2    6.4    6.4  ------  0.00   0.0   119     2.56    141     0.0  0.00   0.0   0.076   0.000   15.3    45    3.4   14.0    0.00   351    1    100.0   15 
21/11/20   8.45   11.1   11.1   11.0    50    1.0  25.7   NNE   6.44  46.7   NNE    7.3   10.2    6.4    7.8  ------  0.00   0.0   164     3.53    185     0.0  0.00   0.0   0.076   0.000   15.3    45    3.4   14.0    0.00   351    1    100.0   15 
21/11/20   9.00   11.2   11.2   11.1    46    0.0  24.1     N   6.04  49.9   NNE    7.6   10.3    6.7    8.7  ------  0.00   0.0   212     4.56    237     0.0  0.00   0.0   0.074   0.000   15.3    45    3.4   14.0    0.20   350    1    100.0   15 
21/11/20   9.15   11.2   11.2   11.1    48    0.6  25.7   NNE   6.44  49.9   NNE    7.4   10.3    6.6    9.2  ------  0.00   0.0   264     5.68    283     0.0  0.00   0.0   0.074   0.000   15.3    45    3.4   14.0    0.00   350    1    100.0   15 
21/11/20   9.30   11.3   11.3   11.2    49    0.9  27.4     N   6.84  49.9     N    7.3   10.4    6.4    9.4  ------  0.00   0.0   299     6.43    313     0.0  0.00   0.0   0.073   0.000   15.3    45    3.4   14.0    0.00   352    1    100.0   15 
21/11/20   9.45   11.3   11.4   11.2    46    0.1  27.4   NNE   6.84  53.1     N    7.3   10.3    6.4    9.4  ------  0.00   0.0   326     7.01    339     0.0  0.00   0.0   0.073   0.000   15.3    44    3.1   13.9    0.00   351    1    100.0   15 
21/11/20  10.00   11.4   11.4   11.3    47    0.5  27.4     N   6.84  54.7     N    7.6   10.5    6.6    9.8  ------  0.00   0.0   353     7.59    366     0.0  0.00   0.0   0.072   0.000   15.3    44    3.1   13.9    0.30   351    1    100.0   15 
21/11/20  10.15   11.5   11.6   11.4    50    1.4  19.3     N   4.83  37.0     N    8.6   10.6    7.7   11.5  ------  0.00   0.0   377     8.11    383     0.0  0.00   0.0   0.071   0.000   15.4    44    3.2   14.1    0.00   351    1    100.0   15 
21/11/20  10.30   11.6   11.6   11.4    51    1.8  20.9   NNE   5.23  40.2     N    8.4   10.7    7.6   11.4  ------  0.00   0.0   404     8.69    432     0.0  0.00   0.0   0.071   0.000   15.4    45    3.6   14.2    0.00   351    1    100.0   15 
21/11/20  10.45   11.8   11.8   11.5    51    2.0  19.3     N   4.83  41.8   NNW    8.8   10.9    7.9   11.9  ------  0.00   0.0   427     9.18    476     0.0  0.00   0.0   0.068   0.000   15.6    45    3.7   14.3    0.00   350    1    100.0   15 
21/11/20  11.00   11.3   11.8   11.3    50    1.3  20.9     N   5.23  37.0     N    8.1   10.5    7.3   10.7  ------  0.00   0.0   346     7.44    494     0.0  0.00   0.0   0.073   0.000   15.6    45    3.7   14.3    0.28   350    1    100.0   15 
21/11/20  11.15   11.8   11.9   11.3    49    1.5  20.9     N   5.23  41.8   NNW    8.7   10.9    7.7   11.7  ------  0.00   0.0   465    10.00    531     0.0  0.00   0.0   0.068   0.000   15.6    45    3.7   14.3    0.00   351    1    100.0   15 
21/11/20  11.30   11.8   11.9   11.8    50    1.7  22.5     N   5.63  40.2     N    8.4   10.9    7.5   11.3  ------  0.00   0.0   470    10.11    485     0.0  0.00   0.0   0.068   0.000   15.7    45    3.8   14.4    0.00   350    1    100.0   15 
21/11/20  11.45   11.9   12.0   11.8    51    2.1  22.5   NNE   5.63  45.1   NNE    8.6   11.1    7.7   11.5  ------  0.00   0.0   477    10.26    496     0.0  0.00   0.0   0.067   0.000   15.9    45    4.0   14.6    0.00   352    1    100.0   15 
21/11/20  12.00   11.9   12.1   11.9    49    1.6  20.9     N   5.23  37.0     N    8.8   11.0    7.8   11.8  ------  0.00   0.0   464     9.98    485     0.0  0.00   0.0   0.067   0.000   16.0    45    4.1   14.7    0.33   351    1    100.0   15 
21/11/20  12.15   11.9   12.2   11.9    49    1.6  20.9     N   5.23  46.7   NNE    8.8   11.0    7.8   11.8  ------  0.00   0.0   460     9.89    464     0.0  0.00   0.0   0.067   0.000   16.2    45    4.2   14.9    0.00   351    1    100.0   15 
21/11/20  12.30   12.1   12.1   11.8    49    1.7  22.5     N   5.63  41.8     N    8.7   11.1    7.8   11.7  ------  0.00   0.0   459     9.87    464     0.0  0.00   0.0   0.065   0.000   16.3    45    4.4   15.1    0.00   351    1    100.0   15 
21/11/20  12.45   12.1   12.1   11.9    48    1.4  25.7     N   6.44  48.3   NNE    8.4   11.1    7.4   11.1  ------  0.00   0.0   454     9.76    457     0.0  0.00   0.0   0.065   0.000   16.4    44    4.1   15.1    0.00   351    1    100.0   15 
21/11/20  13.00   12.1   12.2   12.1    45    0.5  25.7     N   6.44  49.9     N    8.4   11.0    7.3   10.9  ------  0.00   0.0   450     9.68    454     0.0  0.00   0.0   0.065   0.000   16.6    44    4.3   15.3    0.36   349    1    100.0   15 
21/11/20  13.15   12.3   12.3   12.1    46    1.0  22.5     N   5.63  38.6     N    9.0   11.2    7.9   11.7  ------  0.00   0.0   440     9.46    454     0.0  0.00   0.0   0.063   0.000   16.7    43    4.0   15.3    0.00   351    1    100.0   15 
21/11/20  13.30   12.3   12.4   12.2    46    1.0  22.5     N   5.63  43.5   NNW    9.0   11.2    7.9   11.7  ------  0.00   0.0   429     9.22    441     0.0  0.00   0.0   0.063   0.000   16.8    43    4.2   15.4    0.00   351    1    100.0   15 
21/11/20  13.45   12.4   12.4   12.2    45    0.8  24.1     N   6.04  43.5     N    8.9   11.3    7.8   11.3  ------  0.00   0.0   380     8.17    410     0.0  0.00   0.0   0.062   0.000   16.8    43    4.2   15.4    0.00   351    1    100.0   15 
21/11/20  14.00   12.4   12.5   12.3    44    0.5  24.1     N   6.04  43.5   NNW    9.0   11.3    7.8   11.2  ------  0.00   0.0   371     7.98    392     0.0  0.00   0.0   0.061   0.000   16.9    43    4.3   15.6    0.33   350    1    100.0   15 
21/11/20  14.15   12.5   12.6   12.4    43    0.2  25.7   NNE   6.44  45.1     N    8.9   11.3    7.7   10.9  ------  0.00   0.0   355     7.63    371     0.0  0.00   0.0   0.061   0.000   16.8    42    3.8   15.4    0.00   349    1    100.0   15 
21/11/20  14.30   12.4   12.6   12.4    43    0.2  29.0   NNE   7.24  48.3    NE    8.5   11.3    7.3   10.3  ------  0.00   0.0   337     7.25    350     0.0  0.00   0.0   0.061   0.000   16.8    42    3.8   15.4    0.00   350    1    100.0   15 
21/11/20  14.45   12.4   12.6   12.4    44    0.5  27.4   NNE   6.84  48.3   NNE    8.7   11.3    7.5   10.3  ------  0.00   0.0   307     6.60    320     0.0  0.00   0.0   0.061   0.000   16.5    42    3.5   15.1    0.00   349    1    100.0   15 
21/11/20  15.00   12.4   12.5   12.4    44    0.5  29.0   NNE   7.24  51.5     N    8.5   11.3    7.3    9.9  ------  0.00   0.0   276     5.93    294     0.0  0.00   0.0   0.061   0.000   16.3    42    3.4   14.9    0.33   352    1    100.0   15 
21/11/20  15.15   12.3   12.4   12.3    43    0.1  32.2   NNE   8.05  56.3   NNE    8.1   11.2    6.9    9.1  ------  0.00   0.0   238     5.12    262     0.0  0.00   0.0   0.062   0.000   16.2    41    2.9   14.7    0.00   351    1    100.0   15 
21/11/20  15.30   12.2   12.4   12.2    45    0.6  32.2     N   8.05  54.7    NE    8.0   11.1    6.9    8.6  ------  0.00   0.0   187     4.02    213     0.0  0.00   0.0   0.064   0.000   16.0    42    3.1   14.6    0.00   351    1    100.0   15 
21/11/20  15.45   12.2   12.2   12.2    44    0.3  32.2   NNE   8.05  54.7   NNE    8.0   11.1    6.9    7.9  ------  0.00   0.0   130     2.80    153     0.0  0.00   0.0   0.064   0.000   15.9    41    2.6   14.4    0.00   351    1    100.0   15 
21/11/20  16.00   12.0   12.2   12.0    45    0.4  29.0   NNE   7.24  48.3    NE    8.0   10.9    6.9    7.4  ------  0.00   0.0    87     1.87    107     0.0  0.00   0.0   0.066   0.000   15.9    41    2.6   14.4    0.28   352    1    100.0   15 
21/11/20  16.15   11.9   12.0   11.8    45    0.3  25.7   NNE   6.44  43.5     N    8.2   10.8    7.1    7.2  ------  0.00   0.0    56     1.20     74     0.0  0.00   0.0   0.067   0.000   15.8    42    2.9   14.4    0.00   351    1    100.0   15 
21/11/20  16.30   11.7   11.9   11.6    46    0.4  25.7   NNE   6.44  40.2     N    7.9   10.7    6.9    6.4  ------  0.00   0.0    22     0.47     39     0.0  0.00   0.0   0.069   0.000   15.7    42    2.8   14.3    0.00   351    1    100.0   15 
21/11/20  16.45   11.4   11.7   11.4    46    0.2  20.9   NNE   5.23  43.5   NNE    8.3   10.5    7.3    6.1  ------  0.00   0.0     9     0.19     12     0.0  0.00   0.0   0.072   0.000   15.6    42    2.7   14.2    0.00   351    1    100.0   15 
21/11/20  17.00   11.4   11.5   11.3    44   -0.4  22.5   NNE   5.63  46.7     N    8.1   10.4    7.1    5.7  ------  0.00   0.0     1     0.02      5     0.0  0.00   0.0   0.072   0.000   15.6    42    2.7   14.2    0.15   350    1    100.0   15 
21/11/20  17.15   11.3   11.4   11.2    45   -0.2  20.9   NNE   5.23  45.1     N    8.1   10.3    7.1    5.7  ------  0.00   0.0     0     0.00      0     0.0  0.00   0.0   0.073   0.000   15.6    41    2.3   14.1    0.00   348    1    100.0   15 
21/11/20  17.30   11.2   11.3   11.2    45   -0.3  24.1   NNE   6.04  45.1   NNE    7.6   10.3    6.7    5.4  ------  0.00   0.0     0     0.00      0     0.0  0.00   0.0   0.074   0.000   15.6    41    2.3   14.1    0.00   350    1    100.0   15 
21/11/20  17.45   11.2   11.2   11.1    46   -0.0  27.4   NNE   6.84  49.9   NNE    7.2   10.2    6.3    5.1  ------  0.00   0.0     0     0.00      0     0.0  0.00   0.0   0.075   0.000   15.4    41    2.2   14.0    0.00   350    1    100.0   15 
21/11/20  18.00   10.9   11.2   10.9    46   -0.3  22.5   NNE   5.63  43.5     N    7.4   10.0    6.6    5.2  ------  0.00   0.0     0     0.00      0     0.0  0.00   0.0   0.078   0.000   15.4    41    2.2   14.0    0.15   351    1    100.0   15 
21/11/20  18.15   10.9   10.9   10.8    47    0.0  24.1   NNE   6.04  45.1   NNE    7.2   10.1    6.4    5.1  ------  0.00   0.0     0     0.00      0     0.0  0.00   0.0   0.078   0.000   15.4    41    2.2   13.9    0.00   351    1    100.0   15 
21/11/20  18.30   10.7   10.9   10.7    48    0.1  25.7   NNE   6.44  45.1   NNE    6.8    9.9    6.0    4.8  ------  0.00   0.0     0     0.00      0     0.0  0.00   0.0   0.080   0.000   15.4    41    2.2   13.9    0.00   351    1    100.0   15 
21/11/20  18.45   10.6   10.7   10.6    48   -0.0  29.0   NNE   7.24  51.5     N    6.4    9.8    5.6    4.4  ------  0.00   0.0     0     0.00      0     0.0  0.00   0.0   0.081   0.000   15.4    41    2.2   13.9    0.00   350    1    100.0   15 
21/11/20  19.00   10.5   10.6   10.4    49    0.2  30.6   NNE   7.64  53.1   NNE    6.2    9.8    5.4    4.3  ------  0.00   0.0     0     0.00      0     0.0  0.00   0.0   0.082   0.000   15.3    42    2.4   13.9    0.15   350    1    100.0   15 
21/11/20  19.15   10.6   10.6   10.4    49    0.3  29.0   NNE   7.24  54.7     N    6.4    9.8    5.7    4.5  ------  0.00   0.0     0     0.00      0     0.0  0.00   0.0   0.081   0.000   15.3    42    2.4   13.9    0.00   350    1    100.0   15 
21/11/20  19.30   10.3   10.6   10.3    49    0.1  30.6     N   7.64  53.1   NNE    6.0    9.6    5.3    4.1  ------  0.00   0.0     0     0.00      0     0.0  0.00   0.0   0.083   0.000   15.2    42    2.4   13.8    0.00   350    1    100.0   15 
21/11/20  19.45   10.3   10.4   10.3    50    0.3  30.6     N   7.64  53.1     N    6.0    9.6    5.3    4.1  ------  0.00   0.0     0     0.00      0     0.0  0.00   0.0   0.083   0.000   15.2    42    2.4   13.8    0.00   351    1    100.0   15 
21/11/20  20.00   10.2   10.4   10.2    50    0.2  29.0     N   7.24  51.5     N    5.9    9.5    5.3    4.1  ------  0.00   0.0     0     0.00      0     0.0  0.00   0.0   0.085   0.000   15.1    42    2.3   13.7    0.15   347    1    100.0   15 
21/11/20  20.15   10.2   10.2   10.1    49   -0.0  25.7   NNE   6.44  46.7     N    6.3    9.5    5.6    4.3  ------  0.00   0.0     0     0.00      0     0.0  0.00   0.0   0.084   0.000   15.1    42    2.3   13.7    0.00   351    1    100.0   15 
21/11/20  20.30   10.2   10.2   10.2    48   -0.4  25.7   NNE   6.44  46.7   NNW    6.2    9.4    5.5    4.3  ------  0.00   0.0     0     0.00      0     0.0  0.00   0.0   0.085   0.000   15.1    42    2.3   13.7    0.00   351    1    100.0   15 
21/11/20  20.45   10.0   10.2    9.9    47   -0.8  20.9   NNE   5.23  38.6   NNE    6.6    9.3    5.9    4.5  ------  0.00   0.0     0     0.00      0     0.0  0.00   0.0   0.087   0.000   15.1    41    1.9   13.7    0.00   351    1    100.0   15 
21/11/20  21.00   10.0   10.1   10.0    49   -0.2  22.5     N   5.63  37.0    NE    6.4    9.3    5.7    4.4  ------  0.00   0.0     0     0.00      0     0.0  0.00   0.0   0.087   0.000   15.1    42    2.3   13.7    0.13   350    1    100.0   15 
21/11/20  21.15    9.8   10.1    9.8    49   -0.4  22.5     N   5.63  41.8   NNE    6.2    9.2    5.6    4.2  ------  0.00   0.0     0     0.00      0     0.0  0.00   0.0   0.089   0.000   15.1    41    1.9   13.6    0.00   349    1    100.0   15 
21/11/20  21.30    9.8    9.9    9.8    49   -0.4  19.3     N   4.83  40.2   NNW    6.7    9.2    6.0    4.6  ------  0.00   0.0     0     0.00      0     0.0  0.00   0.0   0.089   0.000   15.1    41    1.9   13.6    0.00   351    1    100.0   15 
21/11/20  21.45    9.9    9.9    9.7    48   -0.6  17.7     N   4.43  33.8     N    7.0    9.2    6.3    4.8  ------  0.00   0.0     0     0.00      0     0.0  0.00   0.0   0.088   0.000   15.1    42    2.2   13.7    0.00   349    1    100.0   15 
21/11/20  22.00    9.7    9.9    9.7    48   -0.8  19.3   NNE   4.83  33.8    NE    6.6    9.1    5.9    4.4  ------  0.00   0.0     0     0.00      0     0.0  0.00   0.0   0.090   0.000   15.1    41    1.9   13.6    0.10   351    1    100.0   15 
21/11/20  22.15    9.6    9.7    9.4    49   -0.6  16.1   NNE   4.02  24.1   NNE    6.8    8.9    6.2    4.6  ------  0.00   0.0     0     0.00      0     0.0  0.00   0.0   0.091   0.000   15.1    41    1.9   13.6    0.00   350    1    100.0   15 
21/11/20  22.30    9.5    9.8    9.3    48   -1.0  17.7   NNE   4.43  30.6    NE    6.5    8.8    5.8    4.3  ------  0.00   0.0     0     0.00      0     0.0  0.00   0.0   0.092   0.000   14.9    41    1.8   13.5    0.00   351    1    100.0   15 
21/11/20  22.45    9.6    9.7    9.4    45   -1.8  11.3   NNE   2.82  25.7   NNE    7.9    8.8    7.2    5.4  ------  0.00   0.0     0     0.00      0     0.0  0.00   0.0   0.091   0.000   14.9    41    1.8   13.5    0.00   350    1    100.0   15 
21/11/20  23.00    9.4    9.7    9.4    47   -1.4   9.7   ENE   2.41  22.5   ENE    8.0    8.7    7.3    5.5  ------  0.00   0.0     0     0.00      0     0.0  0.00   0.0   0.093   0.000   14.9    41    1.8   13.5    0.08   351    1    100.0   15 
21/11/20  23.15    9.3    9.4    9.3    47   -1.5   6.4    NE   1.61  16.1   ENE    8.6    8.6    7.8    6.1  ------  0.00   0.0     0     0.00      0     0.0  0.00   0.0   0.094   0.000   14.9    41    1.8   13.5    0.00   351    1    100.0   15 
21/11/20  23.30    9.1    9.3    9.1    48   -1.4   4.8    NE   1.21  11.3    NE    8.7    8.4    8.1    6.3  ------  0.00   0.0     0     0.00      0     0.0  0.00   0.0   0.097   0.000   14.9    41    1.8   13.5    0.00   350    1    100.0   15 
21/11/20  23.45    9.2    9.2    8.9    47   -1.6   8.0    NE   2.01  20.9    NE    8.1    8.4    7.3    5.6  ------  0.00   0.0     0     0.00      0     0.0  0.00   0.0   0.095   0.000   14.9    41    1.8   13.5    0.00   352    1    100.0   15 
22/11/20  00.00    8.7    9.2    8.7    50   -1.1   6.4    NE   1.61  16.1    NE    7.9    8.1    7.2    5.4  ------  0.00   0.0     0     0.00      0     0.0  0.00   0.0   0.100   0.000   14.9    41    1.8   13.5    0.05   350    1    100.0   15 
22/11/20   0.15    8.4    8.7    8.0    50   -1.4   8.0    NE   2.01  27.4     N    7.1    7.7    6.4    4.7  ------  0.00   0.0     0     0.00      0     0.0  0.00   0.0   0.104   0.000   14.9    42    2.1   13.6    0.00   348    1    100.0   15 
22/11/20   0.30    9.2    9.2    8.4    47   -1.6   8.0     N   2.01  24.1     N    8.1    8.4    7.3    5.6  ------  0.00   0.0     0     0.00      0     0.0  0.00   0.0   0.095   0.000   14.9    41    1.8   13.5    0.00   351    1    100.0   15 
22/11/20   0.45    8.3    9.2    8.3    51   -1.2   3.2     N   0.80   9.7     N    8.3    7.7    7.7    5.9  ------  0.00   0.0     0     0.00      0     0.0  0.00   0.0   0.104   0.000   14.9    41    1.8   13.5    0.00   350    1    100.0   15 
22/11/20   1.00    7.0    8.3    6.9    58   -0.7   3.2     N   0.80   6.4     N    7.0    6.5    6.5    4.7  ------  0.00   0.0     0     0.00      0     0.0  0.00   0.0   0.118   0.000   14.9    42    2.1   13.5    0.05   351    1    100.0   15 
22/11/20   1.15    6.3    7.0    6.2    62   -0.4   4.8     N   1.21   8.0     N    5.7    5.9    5.2    3.5  ------  0.00   0.0     0     0.00      0     0.0  0.00   0.0   0.125   0.000   14.9    42    2.1   13.5    0.00   352    1    100.0   15 
22/11/20   1.30    6.0    6.6    6.0    64   -0.3   3.2     N   0.80   6.4     N    6.0    5.6    5.6    3.9  ------  0.00   0.0     0     0.00      0     0.0  0.00   0.0   0.128   0.000   14.9    43    2.4   13.5    0.00   351    1    100.0   15 
22/11/20   1.45    6.6    6.6    6.0    62   -0.2   4.8     N   1.21  12.9     N    5.9    6.1    5.5    3.8  ------  0.00   0.0     0     0.00      0     0.0  0.00   0.0   0.123   0.000   14.9    43    2.4   13.5    0.00   349    1    100.0   15 
22/11/20   2.00    8.1    8.2    6.6    54   -0.7   9.7     N   2.41  20.9   NNE    6.4    7.5    5.8    4.1  ------  0.00   0.0     0     0.00      0     0.0  0.00   0.0   0.107   0.000   14.8    43    2.3   13.4    0.03   350    1    100.0   15 
22/11/20   2.15    7.4    8.1    7.4    57   -0.6   4.8   NNE   1.21  16.1   NNE    6.9    6.9    6.4    4.6  ------  0.00   0.0     0     0.00      0     0.0  0.00   0.0   0.114   0.000   14.8    43    2.3   13.4    0.00   351    1    100.0   15 
22/11/20   2.30    7.1    7.3    6.7    57   -0.8   4.8   NNE   1.21  16.1   NNE    6.6    6.6    6.1    4.3  ------  0.00   0.0     0     0.00      0     0.0  0.00   0.0   0.117   0.000   14.8    43    2.3   13.4    0.00   351    1    100.0   15 
22/11/20   2.45    8.1    8.2    7.2    52   -1.2   6.4   NNE   1.61  17.7   NNE    7.1    7.4    6.5    4.7  ------  0.00   0.0     0     0.00      0     0.0  0.00   0.0   0.107   0.000   14.8    43    2.3   13.4    0.00   351    1    100.0   15 
22/11/20   3.00    8.6    8.6    7.9    49   -1.6   9.7    NE   2.41  27.4    NE    7.0    7.9    6.3    4.6  ------  0.00   0.0     0     0.00      0     0.0  0.00   0.0   0.102   0.000   14.8    42    2.0   13.4    0.05   351    1    100.0   15 
22/11/20   3.15    8.7    8.7    8.5    49   -1.5   9.7    NE   2.41  19.3    NE    7.1    8.0    6.4    4.7  ------  0.00   0.0     0     0.00      0     0.0  0.00   0.0   0.101   0.000   14.7    42    1.9   13.3    0.00   350    1    100.0   15 
22/11/20   3.30    8.6    8.7    8.6    48   -1.8   8.0    NE   2.01  17.7    NE    7.3    7.9    6.7    4.9  ------  0.00   0.0     0     0.00      0     0.0  0.00   0.0   0.102   0.000   14.7    42    1.9   13.3    0.00   350    1    100.0   15 
22/11/20   3.45    8.6    8.8    8.6    48   -1.8   9.7    NE   2.41  20.9   NNE    7.1    7.9    6.4    4.6  ------  0.00   0.0     0     0.00      0     0.0  0.00   0.0   0.101   0.000   14.7    41    1.6   13.3    0.00   351    1    100.0   15 
22/11/20   4.00    8.4    8.6    8.2    49   -1.7   8.0   NNE   2.01  17.7   NNE    7.1    7.7    6.4    4.7  ------  0.00   0.0     0     0.00      0     0.0  0.00   0.0   0.104   0.000   14.7    42    1.9   13.3    0.08   350    1    100.0   15 
22/11/20   4.15    8.4    8.4    8.3    50   -1.4   9.7   NNE   2.41  22.5   NNE    6.8    7.8    6.2    4.4  ------  0.00   0.0     0     0.00      0     0.0  0.00   0.0   0.103   0.000   14.7    42    1.9   13.3    0.00   351    1    100.0   15 
22/11/20   4.30    8.7    8.8    8.4    50   -1.1  14.5   NNE   3.62  24.1   NNE    6.2    8.1    5.5    3.9  ------  0.00   0.0     0     0.00      0     0.0  0.00   0.0   0.100   0.000   14.7    41    1.6   13.3    0.00   350    1    100.0   15 
22/11/20   4.45    8.8    8.8    8.6    49   -1.4  11.3   NNE   2.82  20.9   NNE    7.0    8.1    6.3    4.6  ------  0.00   0.0     0     0.00      0     0.0  0.00   0.0   0.100   0.000   14.6    41    1.5   13.2    0.00   349    1    100.0   15 
22/11/20   5.00    8.7    8.8    8.6    49   -1.4   9.7    NE   2.41  24.1    NE    7.2    8.1    6.5    4.7  ------  0.00   0.0     0     0.00      0     0.0  0.00   0.0   0.100   0.000   14.6    42    1.8   13.2    0.08   351    1    100.0   15 
22/11/20   5.15    8.7    8.8    8.7    48   -1.7  11.3    NE   2.82  20.9   NNE    6.9    8.1    6.2    4.4  ------  0.00   0.0     0     0.00      0     0.0  0.00   0.0   0.100   0.000   14.6    41    1.5   13.2    0.00   351    1    100.0   15 
22/11/20   5.30    8.6    8.7    8.6    49   -1.6   6.4    NE   1.61  19.3    NE    7.7    7.9    7.1    5.3  ------  0.00   0.0     0     0.00      0     0.0  0.00   0.0   0.102   0.000   14.6    42    1.8   13.2    0.00   351    1    100.0   15 
22/11/20   5.45    8.6    8.6    8.4    49   -1.6   6.4    NE   1.61  22.5    NE    7.7    7.9    7.1    5.3  ------  0.00   0.0     0     0.00      0     0.0  0.00   0.0   0.102   0.000   14.6    42    1.8   13.2    0.00   351    1    100.0   15 
22/11/20   6.00    8.0    8.5    8.0    52   -1.3   3.2    NE   0.80   8.0    NE    8.0    7.4    7.4    5.6  ------  0.00   0.0     0     0.00      0     0.0  0.00   0.0   0.108   0.000   14.6    42    1.8   13.2    0.05   351    1    100.0   15 
22/11/20   6.15    7.3    8.0    7.3    55   -1.1   0.0    NE   0.00   4.8    NE    7.3    6.8    6.8    5.0  ------  0.00   0.0     0     0.00      0     0.0  0.00   0.0   0.115   0.000   14.6    43    2.2   13.3    0.00   351    1    100.0   15 
22/11/20   6.30    6.6    7.4    6.6    58   -1.1   1.6    NE   0.40   4.8    NE    6.6    6.1    6.1    4.3  ------  0.00   0.0     0     0.00      0     0.0  0.00   0.0   0.122   0.000   14.6    43    2.1   13.2    0.00   351    1    100.0   15 
22/11/20   6.45    6.6    6.7    6.0    59   -0.9   3.2    NE   0.80   8.0    NE    6.6    6.1    6.1    4.3  ------  0.00   0.0     0     0.00      0     0.0  0.00   0.0   0.123   0.000   14.6    44    2.4   13.2    0.00   351    1    100.0   15 
22/11/20   7.00    6.0    6.8    6.0    61   -1.0   3.2    NE   0.80   6.4    NE    6.0    5.6    5.6    3.8  ------  0.00   0.0     0     0.00      0     0.0  0.00   0.0   0.128   0.000   14.6    44    2.4   13.2    0.03   351    1    100.0   15 
22/11/20   7.15    5.2    6.0    5.2    64   -1.0   4.8    NE   1.21   8.0    NE    4.4    4.8    4.0    2.2  ------  0.00   0.0     0     0.00      0     0.0  0.00   0.0   0.137   0.000   14.6    44    2.4   13.2    0.00   350    1    100.0   15 
22/11/20   7.30    4.9    5.2    4.3    67   -0.7   4.8    NE   1.21   6.4    NE    4.1    4.6    3.7    2.1  ------  0.00   0.0     7     0.15     11     0.0  0.00   0.0   0.139   0.000   14.4    44    2.3   13.1    0.00   350    1    100.0   15 
22/11/20   7.45    5.3    5.4    4.9    65   -0.8   3.2    NE   0.80   6.4    NE    5.3    4.9    4.9    3.3  ------  0.00   0.0    17     0.37     26     0.0  0.00   0.0   0.136   0.000   14.4    44    2.3   13.1    0.00   350    1    100.0   15 
22/11/20   8.00    5.1    5.3    4.8    68   -0.4   4.8    NE   1.21   9.7    NE    4.2    4.7    3.9    2.7  ------  0.00   0.0    41     0.88     56     0.0  0.00   0.0   0.138   0.000   14.3    44    2.2   13.1    0.03   350    1    100.0   15 
22/11/20   8.15    6.6    6.6    5.1    62   -0.2   6.4    NE   1.61  14.5    NE    5.4    6.1    4.9    4.2  ------  0.00   0.0    76     1.63     93     0.0  0.00   0.0   0.123   0.000   14.3    44    2.2   13.1    0.00   351    1    100.0   15 
22/11/20   8.30    7.8    7.8    6.6    59    0.3   6.4    NE   1.61  16.1    NE    6.8    7.3    6.3    6.2  ------  0.00   0.0   117     2.52    139     0.0  0.00   0.0   0.110   0.000   14.3    44    2.2   13.1    0.00   351    1    100.0   15 
22/11/20   8.45    8.9    8.9    7.8    51   -0.7   9.7    NE   2.41  27.4    NE    7.4    8.3    6.8    8.6  ------  0.00   0.0   163     3.50    185     0.0  0.00   0.0   0.098   0.000   14.3    44    2.2   13.1    0.00   352    1    100.0   15 
22/11/20   9.00    9.2    9.2    8.9    50   -0.7  16.1   NNE   4.02  27.4   NNE    6.5    8.6    5.8    8.2  ------  0.00   0.0   210     4.52    234     0.0  0.00   0.0   0.095   0.000   14.3    43    1.9   13.0    0.10   350    1    100.0   15 
22/11/20   9.15    9.4    9.4    9.2    50   -0.5  11.3   NNE   2.82  24.1   NNE    7.8    8.8    7.1   10.6  ------  0.00   0.0   257     5.53    278     0.0  0.00   0.0   0.093   0.000   14.3    43    1.9   13.0    0.00   350    1    100.0   15 
22/11/20   9.30    9.6    9.6    9.4    49   -0.6  11.3   NNE   2.82  25.7   NNE    7.9    8.9    7.2   11.2  ------  0.00   0.0   294     6.32    309     0.0  0.00   0.0   0.091   0.000   14.3    43    1.9   13.0    0.00   351    1    100.0   15 
22/11/20   9.45    9.8    9.8    9.6    47   -1.0  14.5   NNE   3.62  27.4   NNE    7.4    9.1    6.7   10.6  ------  0.00   0.0   323     6.95    336     0.0  0.00   0.0   0.089   0.000   14.3    42    1.6   12.9    0.00   352    1    100.0   15 
22/11/20  10.00    9.9   10.0    9.8    49   -0.3  12.9   NNE   3.22  25.7   NNE    8.0    9.3    7.3   11.6  ------  0.00   0.0   348     7.48    359     0.0  0.00   0.0   0.087   0.000   14.4    42    1.7   13.1    0.20   351    1    100.0   15 
22/11/20  10.15   10.3   10.3    9.9    51    0.6  12.9   NNE   3.22  22.5   NNE    8.4    9.6    7.7   12.1  ------  0.00   0.0   369     7.93    381     0.0  0.00   0.0   0.084   0.000   14.4    43    2.0   13.1    0.00   350    1    100.0   15 
22/11/20  10.30   10.4   10.4   10.3    49    0.2  11.3   NNE   2.82  20.9   NNE    9.0    9.7    8.3   12.8  ------  0.00   0.0   392     8.43    401     0.0  0.00   0.0   0.082   0.000   14.6    43    2.1   13.2    0.00   351    1    100.0   15 
22/11/20  10.45   10.6   10.6   10.4    48   -0.0  14.5   NNE   3.62  27.4     N    8.4    9.8    7.6   11.8  ------  0.00   0.0   410     8.82    418     0.0  0.00   0.0   0.081   0.000   14.6    43    2.2   13.3    0.00   351    1    100.0   15 
22/11/20  11.00   10.8   10.8   10.6    47   -0.1  14.5     N   3.62  27.4     N    8.6    9.9    7.8   12.0  ------  0.00   0.0   425     9.14    432     0.0  0.00   0.0   0.079   0.000   14.7    43    2.3   13.4    0.25   348    1    100.0   15 
22/11/20  11.15   10.9   10.9   10.8    47    0.0  14.5     N   3.62  27.4     N    8.8   10.1    7.9   12.3  ------  0.00   0.0   436     9.38    441     0.0  0.00   0.0   0.078   0.000   14.8    43    2.3   13.4    0.00   351    1    100.0   15 
22/11/20  11.30   11.1   11.2   10.8    47    0.2  11.3   NNE   2.82  29.0   NNW    9.7   10.2    8.8   13.7  ------  0.00   0.0   446     9.59    452     0.0  0.00   0.0   0.076   0.000   14.9    42    2.1   13.6    0.00   351    1    100.0   15 
22/11/20  11.45   11.3   11.3   11.1    49    0.9  12.9   NNE   3.22  25.7   NNE    9.6   10.4    8.7   13.4  ------  0.00   0.0   453     9.74    455     0.0  0.00   0.0   0.073   0.000   15.1    42    2.2   13.7    0.00   351    1    100.0   15 
22/11/20  12.00   11.5   11.5   11.2    48    0.9  14.5   NNE   3.62  25.7   NNE    9.4   10.6    8.6   13.2  ------  0.00   0.0   456     9.81    459     0.0  0.00   0.0   0.071   0.000   15.2    43    2.7   13.8    0.28   352    1    100.0   15 
22/11/20  12.15   11.7   11.7   11.5    49    1.3  12.9     N   3.22  27.4     N   10.1   10.8    9.2   13.9  ------  0.00   0.0   458     9.85    459     0.0  0.00   0.0   0.069   0.000   15.4    43    2.9   14.0    0.00   351    1    100.0   15 
22/11/20  12.30   11.7   11.8   11.7    48    1.0  11.3     N   2.82  25.7     N   10.4   10.7    9.5   14.5  ------  0.00   0.0   453     9.74    457     0.0  0.00   0.0   0.069   0.000   15.4    43    2.9   14.1    0.00   350    1    100.0   15 
22/11/20  12.45   11.9   11.9   11.7    49    1.6  12.9     N   3.22  22.5     N   10.4   11.0    9.4   14.2  ------  0.00   0.0   448     9.63    450     0.0  0.00   0.0   0.067   0.000   15.6    43    3.1   14.2    0.00   350    1    100.0   15 
22/11/20  13.00   12.1   12.2   11.9    49    1.7   8.0     N   2.01  20.9     N   11.4   11.1   10.4   15.5  ------  0.00   0.0   441     9.48    443     0.0  0.00   0.0   0.065   0.000   15.8    43    3.2   14.4    0.28   350    1    100.0   15 
22/11/20  13.15   12.2   12.2   12.0    50    2.0   8.0     N   2.01  17.7     N   11.6   11.2   10.6   15.6  ------  0.00   0.0   431     9.27    434     0.0  0.00   0.0   0.064   0.000   16.0    43    3.4   14.6    0.00   351    1    100.0   15 
22/11/20  13.30   12.2   12.3   12.1    49    1.8   8.0     N   2.01  17.7     N   11.6   11.2   10.6   15.6  ------  0.00   0.0   417     8.97    424     0.0  0.00   0.0   0.064   0.000   16.2    43    3.6   14.8    0.00   351    1    100.0   15 
22/11/20  13.45   12.7   12.7   12.2    50    2.5   3.2     N   0.80  14.5     N   12.7   11.7   11.7   16.6  ------  0.00   0.0   403     8.67    413     0.0  0.00   0.0   0.059   0.000   16.2    43    3.6   14.8    0.00   350    1    100.0   15 
22/11/20  14.00   12.9   12.9   12.6    50    2.7   1.6     N   0.40  14.5     N   12.9   11.9   11.9   16.6  ------  0.00   0.0   371     7.98    404     0.0  0.00   0.0   0.057   0.000   16.3    44    4.0   15.0    0.23   351    1    100.0   15 
22/11/20  14.15   13.1   13.2   12.7    47    2.0   3.2   NNE   0.80  16.1   NNE   13.1   12.0   12.0   16.6  ------  0.00   0.0   355     7.63    369     0.0  0.00   0.0   0.054   0.000   16.3    44    4.0   15.0    0.00   352    1    100.0   15 
22/11/20  14.30   13.1   13.2   13.0    47    2.0   6.4   NNE   1.61  17.7   NNE   12.9   11.9   11.8   16.1  ------  0.00   0.0   324     6.97    334     0.0  0.00   0.0   0.055   0.000   16.2    44    3.9   14.8    0.00   351    1    100.0   15 
22/11/20  14.45   13.2   13.2   13.1    46    1.8   3.2   NNE   0.80  16.1   NNE   13.2   12.1   12.1   16.2  ------  0.00   0.0   300     6.45    315     0.0  0.00   0.0   0.053   0.000   16.0    45    4.1   14.7    0.00   351    1    100.0   15 
22/11/20  15.00   13.1   13.3   13.1    49    2.6   0.0   NNE   0.00   3.2   NNE   13.1   12.1   12.1   15.9  ------  0.00   0.0   271     5.83    285     0.0  0.00   0.0   0.054   0.000   15.8    45    3.9   14.5    0.18   350    1    100.0   15 
22/11/20  15.15   13.0   13.1   12.9    51    3.1   0.0   ---   0.00   0.0   ---   13.0   12.0   12.0   15.4  ------  0.00   0.0   233     5.01    255     0.0  0.00   0.0   0.056   0.000   15.7    46    4.1   14.5    0.00   351    1    100.0   15 
22/11/20  15.30   13.2   13.3   12.9    49    2.7   0.0   NNE   0.00   1.6   NNE   13.2   12.2   12.2   14.8  ------  0.00   0.0   185     3.98    206     0.0  0.00   0.0   0.053   0.000   15.6    46    4.0   14.4    0.00   350    1    100.0   15 
22/11/20  15.45   13.0   13.2   13.0    50    2.8   0.0   ---   0.00   0.0   ---   13.0   12.0   12.0   13.8  ------  0.00   0.0   138     2.97    158     0.0  0.00   0.0   0.056   0.000   15.6    47    4.3   14.3    0.00   350    1    100.0   15 
22/11/20  16.00   13.1   13.1   12.9    52    3.5   0.0   ---   0.00   0.0   ---   13.1   12.2   12.2   13.2  ------  0.00   0.0    94     2.02    114     0.0  0.00   0.0   0.054   0.000   15.4    47    4.2   14.2    0.08   351    1    100.0   15 
22/11/20  16.15   12.0   13.3   12.0    58    4.0   0.0   ---   0.00   0.0   ---   12.0   11.3   11.3   11.4  ------  0.00   0.0    57     1.23     74     0.0  0.00   0.0   0.066   0.000   15.4    47    4.1   14.2    0.00   351    1    100.0   15 
22/11/20  16.30   10.4   12.0   10.4    62    3.4   0.0   ---   0.00   0.0   ---   10.4    9.9    9.9    9.3  ------  0.00   0.0    23     0.49     40     0.0  0.00   0.0   0.083   0.000   15.3    48    4.3   14.1    0.00   351    1    100.0   15 
22/11/20  16.45    9.6   10.4    9.6    66    3.6   0.0   ---   0.00   0.0   ---    9.6    9.3    9.3    7.8  ------  0.00   0.0    11     0.24     14     0.0  0.00   0.0   0.091   0.000   15.3    48    4.3   14.1    0.00   351    1    100.0   15 
22/11/20  17.00    8.7    9.6    8.7    69    3.3   0.0   ---   0.00   0.0   ---    8.7    8.4    8.4    6.8  ------  0.00   0.0     2     0.04      7     0.0  0.00   0.0   0.101   0.000   15.2    49    4.6   14.1    0.03   349    1    100.0   15 
22/11/20  17.15    8.1    8.6    8.1    71    3.1   0.0   ---   0.00   0.0   ---    8.1    7.8    7.8    6.1  ------  0.00   0.0     0     0.00      0     0.0  0.00   0.0   0.107   0.000   15.1    49    4.5   13.9    0.00   351    1    100.0   15 
22/11/20  17.30    7.8    8.1    7.8    72    3.1   0.0   ---   0.00   0.0   ---    7.8    7.6    7.6    5.9  ------  0.00   0.0     0     0.00      0     0.0  0.00   0.0   0.109   0.000   15.1    49    4.4   13.9    0.00   351    1    100.0   15 
22/11/20  17.45    7.6    7.8    7.6    72    2.8   0.0   ---   0.00   0.0   ---    7.6    7.3    7.3    5.6  ------  0.00   0.0     0     0.00      0     0.0  0.00   0.0   0.112   0.000   15.1    50    4.7   13.9    0.00   351    1    100.0   15 
22/11/20  18.00    6.9    7.6    6.9    73    2.4   0.0   ---   0.00   0.0   ---    6.9    6.7    6.7    5.0  ------  0.00   0.0     0     0.00      0     0.0  0.00   0.0   0.119   0.000   14.9    50    4.6   13.8    0.00   351    1    100.0   15 
22/11/20  18.15    6.7    6.9    6.7    74    2.4   0.0   ---   0.00   0.0   ---    6.7    6.4    6.4    4.8  ------  0.00   0.0     0     0.00      0     0.0  0.00   0.0   0.122   0.000   14.9    50    4.5   13.8    0.00   351    1    100.0   15 
22/11/20  18.30    6.1    6.7    6.1    75    2.0   0.0   ---   0.00   0.0   ---    6.1    5.9    5.9    4.2  ------  0.00   0.0     0     0.00      0     0.0  0.00   0.0   0.127   0.000   14.9    50    4.5   13.8    0.00   352    1    100.0   15 
22/11/20  18.45    6.0    6.1    6.0    76    2.1   0.0   ---   0.00   0.0   ---    6.0    5.8    5.8    4.1  ------  0.00   0.0     0     0.00      0     0.0  0.00   0.0   0.128   0.000   14.8    50    4.4   13.7    0.00   351    1    100.0   15 
22/11/20  19.00    5.8    5.9    5.8    77    2.1   0.0   ---   0.00   0.0   ---    5.8    5.6    5.6    3.9  ------  0.00   0.0     0     0.00      0     0.0  0.00   0.0   0.131   0.000   14.8    50    4.4   13.7    0.03   351    1    100.0   15 
22/11/20  19.15    5.3    5.8    5.3    78    1.8   0.0   ---   0.00   0.0   ---    5.3    5.2    5.2    3.5  ------  0.00   0.0     0     0.00      0     0.0  0.00   0.0   0.135   0.000   14.7    50    4.4   13.6    0.00   350    1    100.0   15 
22/11/20  19.30    5.2    5.3    5.1    79    1.9   0.0   ---   0.00   0.0   ---    5.2    5.1    5.1    3.4  ------  0.00   0.0     0     0.00      0     0.0  0.00   0.0   0.137   0.000   14.6    50    4.3   13.5    0.00   351    1    100.0   15 
22/11/20  19.45    5.5    5.6    5.2    78    2.0   0.0   ---   0.00   0.0   ---    5.5    5.3    5.3    3.7  ------  0.00   0.0     0     0.00      0     0.0  0.00   0.0   0.134   0.000   14.6    50    4.3   13.5    0.00   351    1    100.0   15 
22/11/20  20.00    4.9    5.5    4.9    79    1.6   0.0   ---   0.00   0.0   ---    4.9    4.8    4.8    3.1  ------  0.00   0.0     0     0.00      0     0.0  0.00   0.0   0.139   0.000   14.6    50    4.2   13.4    0.00   350    1    100.0   15 
22/11/20  20.15    4.8    5.0    4.8    80    1.7   0.0   ---   0.00   0.0   ---    4.8    4.7    4.7    3.0  ------  0.00   0.0     0     0.00      0     0.0  0.00   0.0   0.141   0.000   14.6    50    4.2   13.4    0.00   351    1    100.0   15 
22/11/20  20.30    5.1    5.1    4.7    80    1.9   0.0   ---   0.00   0.0   ---    5.1    4.9    4.9    3.3  ------  0.00   0.0     0     0.00      0     0.0  0.00   0.0   0.138   0.000   14.4    50    4.1   13.3    0.00   351    1    100.0   15 
22/11/20  20.45    5.5    5.6    5.1    79    2.1   0.0   ---   0.00   0.0   ---    5.5    5.3    5.3    3.7  ------  0.00   0.0     0     0.00      0     0.0  0.00   0.0   0.134   0.000   14.4    50    4.1   13.3    0.00   350    1    100.0   15 
22/11/20  21.00    5.6    6.3    5.4    77    1.9   0.0   ---   0.00   0.0   ---    5.6    5.4    5.4    3.7  ------  0.00   0.0     0     0.00      0     0.0  0.00   0.0   0.133   0.000   14.4    50    4.1   13.3    0.00   350    1    100.0   15 
22/11/20  21.15    5.0    5.6    4.9    79    1.7   0.0   ---   0.00   0.0   ---    5.0    4.8    4.8    3.1  ------  0.00   0.0     0     0.00      0     0.0  0.00   0.0   0.139   0.000   14.3    50    4.0   13.2    0.00   349    1    100.0   15 
22/11/20  21.30    5.3    5.3    5.0    80    2.1   0.0   ---   0.00   0.0   ---    5.3    5.1    5.1    3.4  ------  0.00   0.0     0     0.00      0     0.0  0.00   0.0   0.136   0.000   14.3    50    4.0   13.2    0.00   350    1    100.0   15 
22/11/20  21.45    5.1    5.4    5.0    80    1.9   0.0   ---   0.00   0.0   ---    5.1    4.9    4.9    3.2  ------  0.00   0.0     0     0.00      0     0.0  0.00   0.0   0.138   0.000   14.3    50    4.0   13.2    0.00   351    1    100.0   15 
22/11/20  22.00    4.7    5.3    4.7    81    1.7   0.0   ---   0.00   0.0   ---    4.7    4.5    4.5    2.8  ------  0.00   0.0     0     0.00      0     0.0  0.00   0.0   0.142   0.000   14.3    50    4.0   13.2    0.00   348    1    100.0   15 
22/11/20  22.15    4.5    4.7    4.4    83    1.9   0.0   ---   0.00   0.0   ---    4.5    4.4    4.4    2.7  ------  0.00   0.0     0     0.00      0     0.0  0.00   0.0   0.144   0.000   14.3    50    4.0   13.2    0.00   350    1    100.0   15 
22/11/20  22.30    4.3    4.5    4.3    83    1.6   0.0   ---   0.00   0.0   ---    4.3    4.2    4.2    2.4  ------  0.00   0.0     0     0.00      0     0.0  0.00   0.0   0.146   0.000   14.3    51    4.3   13.2    0.00   351    1    100.0   15 
22/11/20  22.45    4.5    4.6    4.2    84    2.0   0.0   ---   0.00   0.0   ---    4.5    4.4    4.4    2.7  ------  0.00   0.0     0     0.00      0     0.0  0.00   0.0   0.144   0.000   14.2    51    4.2   13.1    0.00   351    1    100.0   15 
22/11/20  23.00    4.6    4.6    4.3    85    2.3   0.0   ---   0.00   0.0   ---    4.6    4.4    4.4    2.8  ------  0.00   0.0     0     0.00      0     0.0  0.00   0.0   0.144   0.000   14.2    51    4.2   13.1    0.00   351    1    100.0   15 
22/11/20  23.15    4.7    4.7    4.5    85    2.4   0.0   ---   0.00   0.0   ---    4.7    4.6    4.6    2.9  ------  0.00   0.0     0     0.00      0     0.0  0.00   0.0   0.142   0.000   14.2    51    4.2   13.1    0.00   351    1    100.0   15 
22/11/20  23.30    4.6    4.8    4.6    85    2.3   0.0   ---   0.00   0.0   ---    4.6    4.5    4.5    2.8  ------  0.00   0.0     0     0.00      0     0.0  0.00   0.0   0.143   0.000   14.1    51    4.1   13.1    0.00   351    1    100.0   15 
22/11/20  23.45    4.7    4.7    4.6    85    2.4   0.0   ---   0.00   0.0   ---    4.7    4.6    4.6    2.9  ------  0.00   0.0     0     0.00      0     0.0  0.00   0.0   0.142   0.000   14.1    51    4.1   13.1    0.00   351    1    100.0   15 
23/11/20  00.00    5.2    5.3    4.7    85    2.9   0.0   ---   0.00   0.0   ---    5.2    5.1    5.1    3.4  ------  0.00   0.0     0     0.00      0     0.0  0.00   0.0   0.137   0.000   14.1    51    4.1   13.1    0.00   352    1    100.0   15 
23/11/20   0.15    4.8    5.2    4.8    85    2.5   0.0   ---   0.00   0.0   ---    4.8    4.7    4.7    3.0  ------  0.00   0.0     0     0.00      0     0.0  0.00   0.0   0.141   0.000   14.0    51    4.0   12.9    0.00   346    1    100.0   15 
23/11/20   0.30    4.1    4.8    4.1    85    1.8   0.0   ---   0.00   0.0   ---    4.1    3.9    3.9    2.3  ------  0.00   0.0     0     0.00      0     0.0  0.00   0.0   0.149   0.000   14.0    51    4.0   12.9    0.00   352    1    100.0   15 
23/11/20   0.45    4.2    4.2    4.0    86    2.0   0.0   ---   0.00   0.0   ---    4.2    4.1    4.1    2.4  ------  0.00   0.0     0     0.00      0     0.0  0.00   0.0   0.148   0.000   14.0    51    4.0   12.9    0.00   349    1    100.0   15 
23/11/20   1.00    4.3    4.3    4.1    87    2.4   0.0   ---   0.00   0.0   ---    4.3    4.2    4.2    2.6  ------  0.00   0.0     0     0.00      0     0.0  0.00   0.0   0.146   0.000   13.9    51    4.0   12.9    0.00   351    1    100.0   15 
23/11/20   1.15    4.2    4.4    4.2    87    2.2   0.0   ---   0.00   0.0   ---    4.2    4.1    4.1    2.4  ------  0.00   0.0     0     0.00      0     0.0  0.00   0.0   0.147   0.000   13.9    51    4.0   12.9    0.00   350    1    100.0   15 
23/11/20   1.30    4.2    4.4    4.2    87    2.2   0.0   ---   0.00   0.0   ---    4.2    4.1    4.1    2.4  ------  0.00   0.0     0     0.00      0     0.0  0.00   0.0   0.147   0.000   13.9    51    4.0   12.9    0.00   352    1    100.0   15 
23/11/20   1.45    4.4    4.4    4.2    87    2.5   0.0   ---   0.00   0.0   ---    4.4    4.3    4.3    2.7  ------  0.00   0.0     0     0.00      0     0.0  0.00   0.0   0.145   0.000   13.8    51    3.9   12.8    0.00   351    1    100.0   15 
23/11/20   2.00    4.2    4.6    4.2    87    2.2   0.0   ---   0.00   0.0   ---    4.2    4.1    4.1    2.4  ------  0.00   0.0     0     0.00      0     0.0  0.00   0.0   0.147   0.000   13.8    52    4.1   12.8    0.00   351    1    100.0   15 
23/11/20   2.15    4.2    4.3    4.2    87    2.2   0.0   ---   0.00   0.0   ---    4.2    4.1    4.1    2.4  ------  0.00   0.0     0     0.00      0     0.0  0.00   0.0   0.148   0.000   13.8    52    4.1   12.8    0.00   350    1    100.0   15 
23/11/20   2.30    5.2    5.3    4.2    87    3.2   0.0   ---   0.00   0.0   ---    5.2    5.2    5.2    3.5  ------  0.00   0.0     0     0.00      0     0.0  0.00   0.0   0.137   0.000   13.8    52    4.1   12.8    0.00   350    1    100.0   15 
23/11/20   2.45    4.2    5.2    4.2    86    2.1   0.0   ---   0.00   0.0   ---    4.2    4.1    4.1    2.4  ------  0.00   0.0     0     0.00      0     0.0  0.00   0.0   0.147   0.000   13.8    52    4.1   12.8    0.00   351    1    100.0   15 
23/11/20   3.00    4.8    4.8    3.9    88    3.0   0.0   ---   0.00   0.0   ---    4.8    4.7    4.7    3.1  ------  0.00   0.0     0     0.00      0     0.0  0.00   0.0   0.141   0.000   13.8    52    4.1   12.8    0.00   351    1    100.0   15 
23/11/20   3.15    4.3    4.8    4.3    87    2.4   0.0   ---   0.00   0.0   ---    4.3    4.2    4.2    2.6  ------  0.00   0.0     0     0.00      0     0.0  0.00   0.0   0.146   0.000   13.8    52    4.1   12.8    0.00   351    1    100.0   15 
23/11/20   3.30    3.9    4.7    3.9    86    1.8   0.0   ---   0.00   0.0   ---    3.9    3.8    3.8    2.1  ------  0.00   0.0     0     0.00      0     0.0  0.00   0.0   0.150   0.000   13.8    52    4.1   12.8    0.00   351    1    100.0   15 
23/11/20   3.45    4.0    4.0    3.8    87    2.0   0.0   ---   0.00   0.0   ---    4.0    3.9    3.9    2.2  ------  0.00   0.0     0     0.00      0     0.0  0.00   0.0   0.149   0.000   13.7    52    4.0   12.7    0.00   350    1    100.0   15 
23/11/20   4.00    4.1    4.4    3.9    87    2.1   0.0   ---   0.00   0.0   ---    4.1    3.9    3.9    2.3  ------  0.00   0.0     0     0.00      0     0.0  0.00   0.0   0.149   0.000   13.7    52    4.0   12.7    0.00   350    1    100.0   15 
23/11/20   4.15    3.6    4.1    3.6    87    1.6   0.0   ---   0.00   0.0   ---    3.6    3.5    3.5    1.8  ------  0.00   0.0     0     0.00      0     0.0  0.00   0.0   0.153   0.000   13.7    52    4.0   12.7    0.00   350    1    100.0   15 
23/11/20   4.30    3.6    3.8    3.5    88    1.8   0.0   ---   0.00   0.0   ---    3.6    3.5    3.5    1.8  ------  0.00   0.0     0     0.00      0     0.0  0.00   0.0   0.154   0.000   13.6    51    3.7   12.6    0.00   351    1    100.0   15 
23/11/20   4.45    3.4    3.8    3.4    88    1.6   0.0   ---   0.00   0.0   ---    3.4    3.4    3.4    1.7  ------  0.00   0.0     0     0.00      0     0.0  0.00   0.0   0.155   0.000   13.6    52    3.9   12.6    0.00   351    1    100.0   15 
23/11/20   5.00    4.0    4.0    3.4    89    2.4   0.0   ---   0.00   0.0   ---    4.0    3.9    3.9    2.3  ------  0.00   0.0     0     0.00      0     0.0  0.00   0.0   0.149   0.000   13.6    51    3.7   12.6    0.00   351    1    100.0   15 
23/11/20   5.15    4.2    4.2    4.0    88    2.4   0.0   ---   0.00   0.0   ---    4.2    4.1    4.1    2.4  ------  0.00   0.0     0     0.00      0     0.0  0.00   0.0   0.148   0.000   13.6    51    3.7   12.6    0.00   350    1    100.0   15 
23/11/20   5.30    3.9    4.2    3.9    89    2.3   0.0   ---   0.00   0.0   ---    3.9    3.9    3.9    2.2  ------  0.00   0.0     0     0.00      0     0.0  0.00   0.0   0.150   0.000   13.6    52    3.9   12.6    0.00   350    1    100.0   15 
23/11/20   5.45    4.0    4.3    3.7    89    2.4   0.0   ---   0.00   0.0   ---    4.0    3.9    3.9    2.3  ------  0.00   0.0     0     0.00      0     0.0  0.00   0.0   0.149   0.000   13.6    52    3.9   12.6    0.00   352    1    100.0   15 
23/11/20   6.00    3.9    4.4    3.9    89    2.3   0.0   ---   0.00   0.0   ---    3.9    3.9    3.9    2.2  ------  0.00   0.0     0     0.00      0     0.0  0.00   0.0   0.150   0.000   13.6    52    3.9   12.6    0.00   351    1    100.0   15 
23/11/20   6.15    3.8    3.9    3.4    89    2.2   0.0   ---   0.00   0.0   ---    3.8    3.8    3.8    2.1  ------  0.00   0.0     0     0.00      0     0.0  0.00   0.0   0.151   0.000   13.6    52    3.9   12.6    0.00   351    1    100.0   15 
23/11/20   6.30    3.1    4.2    3.1    89    1.4   0.0   ---   0.00   0.0   ---    3.1    3.0    3.0    1.3  ------  0.00   0.0     0     0.00      0     0.0  0.00   0.0   0.159   0.000   13.4    52    3.8   12.4    0.00   350    1    100.0   15 
23/11/20   6.45    4.2    4.2    3.1    90    2.7   0.0   ---   0.00   0.0   ---    4.2    4.1    4.1    2.4  ------  0.00   0.0     0     0.00      0     0.0  0.00   0.0   0.148   0.000   13.4    52    3.8   12.4    0.00   351    1    100.0   15 
23/11/20   7.00    4.2    4.6    4.2    90    2.7   0.0   ---   0.00   0.0   ---    4.2    4.1    4.1    2.4  ------  0.00   0.0     0     0.00      0     0.0  0.00   0.0   0.148   0.000   13.4    52    3.8   12.4    0.00   352    1    100.0   15 
23/11/20   7.15    4.2    4.2    3.8    89    2.5   0.0   ---   0.00   0.0   ---    4.2    4.1    4.1    2.4  ------  0.00   0.0     0     0.00      0     0.0  0.00   0.0   0.148   0.000   13.4    52    3.7   12.4    0.00   351    1    100.0   15 
23/11/20   7.30    4.3    4.5    4.2    90    2.8   0.0   ---   0.00   0.0   ---    4.3    4.3    4.3    2.7  ------  0.00   0.0     6     0.13      9     0.0  0.00   0.0   0.146   0.000   13.4    52    3.7   12.4    0.00   351    1    100.0   15 
23/11/20   7.45    4.7    4.7    4.2    90    3.2   0.0   ---   0.00   0.0   ---    4.7    4.6    4.6    3.2  ------  0.00   0.0    16     0.34     25     0.0  0.00   0.0   0.142   0.000   13.4    53    4.0   12.4    0.00   351    1    100.0   15 
23/11/20   8.00    4.3    4.7    4.2    90    2.8   0.0   ---   0.00   0.0   ---    4.3    4.3    4.3    3.1  ------  0.00   0.0    36     0.77     49     0.0  0.00   0.0   0.146   0.000   13.4    53    4.0   12.4    0.00   351    1    100.0   15 
23/11/20   8.15    4.9    5.1    4.3    90    3.4   0.0   ---   0.00   0.0   ---    4.9    4.9    4.9    4.1  ------  0.00   0.0    66     1.42     81     0.0  0.00   0.0   0.139   0.000   13.4    53    4.0   12.4    0.00   351    1    100.0   15 
23/11/20   8.30    5.4    5.4    4.9    90    3.9   0.0   ---   0.00   0.0   ---    5.4    5.4    5.4    5.1  ------  0.00   0.0   101     2.17    118     0.0  0.00   0.0   0.135   0.000   13.4    53    4.0   12.4    0.00   348    1    100.0   15 
23/11/20   8.45    6.3    6.3    5.4    90    4.8   0.0   ---   0.00   0.0   ---    6.3    6.3    6.3    7.8  ------  0.00   0.0   139     2.99    156     0.0  0.00   0.0   0.125   0.000   13.4    54    4.3   12.4    0.00   351    1    100.0   15 
23/11/20   9.00    7.6    7.6    6.3    90    6.0   0.0   ---   0.00   0.0   ---    7.6    7.6    7.6    9.9  ------  0.00   0.0   180     3.87    202     0.0  0.00   0.0   0.112   0.000   13.4    55    4.5   12.5    0.05   351    1    100.0   15 
23/11/20   9.15    8.8    8.8    7.6    89    7.1   0.0   ---   0.00   0.0   ---    8.8    8.9    8.9   12.3  ------  0.00   0.0   230     4.95    255     0.0  0.00   0.0   0.099   0.000   13.4    55    4.6   12.6    0.00   351    1    100.0   15 
23/11/20   9.30   10.0   10.0    8.8    87    7.9   0.0   ---   0.00   0.0   ---   10.0   10.1   10.1   14.2  ------  0.00   0.0   274     5.89    290     0.0  0.00   0.0   0.087   0.000   13.6    56    4.9   12.7    0.00   350    1    100.0   15 
23/11/20   9.45   11.2   11.2   10.0    84    8.6   0.0   ---   0.00   0.0   ---   11.2   11.2   11.2   15.6  ------  0.00   0.0   303     6.52    316     0.0  0.00   0.0   0.074   0.000   13.6    56    4.9   12.7    0.00   351    1    100.0   15 
23/11/20  10.00   12.5   12.5   11.2    79    9.0   0.0   ---   0.00   0.0   ---   12.5   12.3   12.3   16.9  ------  0.00   0.0   328     7.05    345     0.0  0.00   0.0   0.061   0.000   13.6    56    5.0   12.8    0.13   351    1    100.0   15 
23/11/20  10.15   13.7   13.7   12.6    75    9.4   0.0   ---   0.00   0.0   ---   13.7   13.4   13.4   18.2  ------  0.00   0.0   354     7.61    362     0.0  0.00   0.0   0.048   0.000   13.7    56    5.0   12.8    0.00   351    1    100.0   15 
23/11/20  10.30   14.7   14.7   13.7    62    7.5   0.0   ---   0.00   0.0   ---   14.7   14.0   14.0   18.8  ------  0.00   0.0   370     7.96    380     0.0  0.00   0.0   0.038   0.000   13.8    56    5.1   12.9    0.00   350    1    100.0   15 
23/11/20  10.45   15.0   15.0   14.7    62    7.8   0.0    NE   0.00   8.0    NE   15.0   14.3   14.3   19.3  ------  0.00   0.0   387     8.32    401     0.0  0.00   0.0   0.035   0.000   13.9    56    5.3   13.1    0.00   350    1    100.0   15 
23/11/20  11.00   14.8   15.0   14.8    65    8.3   1.6    NE   0.40   8.0    NE   14.8   14.2   14.2   19.3  ------  0.00   0.0   407     8.75    411     0.0  0.00   0.0   0.037   0.000   14.0    56    5.4   13.2    0.20   350    1    100.0   15 
23/11/20  11.15   14.8   14.8   14.7    65    8.3   0.0    NE   0.00   6.4    NE   14.8   14.2   14.2   19.4  ------  0.00   0.0   417     8.97    424     0.0  0.00   0.0   0.037   0.000   14.2    56    5.5   13.3    0.00   345    1    100.0   15 
23/11/20  11.30   14.7   14.9   14.7    65    8.2   3.2    NE   0.80  11.3    NE   14.7   14.1   14.1   19.4  ------  0.00   0.0   429     9.22    432     0.0  0.00   0.0   0.038   0.000   14.3    56    5.6   13.4    0.00   351    1    100.0   15 
23/11/20  11.45   14.8   14.8   14.6    65    8.3   3.2    NE   0.80  11.3    NE   14.8   14.2   14.2   19.5  ------  0.00   0.0   435     9.35    438     0.0  0.00   0.0   0.037   0.000   14.3    56    5.7   13.5    0.00   350    1    100.0   15 
23/11/20  12.00   14.9   15.0   14.7    65    8.4   3.2    NE   0.80   9.7    NE   14.9   14.4   14.4   19.7  ------  0.00   0.0   438     9.42    439     0.0  0.00   0.0   0.035   0.000   14.6    57    6.1   13.7    0.23   351    1    100.0   15 
23/11/20  12.15   14.7   14.9   14.7    65    8.2   3.2    NE   0.80   9.7    NE   14.7   14.2   14.2   19.4  ------  0.00   0.0   438     9.42    439     0.0  0.00   0.0   0.038   0.000   14.7    57    6.3   13.9    0.00   351    1    100.0   15 
23/11/20  12.30   14.7   14.8   14.7    65    8.2   3.2    NE   0.80   8.0    NE   14.7   14.2   14.2   19.4  ------  0.00   0.0   435     9.35    436     0.0  0.00   0.0   0.038   0.000   14.9    57    6.4   14.1    0.00   349    1    100.0   15 
23/11/20  12.45   14.7   14.9   14.7    65    8.2   3.2    NE   0.80   8.0    NE   14.7   14.2   14.2   19.4  ------  0.00   0.0   429     9.22    432     0.0  0.00   0.0   0.038   0.000   15.1    57    6.6   14.2    0.00   349    1    100.0   15 
23/11/20  13.00   15.0   15.0   14.7    65    8.5   1.6    NE   0.40   8.0    NE   15.0   14.4   14.4   19.7  ------  0.00   0.0   422     9.07    427     0.0  0.00   0.0   0.035   0.000   15.2    56    6.5   14.4    0.23   351    1    100.0   15 
23/11/20  13.15   14.8   15.0   14.8    65    8.3   3.2    NE   0.80  11.3    NE   14.8   14.3   14.3   19.4  ------  0.00   0.0   413     8.88    417     0.0  0.00   0.0   0.036   0.000   15.4    56    6.7   14.6    0.00   350    1    100.0   15 
23/11/20  13.30   14.8   14.9   14.8    66    8.5   3.2    NE   0.80  11.3    NE   14.8   14.3   14.3   19.4  ------  0.00   0.0   400     8.60    406     0.0  0.00   0.0   0.036   0.000   15.4    56    6.7   14.6    0.00   350    1    100.0   15 
23/11/20  13.45   14.8   14.8   14.7    66    8.5   3.2    NE   0.80  14.5    NE   14.8   14.3   14.3   19.2  ------  0.00   0.0   381     8.19    390     0.0  0.00   0.0   0.037   0.000   15.6    57    7.1   14.7    0.00   351    1    100.0   15 
23/11/20  14.00   14.8   14.9   14.8    64    8.1   3.2    NE   0.80  11.3    NE   14.8   14.2   14.2   19.0  ------  0.00   0.0   361     7.76    373     0.0  0.00   0.0   0.036   0.000   15.6    56    6.9   14.8    0.23   350    1    100.0   15 
23/11/20  14.15   14.8   14.8   14.7    63    7.8   3.2    NE   0.80  11.3    NE   14.8   14.2   14.2   18.8  ------  0.00   0.0   339     7.29    346     0.0  0.00   0.0   0.037   0.000   15.6    57    7.1   14.8    0.00   351    1    100.0   15 
23/11/20  14.30   14.7   14.8   14.7    63    7.7   3.2    NE   0.80  11.3    NE   14.7   14.1   14.1   18.3  ------  0.00   0.0   306     6.58    371     0.0  0.00   0.0   0.038   0.000   15.4    57    7.0   14.6    0.00   350    1    100.0   15 
23/11/20  14.45   14.6   14.8   14.6    63    7.6   4.8    NE   1.21  14.5    NE   14.6   13.9   13.9   18.6  ------  0.00   0.0   347     7.46    374     0.0  0.00   0.0   0.039   0.000   15.3    57    6.8   14.4    0.00   351    1    100.0   15 
23/11/20  15.00   14.4   14.6   14.4    63    7.5   1.6    NE   0.40   8.0    NE   14.4   13.8   13.8   17.7  ------  0.00   0.0   259     5.57    290     0.0  0.00   0.0   0.041   0.000   15.2    57    6.8   14.4    0.18   351    1    100.0   15 
23/11/20  15.15   14.4   14.5   14.4    64    7.7   1.6    NE   0.40   8.0    NE   14.4   13.8   13.8   17.1  ------  0.00   0.0   216     4.64    237     0.0  0.00   0.0   0.041   0.000   15.1    57    6.6   14.2    0.00   350    1    100.0   15 
23/11/20  15.30   14.3   14.4   14.3    64    7.6   1.6    NE   0.40   9.7    NE   14.3   13.7   13.7   16.3  ------  0.00   0.0   171     3.68    188     0.0  0.00   0.0   0.042   0.000   14.9    58    6.7   14.2    0.00   352    1    100.0   15 
23/11/20  15.45   14.1   14.3   14.1    65    7.6   1.6    NE   0.40   9.7    NE   14.1   13.6   13.6   15.2  ------  0.00   0.0   120     2.58    149     0.0  0.00   0.0   0.044   0.000   14.9    57    6.4   14.1    0.00   351    1    100.0   15 
23/11/20  16.00   13.8   14.1   13.8    67    7.8   0.0    NE   0.00   3.2    NE   13.8   13.3   13.3   14.3  ------  0.00   0.0    89     1.91    100     0.0  0.00   0.0   0.047   0.000   14.9    58    6.7   14.1    0.08   351    1    100.0   15 
23/11/20  16.15   13.5   13.8   13.5    67    7.5   0.0    NE   0.00   3.2    NE   13.5   13.0   13.0   13.4  ------  0.00   0.0    60     1.29     77     0.0  0.00   0.0   0.050   0.000   14.8    58    6.6   14.0    0.00   350    1    100.0   15 
23/11/20  16.30   13.1   13.5   13.0    68    7.3   0.0    NE   0.00   3.2    NE   13.1   12.6   12.6   12.1  ------  0.00   0.0    26     0.56     44     0.0  0.00   0.0   0.055   0.000   14.7    58    6.5   13.9    0.00   351    1    100.0   15 
23/11/20  16.45   12.4   13.1   12.4    71    7.3   0.0   ---   0.00   0.0   ---   12.4   12.0   12.0   10.7  ------  0.00   0.0    11     0.24     16     0.0  0.00   0.0   0.062   0.000   14.6    58    6.4   13.8    0.00   351    1    100.0   15 
23/11/20  17.00   12.0   12.4   12.0    72    7.1   0.0   ---   0.00   0.0   ---   12.0   11.7   11.7   10.2  ------  0.00   0.0     2     0.04      7     0.0  0.00   0.0   0.066   0.000   14.6    58    6.4   13.8    0.03   351    1    100.0   15 
23/11/20  17.15   11.2   12.0   11.2    74    6.8   0.0   ---   0.00   0.0   ---   11.2   10.9   10.9    9.4  ------  0.00   0.0     0     0.00      0     0.0  0.00   0.0   0.074   0.000   14.6    59    6.6   13.8    0.00   350    1    100.0   15 
23/11/20  17.30   10.5   11.2   10.5    76    6.4   0.0   ---   0.00   0.0   ---   10.5   10.4   10.4    8.8  ------  0.00   0.0     0     0.00      0     0.0  0.00   0.0   0.082   0.000   14.6    59    6.6   13.8    0.00   351    1    100.0   15 
23/11/20  17.45   10.0   10.5   10.0    78    6.3   0.0   ---   0.00   0.0   ---   10.0    9.9    9.9    8.4  ------  0.00   0.0     0     0.00      0     0.0  0.00   0.0   0.087   0.000   14.4    59    6.5   13.7    0.00   352    1    100.0   15 
23/11/20  18.00    9.3   10.0    9.3    79    5.8   0.0   ---   0.00   0.0   ---    9.3    9.2    9.2    7.7  ------  0.00   0.0     0     0.00      0     0.0  0.00   0.0   0.094   0.000   14.4    59    6.5   13.7    0.00   350    1    100.0   15 
23/11/20  18.15    8.8    9.3    8.8    81    5.7   0.0   ---   0.00   0.0   ---    8.8    8.8    8.8    7.2  ------  0.00   0.0     0     0.00      0     0.0  0.00   0.0   0.099   0.000   14.3    60    6.7   13.6    0.00   350    1    100.0   15 
23/11/20  18.30    8.6    8.8    8.6    82    5.7   0.0   ---   0.00   0.0   ---    8.6    8.5    8.5    6.9  ------  0.00   0.0     0     0.00      0     0.0  0.00   0.0   0.102   0.000   14.3    60    6.7   13.6    0.00   350    1    100.0   15 
23/11/20  18.45    8.2    8.6    8.2    83    5.5   0.0   ---   0.00   0.0   ---    8.2    8.1    8.1    6.5  ------  0.00   0.0     0     0.00      0     0.0  0.00   0.0   0.106   0.000   14.3    60    6.6   13.6    0.00   352    1    100.0   15 
23/11/20  19.00    8.1    8.2    8.1    84    5.6   0.0   ---   0.00   0.0   ---    8.1    8.1    8.1    6.6  ------  0.00   0.0     0     0.00      0     0.0  0.00   0.0   0.106   0.000   14.3    60    6.6   13.6    0.00   351    1    100.0   15 
23/11/20  19.15    7.8    8.2    7.8    84    5.3   0.0   ---   0.00   0.0   ---    7.8    7.8    7.8    6.2  ------  0.00   0.0     0     0.00      0     0.0  0.00   0.0   0.109   0.000   14.2    60    6.5   13.4    0.00   351    1    100.0   15 
23/11/20  19.30    7.7    7.8    7.6    84    5.1   0.0   ---   0.00   0.0   ---    7.7    7.6    7.6    6.0  ------  0.00   0.0     0     0.00      0     0.0  0.00   0.0   0.111   0.000   14.2    60    6.5   13.4    0.00   351    1    100.0   15 
23/11/20  19.45    7.6    7.7    7.6    85    5.2   0.0   ---   0.00   0.0   ---    7.6    7.6    7.6    6.0  ------  0.00   0.0     0     0.00      0     0.0  0.00   0.0   0.112   0.000   14.2    60    6.5   13.4    0.00   351    1    100.0   15 
23/11/20  20.00    7.1    7.6    7.1    85    4.8   0.0   ---   0.00   0.0   ---    7.1    7.1    7.1    5.4  ------  0.00   0.0     0     0.00      0     0.0  0.00   0.0   0.117   0.000   14.1    60    6.5   13.4    0.00   351    1    100.0   15 
23/11/20  20.15    6.8    7.2    6.8    86    4.7   0.0   ---   0.00   0.0   ---    6.8    6.8    6.8    5.2  ------  0.00   0.0     0     0.00      0     0.0  0.00   0.0   0.120   0.000   14.1    60    6.5   13.4    0.00   351    1    100.0   15 
23/11/20  20.30    6.6    6.8    6.6    86    4.4   0.0   ---   0.00   0.0   ---    6.6    6.5    6.5    4.9  ------  0.00   0.0     0     0.00      0     0.0  0.00   0.0   0.123   0.000   14.0    60    6.4   13.3    0.00   351    1    100.0   15 
23/11/20  20.45    6.8    6.8    6.6    87    4.8   0.0   ---   0.00   0.0   ---    6.8    6.8    6.8    5.2  ------  0.00   0.0     0     0.00      0     0.0  0.00   0.0   0.120   0.000   14.0    59    6.1   13.2    0.00   350    1    100.0   15 
23/11/20  21.00    6.8    6.8    6.7    87    4.8   0.0   ---   0.00   0.0   ---    6.8    6.8    6.8    5.2  ------  0.00   0.0     0     0.00      0     0.0  0.00   0.0   0.120   0.000   13.9    59    6.1   13.2    0.00   352    1    100.0   15 
23/11/20  21.15    6.8    7.0    6.8    87    4.8   0.0   ---   0.00   0.0   ---    6.8    6.8    6.8    5.2  ------  0.00   0.0     0     0.00      0     0.0  0.00   0.0   0.120   0.000   13.9    59    6.1   13.2    0.00   350    1    100.0   15 
23/11/20  21.30    6.8    6.9    6.8    87    4.8   1.6    NE   0.40   8.0    NE    6.8    6.8    6.8    5.2  ------  0.00   0.0     0     0.00      0     0.0  0.00   0.0   0.120   0.000   13.9    59    6.1   13.2    0.00   350    1    100.0   15 
23/11/20  21.45    6.8    7.1    6.8    87    4.8   3.2    NE   0.80   8.0    NE    6.8    6.8    6.8    5.2  ------  0.00   0.0     0     0.00      0     0.0  0.00   0.0   0.120   0.000   13.8    59    6.0   13.1    0.00   350    1    100.0   15 
23/11/20  22.00    6.6    6.9    6.6    87    4.6   3.2    NE   0.80   8.0    NE    6.6    6.6    6.6    5.0  ------  0.00   0.0     0     0.00      0     0.0  0.00   0.0   0.122   0.000   13.8    59    6.0   13.1    0.00   351    1    100.0   15 
23/11/20  22.15    6.6    6.7    6.6    88    4.7   3.2    NE   0.80   9.7    NE    6.6    6.6    6.6    4.9  ------  0.00   0.0     0     0.00      0     0.0  0.00   0.0   0.123   0.000   13.8    59    6.0   13.1    0.00   351    1    100.0   15 
23/11/20  22.30    6.6    6.7    6.4    88    4.8   1.6    NE   0.40   6.4    NE    6.6    6.6    6.6    5.0  ------  0.00   0.0     0     0.00      0     0.0  0.00   0.0   0.122   0.000   13.8    59    6.0   13.1    0.00   351    1    100.0   15 
23/11/20  22.45    7.1    7.1    6.6    88    5.3   3.2    NE   0.80   6.4    NE    7.1    7.1    7.1    5.5  ------  0.00   0.0     0     0.00      0     0.0  0.00   0.0   0.117   0.000   13.8    59    6.0   13.1    0.00   351    1    100.0   15 
23/11/20  23.00    7.1    7.2    7.1    88    5.3   3.2    NE   0.80   8.0    NE    7.1    7.1    7.1    5.5  ------  0.00   0.0     0     0.00      0     0.0  0.00   0.0   0.117   0.000   13.8    60    6.1   13.1    0.00   351    1    100.0   15 
23/11/20  23.15    7.1    7.2    7.0    88    5.2   1.6    NE   0.40   4.8    NE    7.1    7.1    7.1    5.4  ------  0.00   0.0     0     0.00      0     0.0  0.00   0.0   0.117   0.000   13.8    60    6.1   13.1    0.00   352    1    100.0   15 
23/11/20  23.30    7.4    7.6    7.0    88    5.5   3.2    NE   0.80   6.4    NE    7.4    7.4    7.4    5.8  ------  0.00   0.0     0     0.00      0     0.0  0.00   0.0   0.114   0.000   13.8    60    6.1   13.1    0.00   351    1    100.0   15 
23/11/20  23.45    8.6    8.6    7.1    88    6.7   3.2    NE   0.80   8.0    NE    8.6    8.7    8.7    7.2  ------  0.00   0.0     0     0.00      0     0.0  0.00   0.0   0.101   0.000   13.8    60    6.1   13.1    0.00   350    1    100.0   15 
24/11/20  00.00    8.7    9.3    8.7    85    6.3   1.6    NE   0.40   8.0    NE    8.7    8.7    8.7    7.1  ------  0.00   0.0     0     0.00      0     0.0  0.00   0.0   0.101   0.000   13.7    60    6.0   12.9    0.00   351    1    100.0   15 
24/11/20   0.15    8.8    8.8    8.6    85    6.4   0.0    NE   0.00   4.8    NE    8.8    8.8    8.8    7.3  ------  0.00   0.0     0     0.00      0     0.0  0.00   0.0   0.099   0.000   13.7    60    6.0   12.9    0.00   348    1    100.0   15 
24/11/20   0.30    8.6    8.8    8.4    86    6.4   3.2    NE   0.80   6.4    NE    8.6    8.6    8.6    7.1  ------  0.00   0.0     0     0.00      0     0.0  0.00   0.0   0.101   0.000   13.7    60    6.0   12.9    0.00   351    1    100.0   15 
24/11/20   0.45    9.1    9.2    8.6    85    6.7   1.6    NE   0.40   6.4    NE    9.1    9.1    9.1    7.5  ------  0.00   0.0     0     0.00      0     0.0  0.00   0.0   0.097   0.000   13.7    60    6.0   12.9    0.00   351    1    100.0   15 
24/11/20   1.00    8.9    9.1    8.9    85    6.5   0.0    NE   0.00   4.8    NE    8.9    8.9    8.9    7.3  ------  0.00   0.0     0     0.00      0     0.0  0.00   0.0   0.098   0.000   13.7    60    6.0   12.9    0.00   351    1    100.0   15 
24/11/20   1.15    8.3    8.9    8.3    85    6.0   1.6    NE   0.40   4.8    NE    8.3    8.3    8.3    6.8  ------  0.00   0.0     0     0.00      0     0.0  0.00   0.0   0.104   0.000   13.7    61    6.3   13.0    0.00   351    1    100.0   15 
24/11/20   1.30    7.9    8.4    7.9    86    5.7   1.6    NE   0.40   4.8    NE    7.9    7.9    7.9    6.4  ------  0.00   0.0     0     0.00      0     0.0  0.00   0.0   0.108   0.000   13.7    61    6.3   13.0    0.00   350    1    100.0   15 
24/11/20   1.45    7.8    7.9    7.7    87    5.8   1.6    NE   0.40   4.8    NE    7.8    7.8    7.8    6.3  ------  0.00   0.0     0     0.00      0     0.0  0.00   0.0   0.109   0.000   13.7    61    6.3   13.0    0.00   350    1    100.0   15 
24/11/20   2.00    8.2    8.4    7.8    87    6.2   1.6    NE   0.40   4.8    NE    8.2    8.3    8.3    6.7  ------  0.00   0.0     0     0.00      0     0.0  0.00   0.0   0.105   0.000   13.7    61    6.3   13.0    0.00   351    1    100.0   15 
24/11/20   2.15    7.8    8.3    7.8    86    5.6   1.6    NE   0.40   4.8    NE    7.8    7.8    7.8    6.2  ------  0.00   0.0     0     0.00      0     0.0  0.00   0.0   0.110   0.000   13.6    61    6.2   12.9    0.00   350    1    100.0   15 
24/11/20   2.30    8.3    8.3    7.6    88    6.5   1.6    NE   0.40   3.2    NE    8.3    8.4    8.4    6.8  ------  0.00   0.0     0     0.00      0     0.0  0.00   0.0   0.104   0.000   13.6    61    6.2   12.9    0.00   350    1    100.0   15 
24/11/20   2.45    7.8    8.5    7.8    87    5.8   1.6    NE   0.40   6.4    NE    7.8    7.8    7.8    6.3  ------  0.00   0.0     0     0.00      0     0.0  0.00   0.0   0.109   0.000   13.6    61    6.2   12.9    0.00   351    1    100.0   15 
24/11/20   3.00    7.8    7.8    7.6    88    5.9   1.6    NE   0.40   6.4    NE    7.8    7.8    7.8    6.3  ------  0.00   0.0     0     0.00      0     0.0  0.00   0.0   0.110   0.000   13.6    61    6.2   12.9    0.00   350    1    100.0   15 
24/11/20   3.15    7.6    7.8    7.6    88    5.7   0.0    NE   0.00   3.2    NE    7.6    7.6    7.6    6.1  ------  0.00   0.0     0     0.00      0     0.0  0.00   0.0   0.112   0.000   13.6    61    6.2   12.9    0.00   351    1    100.0   15 
24/11/20   3.30    7.4    7.7    7.4    88    5.6   0.0    NE   0.00   4.8    NE    7.4    7.4    7.4    5.9  ------  0.00   0.0     0     0.00      0     0.0  0.00   0.0   0.113   0.000   13.6    61    6.2   12.9    0.00   351    1    100.0   15 
24/11/20   3.45    7.3    7.4    7.3    88    5.5   0.0    NE   0.00   3.2    NE    7.3    7.3    7.3    5.7  ------  0.00   0.0     0     0.00      0     0.0  0.00   0.0   0.115   0.000   13.6    61    6.2   12.9    0.00   348    1    100.0   15 
© www.elbaexplorer.com